Darstellungsparameter: Aktuell verwendete Einstellungen:
Skalierung der Graphiken ... ?
xyx+y,   Skalierungsfaktor:      Skalierung: Modus: x, Faktor: 1
Darstellungszeitraum ... ?
Vom - - bis: - -   Zeitraum: 06.08.2009 - 05.09.2009
Min/Max/Avg-Anzeige ... ?
Zeige MMA aktuell
Zeige MMA Monat
Zeige MMA alles
Zeige --A aktuell
Zeige --A Monat
Zeige --A alles
Keine MMA-Anzeige
MMA:
Keine MMA-Graphiken
MMA-Basis: 06.08.2009 - 05.09.2009
Quicknavigation für Darstellung... ?
Tage:      1T, 2T, 3T, 5T -1T -2T -3T -5T +1T +2T +3T +5T
Wochen: 1W, 2W, 3W -1W -2W -3W +1W +2W +3W
Monate: 1M, 3M, 6M -1M -3M -6M +1M +3M +6M
Jahre:    1J, 3J, 5J, 10J -1J -3J -5J -10J +1J +3J +5J +10J
Nutze für die Darstellung ... ?
Originaldaten oder Mittelwerte auf ...
Stundenbasis Tagesbasis Wochenbasis
Monatsbasis Jahresbasis      Datenbasis: Original-Daten
Darstellen als:
Statistik (Auto) Statistik J:M      Darstellung:
Zur Graphik,    zurück zur Übersicht aller Sensoren.
 
Tabellarische Datenbersicht: ?
 
Sensor: Nr:Datum:Temp:Feuchte:Taupunkt:
Aussen-T/F 1 06-08-2009 00:08:26 20.8 C 47 % 9.08 C
2 06-08-2009 00:20:26 20.3 C 48 % 8.94 C
3 06-08-2009 00:32:26 19.9 C 51 % 9.47 C
4 06-08-2009 00:44:26 19.7 C 52 % 9.58 C
5 06-08-2009 00:56:26 19.5 C 52 % 9.39 C
6 06-08-2009 01:08:26 19.3 C 52 % 9.21 C
7 06-08-2009 01:20:26 19.1 C 52 % 9.02 C
8 06-08-2009 01:32:26 18.9 C 54 % 9.4 C
9 06-08-2009 01:44:26 18.8 C 55 % 9.58 C
10 06-08-2009 01:56:26 18.5 C 56 % 9.57 C
11 06-08-2009 02:08:26 18.5 C 57 % 9.83 C
12 06-08-2009 02:20:26 18.2 C 57 % 9.55 C
13 06-08-2009 02:32:26 17.9 C 58 % 9.53 C
14 06-08-2009 02:44:26 17.7 C 59 % 9.59 C
15 06-08-2009 02:56:26 17.6 C 60 % 9.75 C
16 06-08-2009 03:08:26 17.4 C 61 % 9.81 C
17 06-08-2009 03:20:27 17.2 C 61 % 9.62 C
18 06-08-2009 03:32:27 16.9 C 63 % 9.82 C
19 06-08-2009 03:44:27 16.8 C 63 % 9.72 C
20 06-08-2009 03:56:27 16.6 C 64 % 9.77 C
21 06-08-2009 04:08:27 16.4 C 64 % 9.58 C
22 06-08-2009 04:20:27 16.3 C 65 % 9.71 C
23 06-08-2009 04:32:27 16.1 C 65 % 9.53 C
24 06-08-2009 04:44:27 16 C 67 % 9.88 C
25 06-08-2009 04:56:27 15.8 C 69 % 10.13 C
Sensor: Nr:Datum:Temp:Feuchte:Taupunkt:
Aussen-T/F 26 06-08-2009 05:08:27 15.7 C 69 % 10.03 C
27 06-08-2009 05:20:27 15.5 C 71 % 10.27 C
28 06-08-2009 05:32:27 15.3 C 71 % 10.08 C
29 06-08-2009 05:44:27 15.2 C 71 % 9.98 C
30 06-08-2009 05:56:27 15.1 C 71 % 9.89 C
31 06-08-2009 06:08:27 15 C 72 % 10 C
32 06-08-2009 06:20:27 14.9 C 73 % 10.11 C
33 06-08-2009 06:32:27 14.8 C 74 % 10.22 C
34 06-08-2009 06:44:27 14.8 C 74 % 10.22 C
35 06-08-2009 06:56:27 14.8 C 74 % 10.22 C
36 06-08-2009 07:08:25 15 C 74 % 10.41 C
37 06-08-2009 07:20:25 15.1 C 74 % 10.5 C
38 06-08-2009 07:32:26 15.2 C 74 % 10.6 C
39 06-08-2009 07:44:25 15.4 C 73 % 10.59 C
40 06-08-2009 07:56:25 15.6 C 73 % 10.78 C
41 06-08-2009 08:08:25 15.7 C 72 % 10.67 C
42 06-08-2009 08:20:25 16 C 71 % 10.75 C
43 06-08-2009 08:32:25 16.2 C 70 % 10.73 C
44 06-08-2009 08:44:24 16.6 C 70 % 11.11 C
45 06-08-2009 08:56:24 17 C 69 % 11.28 C
46 06-08-2009 09:08:24 17.5 C 67 % 11.31 C
47 06-08-2009 09:20:24 18.2 C 65 % 11.52 C
48 06-08-2009 09:32:25 19 C 62 % 11.56 C
49 06-08-2009 09:44:24 19.6 C 59 % 11.37 C
50 06-08-2009 09:56:24 20.3 C 56 % 11.24 C
Sensor: Nr:Datum:Temp:Feuchte:Taupunkt:
Aussen-T/F 51 06-08-2009 10:08:24 21.4 C 50 % 10.55 C
52 06-08-2009 10:20:24 22.3 C 46 % 10.13 C
53 06-08-2009 10:32:24 22.9 C 44 % 10.01 C
54 06-08-2009 10:44:23 23.4 C 42 % 9.77 C
55 06-08-2009 10:56:23 23.9 C 42 % 10.21 C
56 06-08-2009 11:08:24 24.5 C 38 % 9.26 C
57 06-08-2009 11:20:23 25.1 C 37 % 9.39 C
58 06-08-2009 11:32:23 25.4 C 36 % 9.25 C
59 06-08-2009 11:44:22 25.9 C 36 % 9.69 C
60 06-08-2009 11:56:22 26.6 C 35 % 9.89 C
61 06-08-2009 12:08:23 27.3 C 33 % 9.62 C
62 06-08-2009 12:20:23 27.8 C 30 % 8.64 C
63 06-08-2009 12:32:22 28.4 C 29 % 8.66 C
64 06-08-2009 12:44:23 28.6 C 28 % 8.31 C
65 06-08-2009 12:56:23 29.4 C 28 % 9 C
66 06-08-2009 13:08:22 29.6 C 26 % 8.07 C
67 06-08-2009 13:20:22 30.8 C 24 % 7.91 C
68 06-08-2009 13:32:21 31.3 C 23 % 7.7 C
69 06-08-2009 13:44:22 31.4 C 21 % 6.46 C
70 06-08-2009 13:56:22 31.7 C 20 % 6 C
71 06-08-2009 14:08:22 31.4 C 20 % 5.75 C
72 06-08-2009 14:20:21 31.2 C 20 % 5.59 C
73 06-08-2009 14:32:22 31.2 C 20 % 5.59 C
74 06-08-2009 14:44:21 31 C 20 % 5.42 C
75 06-08-2009 14:56:21 31.7 C 20 % 6 C
Sensor: Nr:Datum:Temp:Feuchte:Taupunkt:
Aussen-T/F 76 06-08-2009 15:08:21 32.2 C 20 % 6.41 C
77 06-08-2009 15:20:21 32.6 C 20 % 6.73 C
78 06-08-2009 15:32:21 32.7 C 20 % 6.81 C
79 06-08-2009 15:44:20 32.8 C 20 % 6.9 C
80 06-08-2009 15:56:20 33.1 C 20 % 7.14 C
81 06-08-2009 16:08:21 32.8 C 20 % 6.9 C
82 06-08-2009 16:20:21 33.1 C 20 % 7.14 C
83 06-08-2009 16:32:20 33.3 C 20 % 7.3 C
84 06-08-2009 16:44:20 33.5 C 20 % 7.47 C
85 06-08-2009 16:56:20 33.8 C 20 % 7.71 C
86 06-08-2009 17:08:20 34 C 20 % 7.88 C
87 06-08-2009 17:20:20 33.8 C 20 % 7.71 C
88 06-08-2009 17:32:19 34 C 20 % 7.88 C
89 06-08-2009 17:44:20 34.1 C 20 % 7.96 C
90 06-08-2009 17:56:21 34 C 20 % 7.88 C
91 06-08-2009 18:08:19 33.8 C 20 % 7.71 C
92 06-08-2009 18:20:19 33.7 C 20 % 7.63 C
93 06-08-2009 18:32:19 33.7 C 20 % 7.63 C
94 06-08-2009 18:44:19 33.6 C 20 % 7.55 C
95 06-08-2009 18:56:19 33.6 C 20 % 7.55 C
96 06-08-2009 19:08:19 33.3 C 20 % 7.3 C
97 06-08-2009 19:20:18 33.2 C 20 % 7.22 C
98 06-08-2009 19:32:19 32.8 C 20 % 6.9 C
99 06-08-2009 19:44:18 32.7 C 20 % 6.81 C
100 06-08-2009 19:56:18 32.3 C 20 % 6.49 C
Sensor: Nr:Datum:Temp:Feuchte:Taupunkt:
Aussen-T/F 101 06-08-2009 20:08:18 32 C 21 % 6.95 C
102 06-08-2009 20:20:18 31.4 C 22 % 7.13 C
103 06-08-2009 20:32:18 30.6 C 25 % 8.34 C
104 06-08-2009 20:44:18 29.4 C 28 % 9 C
105 06-08-2009 20:56:18 28.4 C 30 % 9.16 C
106 06-08-2009 21:08:17 27.5 C 31 % 8.87 C
107 06-08-2009 21:20:18 26.9 C 32 % 8.82 C
108 06-08-2009 21:32:18 26.2 C 33 % 8.67 C
109 06-08-2009 21:44:17 25.9 C 35 % 9.27 C
110 06-08-2009 21:56:17 25.5 C 36 % 9.34 C
111 06-08-2009 22:08:17 25.4 C 37 % 9.66 C
112 06-08-2009 22:20:17 24.9 C 39 % 10 C
113 06-08-2009 22:32:16 24.7 C 40 % 10.2 C
114 06-08-2009 22:44:17 24.3 C 41 % 10.21 C
115 06-08-2009 22:56:17 24.1 C 42 % 10.39 C
116 06-08-2009 23:08:17 23.7 C 44 % 10.73 C
117 06-08-2009 23:20:16 23.5 C 44 % 10.55 C
118 06-08-2009 23:33:17 23.2 C 45 % 10.62 C
119 06-08-2009 23:45:17 23 C 45 % 10.43 C
120 06-08-2009 23:57:17 22.6 C 47 % 10.72 C
121 07-08-2009 00:09:17 22.6 C 47 % 10.72 C
122 07-08-2009 00:21:17 22.2 C 47 % 10.36 C
123 07-08-2009 00:33:17 22.1 C 48 % 10.58 C
124 07-08-2009 00:45:17 21.8 C 49 % 10.62 C
125 07-08-2009 00:57:18 21.6 C 51 % 11.04 C
Sensor: Nr:Datum:Temp:Feuchte:Taupunkt:
Aussen-T/F 126 07-08-2009 01:09:18 21.4 C 51 % 10.85 C
127 07-08-2009 01:21:18 21.2 C 52 % 10.96 C
128 07-08-2009 01:33:18 21 C 52 % 10.78 C
129 07-08-2009 01:45:18 20.7 C 55 % 11.34 C
130 07-08-2009 01:57:18 20.4 C 56 % 11.33 C
131 07-08-2009 02:09:18 20.2 C 56 % 11.15 C
132 07-08-2009 02:21:18 20 C 57 % 11.23 C
133 07-08-2009 02:33:18 19.8 C 59 % 11.56 C
134 07-08-2009 02:45:18 19.6 C 60 % 11.63 C
135 07-08-2009 02:57:18 19.3 C 61 % 11.6 C
136 07-08-2009 03:09:18 19.2 C 61 % 11.5 C
137 07-08-2009 03:21:18 19 C 62 % 11.56 C
138 07-08-2009 03:33:18 18.8 C 64 % 11.85 C
139 07-08-2009 03:45:18 18.7 C 64 % 11.76 C
140 07-08-2009 03:57:18 18.6 C 65 % 11.9 C
141 07-08-2009 04:09:18 18.4 C 65 % 11.71 C
142 07-08-2009 04:21:18 18.3 C 66 % 11.84 C
143 07-08-2009 04:33:18 18.1 C 66 % 11.65 C
144 07-08-2009 04:45:19 17.9 C 68 % 11.91 C
145 07-08-2009 04:57:19 17.7 C 69 % 11.95 C
146 07-08-2009 05:09:19 17.6 C 69 % 11.85 C
147 07-08-2009 05:21:19 17.4 C 69 % 11.66 C
148 07-08-2009 05:33:19 17.4 C 70 % 11.88 C
149 07-08-2009 05:45:19 17.3 C 71 % 12 C
150 07-08-2009 05:57:19 17.2 C 71 % 11.9 C
Sensor: Nr:Datum:Temp:Feuchte:Taupunkt:
Aussen-T/F 151 07-08-2009 06:09:19 17 C 71 % 11.71 C
152 07-08-2009 06:21:19 17 C 71 % 11.71 C
153 07-08-2009 06:33:19 16.9 C 72 % 11.82 C
154 07-08-2009 06:45:19 16.9 C 73 % 12.03 C
155 07-08-2009 06:57:19 17 C 72 % 11.92 C
156 07-08-2009 07:09:17 17 C 73 % 12.13 C
157 07-08-2009 07:21:17 17.1 C 73 % 12.23 C
158 07-08-2009 07:33:17 17.2 C 73 % 12.32 C
159 07-08-2009 07:45:16 17.4 C 72 % 12.3 C
160 07-08-2009 07:57:16 17.6 C 72 % 12.5 C
161 07-08-2009 08:09:17 17.9 C 71 % 12.57 C
162 07-08-2009 08:21:17 18.1 C 70 % 12.55 C
163 07-08-2009 08:33:16 18.3 C 69 % 12.52 C
164 07-08-2009 08:45:17 18.7 C 69 % 12.9 C
165 07-08-2009 08:57:17 19 C 67 % 12.74 C
166 07-08-2009 09:09:16 19.5 C 66 % 12.98 C
167 07-08-2009 09:21:16 20.2 C 62 % 12.69 C
168 07-08-2009 09:33:15 20.7 C 60 % 12.66 C
169 07-08-2009 09:45:16 21.3 C 59 % 12.97 C
170 07-08-2009 09:57:16 22.1 C 56 % 12.92 C
171 07-08-2009 10:09:15 22.7 C 53 % 12.63 C
172 07-08-2009 10:21:15 23.4 C 53 % 13.28 C
173 07-08-2009 10:33:16 24.1 C 51 % 13.34 C
174 07-08-2009 10:45:15 24.9 C 49 % 13.46 C
175 07-08-2009 10:57:15 25.8 C 43 % 12.28 C
Sensor: Nr:Datum:Temp:Feuchte:Taupunkt:
Aussen-T/F 176 07-08-2009 11:09:15 26.5 C 38 % 11.03 C
177 07-08-2009 11:21:15 27.3 C 36 % 10.93 C
178 07-08-2009 11:33:15 27.8 C 35 % 10.94 C
179 07-08-2009 11:45:14 28.4 C 33 % 10.58 C
180 07-08-2009 11:57:14 28.5 C 32 % 10.21 C
181 07-08-2009 12:09:15 29.4 C 31 % 10.51 C
182 07-08-2009 12:21:15 29.9 C 29 % 9.94 C
183 07-08-2009 12:33:14 30 C 28 % 9.51 C
184 07-08-2009 12:45:14 30.4 C 27 % 9.31 C
185 07-08-2009 12:57:14 30.8 C 24 % 7.91 C
186 07-08-2009 13:09:14 31.3 C 23 % 7.7 C
187 07-08-2009 13:21:14 30.6 C 23 % 7.12 C
188 07-08-2009 13:33:13 31 C 21 % 6.13 C
189 07-08-2009 13:45:14 30.5 C 22 % 6.39 C
190 07-08-2009 13:57:14 31 C 21 % 6.13 C
191 07-08-2009 14:09:13 31.7 C 20 % 6 C
192 07-08-2009 14:21:13 31.9 C 20 % 6.16 C
193 07-08-2009 14:33:13 32.1 C 20 % 6.32 C
194 07-08-2009 14:45:13 32 C 20 % 6.24 C
195 07-08-2009 14:57:13 32.4 C 20 % 6.57 C
196 07-08-2009 15:09:13 32.5 C 20 % 6.65 C
197 07-08-2009 15:21:13 32.3 C 20 % 6.49 C
198 07-08-2009 15:33:13 32.6 C 20 % 6.73 C
199 07-08-2009 15:45:12 32.8 C 20 % 6.9 C
200 07-08-2009 15:57:12 32.6 C 20 % 6.73 C
Sensor: Nr:Datum:Temp:Feuchte:Taupunkt:
Aussen-T/F 201 07-08-2009 16:09:12 32.9 C 20 % 6.98 C
202 07-08-2009 16:21:12 33.3 C 20 % 7.3 C
203 07-08-2009 16:33:12 33.4 C 20 % 7.39 C
204 07-08-2009 16:45:11 33.4 C 20 % 7.39 C
205 07-08-2009 16:57:11 33.9 C 20 % 7.8 C
206 07-08-2009 17:09:12 34.1 C 20 % 7.96 C
207 07-08-2009 17:21:12 33.8 C 20 % 7.71 C
208 07-08-2009 17:33:11 33.9 C 20 % 7.8 C
209 07-08-2009 17:45:12 33.3 C 20 % 7.3 C
210 07-08-2009 17:57:12 33.9 C 20 % 7.8 C
211 07-08-2009 18:09:11 33.9 C 20 % 7.8 C
212 07-08-2009 18:21:11 34 C 20 % 7.88 C
213 07-08-2009 18:33:10 33.9 C 20 % 7.8 C
214 07-08-2009 18:45:11 33.7 C 20 % 7.63 C
215 07-08-2009 18:57:12 33.8 C 20 % 7.71 C
216 07-08-2009 19:09:10 33.4 C 20 % 7.39 C
217 07-08-2009 19:21:10 33.4 C 20 % 7.39 C
218 07-08-2009 19:33:11 32.2 C 21 % 7.11 C
219 07-08-2009 19:45:10 31.1 C 24 % 8.16 C
220 07-08-2009 19:57:10 30.3 C 26 % 8.66 C
221 07-08-2009 20:09:10 30 C 27 % 8.97 C
222 07-08-2009 20:21:10 29.3 C 28 % 8.91 C
223 07-08-2009 20:33:10 28.4 C 29 % 8.66 C
224 07-08-2009 20:45:09 27.4 C 31 % 8.78 C
225 07-08-2009 20:57:09 27.1 C 31 % 8.52 C
Sensor: Nr:Datum:Temp:Feuchte:Taupunkt:
Aussen-T/F 226 07-08-2009 21:09:10 26.8 C 32 % 8.73 C
227 07-08-2009 21:21:09 26.5 C 33 % 8.93 C
228 07-08-2009 21:33:09 26.4 C 33 % 8.84 C
229 07-08-2009 21:45:09 26.1 C 34 % 9.02 C
230 07-08-2009 21:57:09 26 C 35 % 9.36 C
231 07-08-2009 22:09:09 25.5 C 37 % 9.75 C
232 07-08-2009 22:21:09 25.3 C 40 % 10.74 C
233 07-08-2009 22:33:09 25 C 41 % 10.84 C
234 07-08-2009 22:46:09 24.9 C 43 % 11.47 C
235 07-08-2009 22:58:09 24.6 C 45 % 11.88 C
236 07-08-2009 23:10:09 24.5 C 45 % 11.79 C
237 07-08-2009 23:22:09 24.3 C 46 % 11.94 C
238 07-08-2009 23:34:09 24.1 C 48 % 12.41 C
239 07-08-2009 23:46:09 23.7 C 49 % 12.36 C
240 07-08-2009 23:58:10 23.8 C 50 % 12.76 C
241 08-08-2009 00:10:10 23.5 C 51 % 12.78 C
242 08-08-2009 00:22:10 23.4 C 51 % 12.69 C
243 08-08-2009 00:34:10 23.5 C 51 % 12.78 C
244 08-08-2009 00:46:10 23.4 C 51 % 12.69 C
245 08-08-2009 00:58:10 23.3 C 52 % 12.9 C
246 08-08-2009 01:10:10 23.3 C 52 % 12.9 C
247 08-08-2009 01:22:10 23.2 C 53 % 13.09 C
248 08-08-2009 01:34:10 23.1 C 54 % 13.29 C
249 08-08-2009 01:46:10 23 C 55 % 13.48 C
250 08-08-2009 01:58:10 23 C 55 % 13.48 C
Sensor: Nr:Datum:Temp:Feuchte:Taupunkt:
Aussen-T/F 251 08-08-2009 02:10:10 23 C 55 % 13.48 C
252 08-08-2009 02:22:10 23 C 55 % 13.48 C
253 08-08-2009 02:34:10 22.7 C 56 % 13.47 C
254 08-08-2009 02:46:10 22.1 C 57 % 13.19 C
255 08-08-2009 02:58:10 22.1 C 58 % 13.45 C
256 08-08-2009 03:10:10 22.1 C 58 % 13.45 C
257 08-08-2009 03:22:10 22 C 58 % 13.36 C
258 08-08-2009 03:34:10 21.7 C 60 % 13.6 C
259 08-08-2009 03:46:11 21.4 C 62 % 13.82 C
260 08-08-2009 03:58:11 21.4 C 62 % 13.82 C
261 08-08-2009 04:10:11 21.1 C 63 % 13.79 C
262 08-08-2009 04:22:11 21.2 C 64 % 14.12 C
263 08-08-2009 04:34:11 21.1 C 66 % 14.5 C
264 08-08-2009 04:46:11 21.1 C 67 % 14.74 C
265 08-08-2009 04:58:11 21.3 C 67 % 14.93 C
266 08-08-2009 05:10:11 21.3 C 66 % 14.69 C
267 08-08-2009 05:22:11 21.3 C 67 % 14.93 C
268 08-08-2009 05:34:11 21.3 C 68 % 15.16 C
269 08-08-2009 05:46:11 21.2 C 69 % 15.29 C
270 08-08-2009 05:58:11 21.3 C 68 % 15.16 C
271 08-08-2009 06:10:11 21.4 C 68 % 15.25 C
272 08-08-2009 06:22:11 21.4 C 67 % 15.02 C
273 08-08-2009 06:34:11 21.5 C 67 % 15.12 C
274 08-08-2009 06:46:11 21.1 C 69 % 15.19 C
275 08-08-2009 06:58:11 21.1 C 70 % 15.42 C
Sensor: Nr:Datum:Temp:Feuchte:Taupunkt:
Aussen-T/F 276 08-08-2009 07:10:11 21.1 C 70 % 15.42 C
277 08-08-2009 07:22:11 21 C 70 % 15.32 C
278 08-08-2009 07:34:12 20.9 C 71 % 15.45 C
279 08-08-2009 07:46:12 21.1 C 70 % 15.42 C
280 08-08-2009 07:58:12 21.1 C 70 % 15.42 C
281 08-08-2009 08:10:12 21 C 70 % 15.32 C
282 08-08-2009 08:22:08 21.1 C 70 % 15.42 C
283 08-08-2009 08:34:09 21.3 C 69 % 15.38 C
284 08-08-2009 08:46:08 21.2 C 69 % 15.29 C
285 08-08-2009 08:58:08 21.6 C 68 % 15.44 C
286 08-08-2009 09:10:09 21.7 C 67 % 15.31 C
287 08-08-2009 09:22:08 21.6 C 67 % 15.21 C
288 08-08-2009 09:34:08 21.4 C 68 % 15.25 C
289 08-08-2009 09:46:08 21.3 C 68 % 15.16 C
290 08-08-2009 09:58:08 21.6 C 66 % 14.98 C
291 08-08-2009 10:10:08 21.6 C 65 % 14.74 C
292 08-08-2009 10:22:07 21.3 C 66 % 14.69 C
293 08-08-2009 10:34:07 21.3 C 66 % 14.69 C
294 08-08-2009 10:46:07 21.4 C 65 % 14.55 C
295 08-08-2009 10:58:07 21.1 C 66 % 14.5 C
296 08-08-2009 11:10:07 20.5 C 69 % 14.62 C
297 08-08-2009 11:22:07 20 C 71 % 14.58 C
298 08-08-2009 11:34:07 20.6 C 71 % 15.16 C
299 08-08-2009 11:46:07 20.5 C 71 % 15.06 C
300 08-08-2009 11:58:07 20.4 C 71 % 14.97 C
Sensor: Nr:Datum:Temp:Feuchte:Taupunkt:
Aussen-T/F 301 08-08-2009 12:10:06 20.4 C 72 % 15.18 C
302 08-08-2009 12:22:07 20.5 C 71 % 15.06 C
303 08-08-2009 12:34:06 20.5 C 71 % 15.06 C
304 08-08-2009 12:46:06 20.5 C 70 % 14.84 C
305 08-08-2009 12:58:06 20.6 C 70 % 14.94 C
306 08-08-2009 13:10:06 21 C 69 % 15.1 C
307 08-08-2009 13:22:06 22.4 C 62 % 14.76 C
308 08-08-2009 13:34:06 22.1 C 60 % 13.98 C
309 08-08-2009 13:46:06 22 C 60 % 13.88 C
310 08-08-2009 13:58:06 21.9 C 62 % 14.29 C
311 08-08-2009 14:10:06 22.2 C 61 % 14.32 C
312 08-08-2009 14:22:05 22 C 62 % 14.39 C
313 08-08-2009 14:34:05 21.3 C 64 % 14.22 C
314 08-08-2009 14:46:05 22 C 63 % 14.63 C
315 08-08-2009 14:58:05 22.4 C 61 % 14.51 C
316 08-08-2009 15:10:05 22.4 C 59 % 14 C
317 08-08-2009 15:22:05 21.8 C 63 % 14.45 C
318 08-08-2009 15:34:04 21.8 C 64 % 14.69 C
319 08-08-2009 15:46:05 22.1 C 63 % 14.73 C
320 08-08-2009 15:58:05 21.6 C 63 % 14.26 C
321 08-08-2009 16:10:04 21.4 C 65 % 14.55 C
322 08-08-2009 16:22:04 21 C 66 % 14.41 C
323 08-08-2009 16:34:04 20.9 C 68 % 14.77 C
324 08-08-2009 16:46:04 20.3 C 70 % 14.65 C
325 08-08-2009 16:58:04 20.4 C 70 % 14.75 C
Sensor: Nr:Datum:Temp:Feuchte:Taupunkt:
Aussen-T/F 326 08-08-2009 17:10:04 20.7 C 69 % 14.81 C
327 08-08-2009 17:22:03 21 C 67 % 14.64 C
328 08-08-2009 17:34:04 20.9 C 68 % 14.77 C
329 08-08-2009 17:46:03 20.8 C 68 % 14.68 C
330 08-08-2009 17:58:03 20.8 C 69 % 14.91 C
331 08-08-2009 18:10:03 20.5 C 69 % 14.62 C
332 08-08-2009 18:22:03 20.7 C 69 % 14.81 C
333 08-08-2009 18:34:04 21 C 67 % 14.64 C
334 08-08-2009 18:46:03 20.5 C 69 % 14.62 C
335 08-08-2009 18:58:03 20.1 C 71 % 14.68 C
336 08-08-2009 19:10:02 20.2 C 72 % 14.99 C
337 08-08-2009 19:22:03 20.5 C 71 % 15.06 C
338 08-08-2009 19:34:02 20.7 C 70 % 15.03 C
339 08-08-2009 19:46:02 20.5 C 70 % 14.84 C
340 08-08-2009 19:58:03 20.5 C 70 % 14.84 C
341 08-08-2009 20:10:02 20.6 C 70 % 14.94 C
342 08-08-2009 20:22:02 20.5 C 70 % 14.84 C
343 08-08-2009 20:34:02 20.5 C 70 % 14.84 C
344 08-08-2009 20:46:02 20.5 C 70 % 14.84 C
345 08-08-2009 20:58:02 20.2 C 71 % 14.78 C
346 08-08-2009 21:10:02 20.2 C 72 % 14.99 C
347 08-08-2009 21:22:01 20.2 C 71 % 14.78 C
348 08-08-2009 21:34:01 20.1 C 71 % 14.68 C
349 08-08-2009 21:46:01 20 C 72 % 14.8 C
350 08-08-2009 21:58:01 20 C 72 % 14.8 C
Sensor: Nr:Datum:Temp:Feuchte:Taupunkt:
Aussen-T/F 351 08-08-2009 22:10:01 20 C 72 % 14.8 C
352 08-08-2009 22:22:01 20 C 72 % 14.8 C
353 08-08-2009 22:34:01 19.9 C 73 % 14.92 C
354 08-08-2009 22:47:03 19.8 C 74 % 15.03 C
355 08-08-2009 22:59:03 19.9 C 74 % 15.13 C
356 08-08-2009 23:11:03 19.8 C 74 % 15.03 C
357 08-08-2009 23:23:03 20.1 C 73 % 15.11 C
358 08-08-2009 23:35:03 19.8 C 74 % 15.03 C
359 08-08-2009 23:47:03 19.8 C 74 % 15.03 C
360 08-08-2009 23:59:03 19.7 C 74 % 14.94 C
361 09-08-2009 00:11:03 19.9 C 74 % 15.13 C
362 09-08-2009 00:23:03 20 C 73 % 15.01 C
363 09-08-2009 00:35:03 20 C 73 % 15.01 C
364 09-08-2009 00:47:03 20 C 73 % 15.01 C
365 09-08-2009 00:59:03 19.8 C 74 % 15.03 C
366 09-08-2009 01:11:03 19.8 C 75 % 15.24 C
367 09-08-2009 01:23:03 19.7 C 75 % 15.15 C
368 09-08-2009 01:35:04 19.7 C 76 % 15.35 C
369 09-08-2009 01:47:04 19.7 C 76 % 15.35 C
370 09-08-2009 01:59:04 19.7 C 76 % 15.35 C
371 09-08-2009 02:11:04 19.7 C 75 % 15.15 C
372 09-08-2009 02:23:04 19.7 C 75 % 15.15 C
373 09-08-2009 02:35:04 19.7 C 75 % 15.15 C
374 09-08-2009 02:47:04 19.7 C 75 % 15.15 C
375 09-08-2009 02:59:04 19.6 C 75 % 15.05 C
Sensor: Nr:Datum:Temp:Feuchte:Taupunkt:
Aussen-T/F 376 09-08-2009 03:11:04 19.6 C 75 % 15.05 C
377 09-08-2009 03:23:04 19.5 C 75 % 14.95 C
378 09-08-2009 03:35:04 19.5 C 76 % 15.16 C
379 09-08-2009 03:47:04 19.5 C 76 % 15.16 C
380 09-08-2009 03:59:04 19.4 C 76 % 15.06 C
381 09-08-2009 04:11:04 19.3 C 76 % 14.97 C
382 09-08-2009 04:23:04 19.3 C 76 % 14.97 C
383 09-08-2009 04:35:04 19.3 C 77 % 15.17 C
384 09-08-2009 04:47:04 19.3 C 77 % 15.17 C
385 09-08-2009 04:59:04 19.3 C 77 % 15.17 C
386 09-08-2009 05:11:04 19.3 C 77 % 15.17 C
387 09-08-2009 05:23:05 19.3 C 77 % 15.17 C
388 09-08-2009 05:35:05 19.2 C 77 % 15.07 C
389 09-08-2009 05:47:02 19.3 C 77 % 15.17 C
390 09-08-2009 05:59:02 19.3 C 77 % 15.17 C
391 09-08-2009 06:11:02 19.2 C 78 % 15.27 C
392 09-08-2009 06:23:02 19.2 C 78 % 15.27 C
393 09-08-2009 06:35:02 19.2 C 77 % 15.07 C
394 09-08-2009 06:47:01 19.2 C 77 % 15.07 C
395 09-08-2009 06:59:01 19.2 C 77 % 15.07 C
396 09-08-2009 07:11:01 19.1 C 78 % 15.18 C
397 09-08-2009 07:23:01 19.2 C 77 % 15.07 C
398 09-08-2009 07:35:02 19.3 C 77 % 15.17 C
399 09-08-2009 07:47:01 19.5 C 77 % 15.36 C
400 09-08-2009 07:59:01 19.7 C 77 % 15.56 C
Sensor: Nr:Datum:Temp:Feuchte:Taupunkt:
Aussen-T/F 401 09-08-2009 08:11:01 19.9 C 75 % 15.34 C
402 09-08-2009 08:23:01 20 C 73 % 15.01 C
403 09-08-2009 08:35:01 20 C 73 % 15.01 C
404 09-08-2009 08:47:00 20.1 C 72 % 14.9 C
405 09-08-2009 08:59:00 20.3 C 71 % 14.87 C
406 09-08-2009 09:11:00 20.5 C 70 % 14.84 C
407 09-08-2009 09:23:00 20.7 C 69 % 14.81 C
408 09-08-2009 09:35:00 21 C 67 % 14.64 C
409 09-08-2009 09:47:00 21.2 C 66 % 14.6 C
410 09-08-2009 09:59:00 21.5 C 65 % 14.65 C
411 09-08-2009 10:11:00 21.9 C 64 % 14.78 C
412 09-08-2009 10:23:59 21.9 C 64 % 14.78 C
413 09-08-2009 10:35:00 22.2 C 61 % 14.32 C
414 09-08-2009 10:47:00 22.8 C 59 % 14.37 C
415 09-08-2009 10:59:00 23.4 C 58 % 14.67 C
416 09-08-2009 11:11:00 23.9 C 56 % 14.59 C
417 09-08-2009 11:23:00 24.2 C 52 % 13.73 C
418 09-08-2009 11:34:59 24.2 C 53 % 14.02 C
419 09-08-2009 11:47:59 25.2 C 50 % 14.04 C
420 09-08-2009 11:59:59 25.5 C 46 % 13.03 C
421 09-08-2009 12:11:59 25.3 C 47 % 13.18 C
422 09-08-2009 12:23:00 24.7 C 51 % 13.89 C
423 09-08-2009 12:35:00 23.6 C 53 % 13.46 C
424 09-08-2009 12:47:58 24.2 C 53 % 14.02 C
425 09-08-2009 12:59:59 24.1 C 51 % 13.34 C
Sensor: Nr:Datum:Temp:Feuchte:Taupunkt:
Aussen-T/F 426 09-08-2009 13:11:59 24.3 C 51 % 13.52 C
427 09-08-2009 13:23:58 24.2 C 50 % 13.12 C
428 09-08-2009 13:35:58 24 C 51 % 13.24 C
429 09-08-2009 13:47:58 23.7 C 54 % 13.84 C
430 09-08-2009 13:59:57 24.1 C 53 % 13.93 C
431 09-08-2009 14:11:57 24.6 C 51 % 13.79 C
432 09-08-2009 14:23:57 25 C 48 % 13.23 C
433 09-08-2009 14:35:58 24.9 C 49 % 13.46 C
434 09-08-2009 14:47:57 25.4 C 47 % 13.27 C
435 09-08-2009 14:59:57 25.9 C 46 % 13.4 C
436 09-08-2009 15:11:57 26.6 C 44 % 13.35 C
437 09-08-2009 15:23:57 27.5 C 41 % 13.08 C
438 09-08-2009 15:35:57 27.7 C 39 % 12.49 C
439 09-08-2009 15:47:56 28.1 C 38 % 12.45 C
440 09-08-2009 15:59:57 28.3 C 37 % 12.22 C
441 09-08-2009 16:11:57 28.6 C 36 % 12.07 C
442 09-08-2009 16:23:56 29.2 C 35 % 12.17 C
443 09-08-2009 16:35:56 29.6 C 36 % 12.95 C
444 09-08-2009 16:47:56 30.2 C 32 % 11.68 C
445 09-08-2009 16:59:55 30.2 C 32 % 11.68 C
446 09-08-2009 17:11:55 30.1 C 32 % 11.59 C
447 09-08-2009 17:23:56 30.3 C 32 % 11.77 C
448 09-08-2009 17:35:56 29.6 C 34 % 12.08 C
449 09-08-2009 17:47:55 29.9 C 33 % 11.89 C
450 09-08-2009 17:59:00 29 C 34 % 11.55 C
Sensor: Nr:Datum:Temp:Feuchte:Taupunkt:
Aussen-T/F 451 09-08-2009 18:11:00 27.9 C 37 % 11.87 C
452 09-08-2009 18:23:56 28.5 C 36 % 11.98 C
453 09-08-2009 18:35:55 27.2 C 38 % 11.65 C
454 09-08-2009 18:47:55 27.5 C 38 % 11.92 C
455 09-08-2009 18:59:55 27.2 C 38 % 11.65 C
456 09-08-2009 19:11:55 26.6 C 41 % 12.27 C
457 09-08-2009 19:23:54 25.9 C 44 % 12.72 C
458 09-08-2009 19:35:54 25.5 C 45 % 12.7 C
459 09-08-2009 19:47:54 24.9 C 46 % 12.49 C
460 09-08-2009 19:59:54 24.6 C 47 % 12.54 C
461 09-08-2009 20:11:54 24.5 C 49 % 13.09 C
462 09-08-2009 20:23:54 24.4 C 50 % 13.31 C
463 09-08-2009 20:35:54 24.1 C 51 % 13.34 C
464 09-08-2009 20:47:54 23.9 C 52 % 13.45 C
465 09-08-2009 20:59:54 23.6 C 54 % 13.75 C
466 09-08-2009 21:11:54 23.3 C 55 % 13.76 C
467 09-08-2009 21:23:53 23 C 56 % 13.75 C
468 09-08-2009 21:36:55 22.6 C 57 % 13.65 C
469 09-08-2009 21:48:55 22.4 C 58 % 13.73 C
470 09-08-2009 22:00:55 22.2 C 58 % 13.55 C
471 09-08-2009 22:12:55 22 C 59 % 13.62 C
472 09-08-2009 22:24:55 21.8 C 61 % 13.95 C
473 09-08-2009 22:36:55 21.7 C 61 % 13.85 C
474 09-08-2009 22:48:55 21.6 C 61 % 13.76 C
475 09-08-2009 23:00:55 21.4 C 62 % 13.82 C
Sensor: Nr:Datum:Temp:Feuchte:Taupunkt:
Aussen-T/F 476 09-08-2009 23:12:55 21.2 C 63 % 13.88 C
477 09-08-2009 23:24:55 21.1 C 64 % 14.03 C
478 09-08-2009 23:36:55 21 C 64 % 13.93 C
479 09-08-2009 23:48:55 20.9 C 66 % 14.31 C
480 10-08-2009 00:00:55 20.8 C 66 % 14.22 C
481 10-08-2009 00:12:55 20.8 C 66 % 14.22 C
482 10-08-2009 00:24:55 20.5 C 67 % 14.16 C
483 10-08-2009 00:36:56 20.5 C 68 % 14.39 C
484 10-08-2009 00:48:56 20.3 C 68 % 14.2 C
485 10-08-2009 01:00:56 20.2 C 69 % 14.33 C
486 10-08-2009 01:12:56 20.2 C 69 % 14.33 C
487 10-08-2009 01:24:56 20 C 70 % 14.36 C
488 10-08-2009 01:36:56 19.8 C 72 % 14.61 C
489 10-08-2009 01:48:56 19.7 C 72 % 14.51 C
490 10-08-2009 02:00:56 19.8 C 72 % 14.61 C
491 10-08-2009 02:12:56 20 C 71 % 14.58 C
492 10-08-2009 02:24:56 19.7 C 72 % 14.51 C
493 10-08-2009 02:36:56 19.7 C 72 % 14.51 C
494 10-08-2009 02:48:56 19.6 C 73 % 14.63 C
495 10-08-2009 03:00:56 19.6 C 73 % 14.63 C
496 10-08-2009 03:12:56 19.4 C 73 % 14.44 C
497 10-08-2009 03:24:56 19.2 C 75 % 14.66 C
498 10-08-2009 03:36:56 19.1 C 75 % 14.57 C
499 10-08-2009 03:48:56 19.1 C 76 % 14.77 C
500 10-08-2009 04:00:56 19.1 C 76 % 14.77 C
Sensor: Nr:Datum:Temp:Feuchte:Taupunkt:
Aussen-T/F 501 10-08-2009 04:12:56 19.1 C 76 % 14.77 C
502 10-08-2009 04:24:57 19 C 76 % 14.68 C
503 10-08-2009 04:36:57 19 C 76 % 14.68 C
504 10-08-2009 04:48:57 18.9 C 77 % 14.78 C
505 10-08-2009 05:00:57 18.8 C 77 % 14.68 C
506 10-08-2009 05:12:57 18.7 C 77 % 14.59 C
507 10-08-2009 05:24:57 18.7 C 78 % 14.79 C
508 10-08-2009 05:36:57 18.7 C 78 % 14.79 C
509 10-08-2009 05:48:57 18.6 C 79 % 14.89 C
510 10-08-2009 06:00:57 18.7 C 79 % 14.99 C
511 10-08-2009 06:12:57 18.8 C 78 % 14.88 C
512 10-08-2009 06:24:57 18.9 C 78 % 14.98 C
513 10-08-2009 06:36:54 18.9 C 78 % 14.98 C
514 10-08-2009 06:48:54 18.9 C 78 % 14.98 C
515 10-08-2009 07:00:54 19 C 77 % 14.88 C
516 10-08-2009 07:12:54 19 C 78 % 15.08 C
517 10-08-2009 07:24:54 19.1 C 77 % 14.97 C
518 10-08-2009 07:36:54 18.9 C 79 % 15.18 C
519 10-08-2009 07:48:53 18.9 C 79 % 15.18 C
520 10-08-2009 08:00:54 19.2 C 78 % 15.27 C
521 10-08-2009 08:12:54 19.5 C 76 % 15.16 C
522 10-08-2009 08:24:53 19.7 C 75 % 15.15 C
523 10-08-2009 08:36:53 20.1 C 73 % 15.11 C
524 10-08-2009 08:48:54 20.5 C 71 % 15.06 C
525 10-08-2009 09:00:53 20.7 C 71 % 15.25 C
Sensor: Nr:Datum:Temp:Feuchte:Taupunkt:
Aussen-T/F 526 10-08-2009 09:12:53 20.7 C 70 % 15.03 C
527 10-08-2009 09:24:53 20.9 C 69 % 15 C
528 10-08-2009 09:36:53 21 C 68 % 14.87 C
529 10-08-2009 09:48:52 21.5 C 66 % 14.88 C
530 10-08-2009 10:00:53 21.6 C 65 % 14.74 C
531 10-08-2009 10:12:53 22 C 63 % 14.63 C
532 10-08-2009 10:24:52 22 C 63 % 14.63 C
533 10-08-2009 10:36:52 21.8 C 64 % 14.69 C
534 10-08-2009 10:48:52 21.4 C 65 % 14.55 C
535 10-08-2009 11:00:52 21.6 C 65 % 14.74 C
536 10-08-2009 11:12:52 22.1 C 63 % 14.73 C
537 10-08-2009 11:24:52 22.1 C 62 % 14.48 C
538 10-08-2009 11:36:51 21.7 C 64 % 14.6 C
539 10-08-2009 11:48:52 21.3 C 66 % 14.69 C
540 10-08-2009 12:00:51 21.1 C 68 % 14.97 C
541 10-08-2009 12:12:51 20.8 C 70 % 15.13 C
542 10-08-2009 12:24:51 20.2 C 74 % 15.42 C
543 10-08-2009 12:36:51 19.7 C 79 % 15.96 C
544 10-08-2009 12:48:51 19.6 C 83 % 16.63 C
545 10-08-2009 13:00:51 20.2 C 83 % 17.22 C
546 10-08-2009 13:12:51 21.6 C 82 % 18.39 C
547 10-08-2009 13:24:51 21.8 C 78 % 17.79 C
548 10-08-2009 13:36:51 22.5 C 76 % 18.06 C
549 10-08-2009 13:48:50 24 C 72 % 18.64 C
550 10-08-2009 14:00:50 26 C 61 % 17.9 C
Sensor: Nr:Datum:Temp:Feuchte:Taupunkt:
Aussen-T/F 551 10-08-2009 14:12:50 26.4 C 57 % 17.19 C
552 10-08-2009 14:24:50 26.8 C 55 % 17 C
553 10-08-2009 14:36:50 27 C 51 % 16 C
554 10-08-2009 14:48:49 26.6 C 53 % 16.23 C
555 10-08-2009 15:00:50 27.3 C 47 % 15 C
556 10-08-2009 15:12:50 27.7 C 43 % 13.99 C
557 10-08-2009 15:24:50 28.3 C 41 % 13.79 C
558 10-08-2009 15:36:49 29.1 C 37 % 12.93 C
559 10-08-2009 15:48:50 28.1 C 39 % 12.85 C
560 10-08-2009 16:00:49 27.2 C 41 % 12.81 C
561 10-08-2009 16:12:49 27.1 C 40 % 12.34 C
562 10-08-2009 16:24:49 27.9 C 38 % 12.27 C
563 10-08-2009 16:36:48 25.6 C 44 % 12.45 C
564 10-08-2009 16:48:49 26.1 C 42 % 12.19 C
565 10-08-2009 17:00:48 26.9 C 41 % 12.54 C
566 10-08-2009 17:12:48 25.7 C 43 % 12.19 C
567 10-08-2009 17:24:48 24.5 C 47 % 12.45 C
568 10-08-2009 17:36:49 24.9 C 47 % 12.82 C
569 10-08-2009 17:48:48 25 C 46 % 12.58 C
570 10-08-2009 18:00:48 25.8 C 46 % 13.31 C
571 10-08-2009 18:12:48 25.7 C 43 % 12.19 C
572 10-08-2009 18:24:48 25 C 43 % 11.56 C
573 10-08-2009 18:36:48 25.8 C 40 % 11.18 C
574 10-08-2009 18:48:47 25.6 C 41 % 11.38 C
575 10-08-2009 19:00:47 26.2 C 37 % 10.37 C
Sensor: Nr:Datum:Temp:Feuchte:Taupunkt:
Aussen-T/F 576 10-08-2009 19:12:47 25.8 C 39 % 10.8 C
577 10-08-2009 19:24:47 25.4 C 39 % 10.45 C
578 10-08-2009 19:36:47 25.1 C 39 % 10.18 C
579 10-08-2009 19:48:47 24.8 C 37 % 9.13 C
580 10-08-2009 20:00:47 24.9 C 35 % 8.4 C
581 10-08-2009 20:12:47 24.1 C 38 % 8.9 C
582 10-08-2009 20:24:47 23.5 C 38 % 8.37 C
583 10-08-2009 20:36:46 22.9 C 38 % 7.84 C
584 10-08-2009 20:48:47 22.4 C 39 % 7.78 C
585 10-08-2009 21:00:46 21.7 C 45 % 9.26 C
586 10-08-2009 21:12:46 21.2 C 47 % 9.45 C
587 10-08-2009 21:24:46 20.6 C 47 % 8.9 C
588 10-08-2009 21:36:46 20.1 C 50 % 9.36 C
589 10-08-2009 21:48:45 19.6 C 54 % 10.05 C
590 10-08-2009 22:00:46 19.4 C 54 % 9.86 C
591 10-08-2009 22:12:46 19.2 C 54 % 9.67 C
592 10-08-2009 22:25:45 18.9 C 56 % 9.94 C
593 10-08-2009 22:37:45 18.6 C 58 % 10.18 C
594 10-08-2009 22:49:45 18.4 C 58 % 9.99 C
595 10-08-2009 23:01:45 18.1 C 58 % 9.71 C
596 10-08-2009 23:13:45 17.9 C 60 % 10.03 C
597 10-08-2009 23:25:45 18.1 C 60 % 10.22 C
598 10-08-2009 23:37:45 18.3 C 60 % 10.41 C
599 10-08-2009 23:49:45 18.4 C 60 % 10.5 C
600 11-08-2009 00:01:45 18.5 C 61 % 10.84 C
Sensor: Nr:Datum:Temp:Feuchte:Taupunkt:
Aussen-T/F 601 11-08-2009 00:13:45 18.5 C 61 % 10.84 C
602 11-08-2009 00:25:45 18.5 C 61 % 10.84 C
603 11-08-2009 00:37:46 18.4 C 62 % 10.99 C
604 11-08-2009 00:49:46 18.3 C 62 % 10.9 C
605 11-08-2009 01:01:46 18.3 C 62 % 10.9 C
606 11-08-2009 01:13:46 18.2 C 63 % 11.05 C
607 11-08-2009 01:25:46 18.2 C 63 % 11.05 C
608 11-08-2009 01:37:46 18.1 C 63 % 10.95 C
609 11-08-2009 01:49:46 17.9 C 65 % 11.23 C
610 11-08-2009 02:01:46 17.9 C 66 % 11.46 C
611 11-08-2009 02:13:46 17.8 C 66 % 11.37 C
612 11-08-2009 02:25:46 18 C 65 % 11.33 C
613 11-08-2009 02:37:46 17.9 C 66 % 11.46 C
614 11-08-2009 02:49:46 17.7 C 67 % 11.5 C
615 11-08-2009 03:01:46 17.8 C 66 % 11.37 C
616 11-08-2009 03:13:46 17.9 C 68 % 11.91 C
617 11-08-2009 03:25:46 18 C 66 % 11.56 C
618 11-08-2009 03:37:46 18 C 66 % 11.56 C
619 11-08-2009 03:49:46 18.1 C 66 % 11.65 C
620 11-08-2009 04:01:46 18.1 C 66 % 11.65 C
621 11-08-2009 04:13:46 17.9 C 69 % 12.14 C
622 11-08-2009 04:25:47 17.8 C 71 % 12.47 C
623 11-08-2009 04:37:47 17.8 C 72 % 12.69 C
624 11-08-2009 04:49:47 17.8 C 73 % 12.9 C
625 11-08-2009 05:01:47 17.8 C 73 % 12.9 C
Sensor: Nr:Datum:Temp:Feuchte:Taupunkt:
Aussen-T/F 626 11-08-2009 05:13:47 17.8 C 73 % 12.9 C
627 11-08-2009 05:25:47 17.9 C 74 % 13.2 C
628 11-08-2009 05:37:47 17.8 C 76 % 13.52 C
629 11-08-2009 05:49:47 17.6 C 77 % 13.52 C
630 11-08-2009 06:01:47 17.6 C 77 % 13.52 C
631 11-08-2009 06:13:47 17.7 C 77 % 13.62 C
632 11-08-2009 06:25:47 17.6 C 77 % 13.52 C
633 11-08-2009 06:37:47 17.7 C 76 % 13.42 C
634 11-08-2009 06:49:47 17.8 C 76 % 13.52 C
635 11-08-2009 07:01:46 17.9 C 76 % 13.61 C
636 11-08-2009 07:13:45 18.1 C 74 % 13.4 C
637 11-08-2009 07:25:45 18.3 C 73 % 13.38 C
638 11-08-2009 07:37:45 18.5 C 73 % 13.57 C
639 11-08-2009 07:49:45 18.6 C 72 % 13.46 C
640 11-08-2009 08:01:45 18.8 C 72 % 13.65 C
641 11-08-2009 08:13:45 19 C 69 % 13.19 C
642 11-08-2009 08:25:45 19.2 C 68 % 13.15 C
643 11-08-2009 08:37:45 19.1 C 67 % 12.83 C
644 11-08-2009 08:49:45 19.2 C 65 % 12.47 C
645 11-08-2009 09:01:44 18.7 C 70 % 13.12 C
646 11-08-2009 09:13:45 18 C 76 % 13.71 C
647 11-08-2009 09:25:46 17.9 C 81 % 14.59 C
648 11-08-2009 09:37:44 18.1 C 80 % 14.6 C
649 11-08-2009 09:49:44 17.9 C 81 % 14.59 C
650 11-08-2009 10:01:44 18.3 C 79 % 14.6 C
Sensor: Nr:Datum:Temp:Feuchte:Taupunkt:
Aussen-T/F 651 11-08-2009 10:13:44 19.3 C 72 % 14.13 C
652 11-08-2009 10:25:44 19.8 C 69 % 13.95 C
653 11-08-2009 10:37:44 20.3 C 65 % 13.51 C
654 11-08-2009 10:49:43 20.5 C 63 % 13.22 C
655 11-08-2009 11:01:44 20.4 C 63 % 13.12 C
656 11-08-2009 11:13:43 20.2 C 63 % 12.94 C
657 11-08-2009 11:25:43 20.8 C 63 % 13.5 C
658 11-08-2009 11:37:43 21.3 C 61 % 13.48 C
659 11-08-2009 11:49:43 20.7 C 63 % 13.41 C
660 11-08-2009 12:01:43 19.4 C 72 % 14.22 C
661 11-08-2009 12:13:43 19.2 C 80 % 15.67 C
662 11-08-2009 12:25:43 20.4 C 78 % 16.44 C
663 11-08-2009 12:37:42 21.5 C 68 % 15.35 C
664 11-08-2009 12:49:43 21.5 C 66 % 14.88 C
665 11-08-2009 13:01:42 21.2 C 66 % 14.6 C
666 11-08-2009 13:13:42 22.3 C 61 % 14.42 C
667 11-08-2009 13:25:42 21.3 C 63 % 13.97 C
668 11-08-2009 13:37:42 19.7 C 78 % 15.76 C
669 11-08-2009 13:49:42 20 C 82 % 16.83 C
670 11-08-2009 14:01:41 21.1 C 79 % 17.32 C
671 11-08-2009 14:13:42 21.9 C 72 % 16.62 C
672 11-08-2009 14:25:42 22.2 C 69 % 16.24 C
673 11-08-2009 14:37:42 22.5 C 65 % 15.59 C
674 11-08-2009 14:49:41 23.1 C 64 % 15.92 C
675 11-08-2009 15:01:42 23 C 61 % 15.08 C
Sensor: Nr:Datum:Temp:Feuchte:Taupunkt:
Aussen-T/F 676 11-08-2009 15:13:41 22.9 C 68 % 16.68 C
677 11-08-2009 15:25:41 22.9 C 69 % 16.91 C
678 11-08-2009 15:37:41 23.3 C 65 % 16.35 C
679 11-08-2009 15:49:40 23.7 C 59 % 15.21 C
680 11-08-2009 16:01:41 24.4 C 62 % 16.65 C
681 11-08-2009 16:13:40 25.6 C 53 % 15.31 C
682 11-08-2009 16:25:40 26.3 C 49 % 14.74 C
683 11-08-2009 16:37:40 27 C 44 % 13.71 C
684 11-08-2009 16:49:40 26.3 C 47 % 14.09 C
685 11-08-2009 17:01:40 26 C 51 % 15.08 C
686 11-08-2009 17:13:40 26.6 C 45 % 13.69 C
687 11-08-2009 17:25:40 26.8 C 45 % 13.87 C
688 11-08-2009 17:37:40 26.2 C 44 % 12.99 C
689 11-08-2009 17:49:40 26.2 C 47 % 14 C
690 11-08-2009 18:01:39 24.9 C 51 % 14.07 C
691 11-08-2009 18:13:39 24.4 C 48 % 12.68 C
692 11-08-2009 18:25:39 24.1 C 48 % 12.41 C
693 11-08-2009 18:37:40 24.2 C 53 % 14.02 C
694 11-08-2009 18:49:39 24 C 47 % 12 C
695 11-08-2009 19:01:39 24.1 C 46 % 11.76 C
696 11-08-2009 19:13:39 24 C 47 % 12 C
697 11-08-2009 19:25:39 23.8 C 53 % 13.65 C
698 11-08-2009 19:37:39 23.3 C 53 % 13.19 C
699 11-08-2009 19:49:38 23.1 C 55 % 13.57 C
700 11-08-2009 20:01:39 22.6 C 58 % 13.92 C
Sensor: Nr:Datum:Temp:Feuchte:Taupunkt:
Aussen-T/F 701 11-08-2009 20:13:38 22.3 C 60 % 14.16 C
702 11-08-2009 20:25:38 22.2 C 58 % 13.55 C
703 11-08-2009 20:37:38 21.9 C 61 % 14.04 C
704 11-08-2009 20:49:38 21.6 C 62 % 14.01 C
705 11-08-2009 21:01:38 21.3 C 63 % 13.97 C
706 11-08-2009 21:13:37 21 C 64 % 13.93 C
707 11-08-2009 21:25:37 20.8 C 66 % 14.22 C
708 11-08-2009 21:37:38 20.6 C 66 % 14.03 C
709 11-08-2009 21:49:37 20.4 C 66 % 13.84 C
710 11-08-2009 22:02:39 20.2 C 68 % 14.11 C
711 11-08-2009 22:14:39 19.9 C 69 % 14.05 C
712 11-08-2009 22:26:40 19.7 C 70 % 14.08 C
713 11-08-2009 22:38:40 19.5 C 71 % 14.1 C
714 11-08-2009 22:50:40 19.4 C 72 % 14.22 C
715 11-08-2009 23:02:40 19.3 C 72 % 14.13 C
716 11-08-2009 23:14:40 19.3 C 72 % 14.13 C
717 11-08-2009 23:26:40 19.5 C 72 % 14.32 C
718 11-08-2009 23:38:40 19.7 C 73 % 14.73 C
719 11-08-2009 23:50:40 19.6 C 73 % 14.63 C
720 12-08-2009 00:02:40 19.7 C 72 % 14.51 C
721 12-08-2009 00:14:40 19.3 C 73 % 14.34 C
722 12-08-2009 00:26:40 19.1 C 74 % 14.36 C
723 12-08-2009 00:38:40 19 C 74 % 14.26 C
724 12-08-2009 00:50:40 18.8 C 76 % 14.48 C
725 12-08-2009 01:02:40 18.5 C 76 % 14.19 C
Sensor: Nr:Datum:Temp:Feuchte:Taupunkt:
Aussen-T/F 726 12-08-2009 01:14:40 18.6 C 74 % 13.88 C
727 12-08-2009 01:26:40 18.6 C 72 % 13.46 C
728 12-08-2009 01:38:40 18.7 C 71 % 13.34 C
729 12-08-2009 01:50:40 18.6 C 70 % 13.02 C
730 12-08-2009 02:02:40 18.4 C 72 % 13.26 C
731 12-08-2009 02:14:40 18.3 C 72 % 13.17 C
732 12-08-2009 02:26:41 18.1 C 75 % 13.6 C
733 12-08-2009 02:38:41 18.1 C 75 % 13.6 C
734 12-08-2009 02:50:41 18.1 C 75 % 13.6 C
735 12-08-2009 03:02:41 18.2 C 75 % 13.7 C
736 12-08-2009 03:14:41 18.1 C 76 % 13.81 C
737 12-08-2009 03:26:41 17.9 C 78 % 14.01 C
738 12-08-2009 03:38:41 17.7 C 78 % 13.82 C
739 12-08-2009 03:50:41 17.3 C 80 % 13.82 C
740 12-08-2009 04:02:41 17.3 C 81 % 14.01 C
741 12-08-2009 04:14:41 17.3 C 81 % 14.01 C
742 12-08-2009 04:26:41 17.3 C 80 % 13.82 C
743 12-08-2009 04:38:41 17.4 C 81 % 14.11 C
744 12-08-2009 04:50:41 16.8 C 82 % 13.71 C
745 12-08-2009 05:02:41 16.4 C 82 % 13.32 C
746 12-08-2009 05:14:41 16.2 C 83 % 13.31 C
747 12-08-2009 05:26:41 16 C 83 % 13.12 C
748 12-08-2009 05:38:41 15.8 C 84 % 13.1 C
749 12-08-2009 05:50:41 15.6 C 85 % 13.09 C
750 12-08-2009 06:02:41 15.3 C 86 % 12.97 C
Sensor: Nr:Datum:Temp:Feuchte:Taupunkt:
Aussen-T/F 751 12-08-2009 06:14:38 15.2 C 86 % 12.88 C
752 12-08-2009 06:26:38 15.2 C 87 % 13.05 C
753 12-08-2009 06:38:38 15 C 88 % 13.03 C
754 12-08-2009 06:50:38 15 C 88 % 13.03 C
755 12-08-2009 07:02:38 15 C 88 % 13.03 C
756 12-08-2009 07:14:01 14.9 C 89 % 13.1 C
757 12-08-2009 07:26:01 15 C 88 % 13.03 C
758 12-08-2009 07:38:01 15.1 C 88 % 13.13 C
759 12-08-2009 07:50:01 15.4 C 88 % 13.42 C
760 12-08-2009 08:02:01 15.8 C 86 % 13.46 C
761 12-08-2009 08:14:01 16.2 C 84 % 13.5 C
762 12-08-2009 08:26:00 16.5 C 81 % 13.23 C
763 12-08-2009 08:38:01 16.8 C 78 % 12.94 C
764 12-08-2009 08:50:01 16.7 C 77 % 12.65 C
765 12-08-2009 09:02:00 17 C 75 % 12.54 C
766 12-08-2009 09:14:00 17.2 C 74 % 12.53 C
767 12-08-2009 09:26:00 17.5 C 71 % 12.19 C
768 12-08-2009 09:38:00 18.3 C 67 % 12.07 C
769 12-08-2009 09:50:00 19.2 C 61 % 11.5 C
770 12-08-2009 10:02:00 19.4 C 58 % 10.93 C
771 12-08-2009 10:14:00 19.5 C 58 % 11.02 C
772 12-08-2009 10:26:00 20.1 C 59 % 11.84 C
773 12-08-2009 10:38:00 20.7 C 54 % 11.07 C
774 12-08-2009 10:50:59 21.2 C 51 % 10.67 C
775 12-08-2009 11:13:59 21.8 C 51 % 11.22 C
Sensor: Nr:Datum:Temp:Feuchte:Taupunkt:
Aussen-T/F 776 12-08-2009 11:14:59 22.3 C 48 % 10.77 C
777 12-08-2009 11:26:59 22.6 C 47 % 10.72 C
778 12-08-2009 11:38:59 22.9 C 47 % 11 C
779 12-08-2009 11:50:58 23.9 C 44 % 10.91 C
780 12-08-2009 12:02:59 24.1 C 42 % 10.39 C
781 12-08-2009 12:14:59 24.4 C 41 % 10.3 C
782 12-08-2009 12:26:59 24.8 C 40 % 10.29 C
783 12-08-2009 12:38:58 25.5 C 37 % 9.75 C
784 12-08-2009 12:50:59 25.2 C 37 % 9.48 C
785 12-08-2009 13:02:58 24.8 C 40 % 10.29 C
786 12-08-2009 13:14:58 25.2 C 37 % 9.48 C
787 12-08-2009 13:26:58 25.5 C 36 % 9.34 C
788 12-08-2009 13:38:58 26.7 C 35 % 9.98 C
789 12-08-2009 13:50:58 26.2 C 33 % 8.67 C
790 12-08-2009 14:02:58 27.1 C 32 % 8.99 C
791 12-08-2009 14:14:57 26.7 C 33 % 9.1 C
792 12-08-2009 14:26:57 27 C 31 % 8.44 C
793 12-08-2009 14:38:57 26.7 C 31 % 8.18 C
794 12-08-2009 14:50:57 27.2 C 30 % 8.13 C
795 12-08-2009 15:02:57 26.9 C 31 % 8.35 C
796 12-08-2009 15:14:56 27.3 C 30 % 8.21 C
797 12-08-2009 15:26:56 27.5 C 30 % 8.39 C
798 12-08-2009 15:38:57 28 C 28 % 7.8 C
799 12-08-2009 15:50:56 27.2 C 30 % 8.13 C
800 12-08-2009 16:02:56 26.6 C 32 % 8.56 C
Sensor: Nr:Datum:Temp:Feuchte:Taupunkt:
Aussen-T/F 801 12-08-2009 16:14:57 26 C 35 % 9.36 C
802 12-08-2009 16:26:57 26.2 C 34 % 9.11 C
803 12-08-2009 16:38:56 26.3 C 33 % 8.75 C
804 12-08-2009 16:50:56 25.7 C 36 % 9.52 C
805 12-08-2009 17:02:56 25.7 C 36 % 9.52 C
806 12-08-2009 17:14:56 25.9 C 36 % 9.69 C
807 12-08-2009 17:26:56 26.2 C 35 % 9.54 C
808 12-08-2009 17:38:56 25.8 C 37 % 10.01 C
809 12-08-2009 17:50:55 25.5 C 37 % 9.75 C
810 12-08-2009 18:02:56 25.5 C 38 % 10.15 C
811 12-08-2009 18:14:55 25.5 C 38 % 10.15 C
812 12-08-2009 18:26:55 25.6 C 38 % 10.23 C
813 12-08-2009 18:38:55 25.5 C 39 % 10.53 C
814 12-08-2009 18:50:55 25.5 C 39 % 10.53 C
815 12-08-2009 19:02:55 25.3 C 39 % 10.36 C
816 12-08-2009 19:14:54 24.8 C 41 % 10.66 C
817 12-08-2009 19:26:54 24.9 C 41 % 10.75 C
818 12-08-2009 19:38:54 24.7 C 42 % 10.93 C
819 12-08-2009 19:50:54 24.6 C 43 % 11.2 C
820 12-08-2009 20:02:54 24.5 C 44 % 11.45 C
821 12-08-2009 20:14:54 24.3 C 45 % 11.61 C
822 12-08-2009 20:26:54 24.2 C 46 % 11.85 C
823 12-08-2009 20:38:54 23.3 C 51 % 12.6 C
824 12-08-2009 20:50:54 22.1 C 61 % 14.23 C
825 12-08-2009 21:02:54 20.4 C 76 % 16.03 C
Sensor: Nr:Datum:Temp:Feuchte:Taupunkt:
Aussen-T/F 826 12-08-2009 21:14:54 19.7 C 82 % 16.54 C
827 12-08-2009 21:26:54 19.5 C 84 % 16.72 C
828 12-08-2009 21:38:53 19.6 C 85 % 17.01 C
829 12-08-2009 21:50:54 19.3 C 84 % 16.53 C
830 12-08-2009 22:02:53 19.3 C 83 % 16.34 C
831 12-08-2009 22:15:55 19.3 C 82 % 16.15 C
832 12-08-2009 22:27:55 19.2 C 81 % 15.86 C
833 12-08-2009 22:39:55 19.3 C 81 % 15.96 C
834 12-08-2009 22:51:55 19.3 C 81 % 15.96 C
835 12-08-2009 23:03:55 19.2 C 82 % 16.05 C
836 12-08-2009 23:15:55 19.1 C 82 % 15.96 C
837 12-08-2009 23:27:55 19.1 C 82 % 15.96 C
838 12-08-2009 23:39:55 19.1 C 82 % 15.96 C
839 12-08-2009 23:51:55 19.2 C 82 % 16.05 C
840 13-08-2009 00:03:55 19.1 C 83 % 16.15 C
841 13-08-2009 00:15:55 19.1 C 83 % 16.15 C
842 13-08-2009 00:27:55 18.9 C 84 % 16.14 C
843 13-08-2009 00:39:55 18.5 C 85 % 15.93 C
844 13-08-2009 00:51:55 18.3 C 86 % 15.92 C
845 13-08-2009 01:03:55 18.3 C 86 % 15.92 C
846 13-08-2009 01:15:55 18.1 C 87 % 15.9 C
847 13-08-2009 01:27:55 18.2 C 88 % 16.18 C
848 13-08-2009 01:39:56 18.2 C 88 % 16.18 C
849 13-08-2009 01:51:56 18.1 C 87 % 15.9 C
850 13-08-2009 02:03:56 18.1 C 87 % 15.9 C
Sensor: Nr:Datum:Temp:Feuchte:Taupunkt:
Aussen-T/F 851 13-08-2009 02:15:56 18.1 C 88 % 16.08 C
852 13-08-2009 02:27:56 18 C 88 % 15.98 C
853 13-08-2009 02:39:56 17.7 C 89 % 15.86 C
854 13-08-2009 02:51:56 17.6 C 90 % 15.94 C
855 13-08-2009 03:03:56 17.6 C 90 % 15.94 C
856 13-08-2009 03:15:56 17.7 C 91 % 16.21 C
857 13-08-2009 03:27:56 17.7 C 91 % 16.21 C
858 13-08-2009 03:39:56 17.7 C 91 % 16.21 C
859 13-08-2009 03:51:56 17 C 91 % 15.52 C
860 13-08-2009 04:03:56 16.7 C 91 % 15.22 C
861 13-08-2009 04:15:56 16.6 C 92 % 15.3 C
862 13-08-2009 04:27:56 16.4 C 92 % 15.1 C
863 13-08-2009 04:39:56 16.3 C 92 % 15 C
864 13-08-2009 04:51:56 16.4 C 92 % 15.1 C
865 13-08-2009 05:03:56 16.3 C 93 % 15.17 C
866 13-08-2009 05:15:56 16.5 C 93 % 15.36 C
867 13-08-2009 05:27:56 16.4 C 93 % 15.27 C
868 13-08-2009 05:39:57 16.3 C 93 % 15.17 C
869 13-08-2009 05:51:57 16.2 C 93 % 15.07 C
870 13-08-2009 06:03:57 16.3 C 93 % 15.17 C
871 13-08-2009 06:15:57 16.2 C 93 % 15.07 C
872 13-08-2009 06:27:57 16.1 C 93 % 14.97 C
873 13-08-2009 06:39:57 16.2 C 94 % 15.23 C
874 13-08-2009 06:51:54 16.2 C 94 % 15.23 C
875 13-08-2009 07:03:54 16.2 C 93 % 15.07 C
Sensor: Nr:Datum:Temp:Feuchte:Taupunkt:
Aussen-T/F 876 13-08-2009 07:15:54 16.4 C 94 % 15.43 C
877 13-08-2009 07:27:54 16.5 C 93 % 15.36 C
878 13-08-2009 07:39:54 16.9 C 94 % 15.93 C
879 13-08-2009 07:51:53 17 C 93 % 15.86 C
880 13-08-2009 08:03:54 16.9 C 93 % 15.76 C
881 13-08-2009 08:15:53 17.1 C 92 % 15.79 C
882 13-08-2009 08:27:53 17.1 C 92 % 15.79 C
883 13-08-2009 08:39:53 17.1 C 91 % 15.62 C
884 13-08-2009 08:51:54 17.2 C 90 % 15.55 C
885 13-08-2009 09:03:53 17.9 C 90 % 16.24 C
886 13-08-2009 09:15:52 17.7 C 86 % 15.33 C
887 13-08-2009 09:27:52 18.4 C 84 % 15.65 C
888 13-08-2009 09:39:53 18.3 C 83 % 15.36 C
889 13-08-2009 09:51:52 18.7 C 82 % 15.57 C
890 13-08-2009 10:03:52 18.7 C 80 % 15.18 C
891 13-08-2009 10:15:53 19.4 C 78 % 15.47 C
892 13-08-2009 10:27:53 19.8 C 72 % 14.61 C
893 13-08-2009 10:39:52 20 C 67 % 13.69 C
894 13-08-2009 10:51:52 20 C 67 % 13.69 C
895 13-08-2009 11:03:52 20.2 C 63 % 12.94 C
896 13-08-2009 11:15:52 20.4 C 62 % 12.88 C
897 13-08-2009 11:27:52 20.6 C 59 % 12.31 C
898 13-08-2009 11:39:51 21.3 C 59 % 12.97 C
899 13-08-2009 11:51:52 22.2 C 49 % 10.98 C
900 13-08-2009 12:03:51 22.5 C 48 % 10.95 C
Sensor: Nr:Datum:Temp:Feuchte:Taupunkt:
Aussen-T/F 901 13-08-2009 12:15:51 23.8 C 47 % 11.82 C
902 13-08-2009 12:27:51 23.4 C 43 % 10.12 C
903 13-08-2009 12:39:51 23.7 C 51 % 12.97 C
904 13-08-2009 12:51:51 23.5 C 52 % 13.08 C
905 13-08-2009 13:03:51 23 C 55 % 13.48 C
906 13-08-2009 13:15:50 23 C 56 % 13.75 C
907 13-08-2009 13:27:50 23.5 C 54 % 13.66 C
908 13-08-2009 13:39:51 24.1 C 45 % 11.43 C
909 13-08-2009 13:51:50 24.2 C 49 % 12.81 C
910 13-08-2009 14:03:50 24.2 C 50 % 13.12 C
911 13-08-2009 14:15:50 24.7 C 48 % 12.96 C
912 13-08-2009 14:27:50 24.6 C 41 % 10.48 C
913 13-08-2009 14:39:50 24.8 C 48 % 13.05 C
914 13-08-2009 14:51:50 24.5 C 50 % 13.4 C
915 13-08-2009 15:03:49 24.1 C 51 % 13.34 C
916 13-08-2009 15:15:50 23.8 C 54 % 13.94 C
917 13-08-2009 15:27:50 23.6 C 54 % 13.75 C
918 13-08-2009 15:39:49 22 C 64 % 14.88 C
919 13-08-2009 15:51:49 21 C 71 % 15.54 C
920 13-08-2009 16:03:49 20.1 C 69 % 14.24 C
921 13-08-2009 16:15:49 19.4 C 76 % 15.06 C
922 13-08-2009 16:27:49 19 C 78 % 15.08 C
923 13-08-2009 16:39:49 19 C 80 % 15.47 C
924 13-08-2009 16:51:48 19.1 C 81 % 15.76 C
925 13-08-2009 17:03:49 19 C 81 % 15.67 C
Sensor: Nr:Datum:Temp:Feuchte:Taupunkt:
Aussen-T/F 926 13-08-2009 17:15:48 19 C 82 % 15.86 C
927 13-08-2009 17:27:48 18.9 C 84 % 16.14 C
928 13-08-2009 17:39:48 18.7 C 84 % 15.94 C
929 13-08-2009 17:51:48 18.1 C 85 % 15.54 C
930 13-08-2009 18:03:48 18.1 C 87 % 15.9 C
931 13-08-2009 18:15:48 18.1 C 88 % 16.08 C
932 13-08-2009 18:27:48 17.9 C 90 % 16.24 C
933 13-08-2009 18:39:47 17.9 C 90 % 16.24 C
934 13-08-2009 18:51:48 17.9 C 91 % 16.41 C
935 13-08-2009 19:03:47 17.9 C 91 % 16.41 C
936 13-08-2009 19:15:47 18 C 90 % 16.34 C
937 13-08-2009 19:27:47 17.6 C 91 % 16.11 C
938 13-08-2009 19:39:47 17.2 C 89 % 15.37 C
939 13-08-2009 19:51:47 17.5 C 89 % 15.67 C
940 13-08-2009 20:03:46 17.5 C 89 % 15.67 C
941 13-08-2009 20:15:47 17.6 C 89 % 15.77 C
942 13-08-2009 20:27:47 17.6 C 89 % 15.77 C
943 13-08-2009 20:39:47 17.6 C 90 % 15.94 C
944 13-08-2009 20:51:46 17.5 C 90 % 15.84 C
945 13-08-2009 21:03:46 17.3 C 90 % 15.64 C
946 13-08-2009 21:15:46 16.9 C 90 % 15.25 C
947 13-08-2009 21:27:46 16.5 C 90 % 14.85 C
948 13-08-2009 21:39:46 16.3 C 90 % 14.66 C
949 13-08-2009 21:51:45 15.8 C 91 % 14.33 C
950 13-08-2009 22:04:47 15.5 C 91 % 14.04 C
Sensor: Nr:Datum:Temp:Feuchte:Taupunkt:
Aussen-T/F 951 13-08-2009 22:16:47 15.2 C 91 % 13.74 C
952 13-08-2009 22:28:47 15.1 C 91 % 13.64 C
953 13-08-2009 22:40:47 15 C 91 % 13.54 C
954 13-08-2009 22:52:47 14.7 C 92 % 13.41 C
955 13-08-2009 23:04:47 14.7 C 92 % 13.41 C
956 13-08-2009 23:16:47 14.2 C 92 % 12.92 C
957 13-08-2009 23:28:47 14.2 C 92 % 12.92 C
958 13-08-2009 23:40:47 14.2 C 92 % 12.92 C
959 13-08-2009 23:52:47 14.2 C 92 % 12.92 C
960 14-08-2009 00:04:47 14.2 C 92 % 12.92 C
961 14-08-2009 00:16:47 14.1 C 92 % 12.82 C
962 14-08-2009 00:28:47 14 C 92 % 12.72 C
963 14-08-2009 00:40:47 14.2 C 93 % 13.08 C
964 14-08-2009 00:52:47 14.4 C 93 % 13.28 C
965 14-08-2009 01:04:47 14.4 C 93 % 13.28 C
966 14-08-2009 01:16:47 14.4 C 93 % 13.28 C
967 14-08-2009 01:28:48 14.2 C 93 % 13.08 C
968 14-08-2009 01:40:48 14.3 C 94 % 13.35 C
969 14-08-2009 01:52:48 14.3 C 94 % 13.35 C
970 14-08-2009 02:04:48 14.4 C 94 % 13.45 C
971 14-08-2009 02:16:48 14.4 C 94 % 13.45 C
972 14-08-2009 02:28:48 14.1 C 94 % 13.15 C
973 14-08-2009 02:40:48 14.4 C 94 % 13.45 C
974 14-08-2009 02:52:48 14.5 C 94 % 13.55 C
975 14-08-2009 03:04:48 14.4 C 94 % 13.45 C
Sensor: Nr:Datum:Temp:Feuchte:Taupunkt:
Aussen-T/F 976 14-08-2009 03:16:48 14.2 C 93 % 13.08 C
977 14-08-2009 03:28:48 14 C 93 % 12.89 C
978 14-08-2009 03:40:48 13.9 C 93 % 12.79 C
979 14-08-2009 03:52:48 14 C 92 % 12.72 C
980 14-08-2009 04:04:48 14.1 C 92 % 12.82 C
981 14-08-2009 04:16:48 14.1 C 92 % 12.82 C
982 14-08-2009 04:28:48 14.1 C 92 % 12.82 C
983 14-08-2009 04:40:48 14 C 91 % 12.56 C
984 14-08-2009 04:52:48 13.9 C 91 % 12.46 C
985 14-08-2009 05:04:48 14 C 90 % 12.39 C
986 14-08-2009 05:16:49 14.1 C 90 % 12.49 C
987 14-08-2009 05:28:49 14.1 C 90 % 12.49 C
988 14-08-2009 05:40:49 14.2 C 91 % 12.75 C
989 14-08-2009 05:52:49 14.3 C 91 % 12.85 C
990 14-08-2009 06:04:49 14.1 C 90 % 12.49 C
991 14-08-2009 06:16:49 14 C 91 % 12.56 C
992 14-08-2009 06:28:49 14 C 91 % 12.56 C
993 14-08-2009 06:40:49 14 C 91 % 12.56 C
994 14-08-2009 06:52:49 14 C 91 % 12.56 C
995 14-08-2009 07:04:46 14.1 C 91 % 12.65 C
996 14-08-2009 07:16:47 14.1 C 91 % 12.65 C
997 14-08-2009 07:28:47 14.2 C 91 % 12.75 C
998 14-08-2009 07:40:46 14.2 C 91 % 12.75 C
999 14-08-2009 07:52:46 14.4 C 90 % 12.78 C
1000 14-08-2009 08:04:45 14.5 C 90 % 12.88 C
Sensor: Nr:Datum:Temp:Feuchte:Taupunkt:
Aussen-T/F 1001 14-08-2009 08:16:46 14.8 C 89 % 13.01 C
1002 14-08-2009 08:28:47 15.2 C 88 % 13.23 C
1003 14-08-2009 08:40:45 15.6 C 86 % 13.27 C
1004 14-08-2009 08:52:45 16 C 84 % 13.3 C
1005 14-08-2009 09:04:45 16.2 C 83 % 13.31 C
1006 14-08-2009 09:16:45 16.6 C 82 % 13.52 C
1007 14-08-2009 09:28:45 16.9 C 80 % 13.43 C
1008 14-08-2009 09:40:45 16.8 C 77 % 12.75 C
1009 14-08-2009 09:52:45 16.8 C 76 % 12.55 C
1010 14-08-2009 10:04:44 16.9 C 75 % 12.44 C
1011 14-08-2009 10:16:44 17 C 74 % 12.34 C
1012 14-08-2009 10:28:44 17.6 C 74 % 12.91 C
1013 14-08-2009 10:40:45 17.9 C 71 % 12.57 C
1014 14-08-2009 10:52:44 18.3 C 68 % 12.3 C
1015 14-08-2009 11:04:44 18.4 C 68 % 12.39 C
1016 14-08-2009 11:16:44 18.8 C 66 % 12.32 C
1017 14-08-2009 11:28:44 19.1 C 64 % 12.14 C
1018 14-08-2009 11:40:44 19.5 C 63 % 12.27 C
1019 14-08-2009 11:52:43 19.7 C 62 % 12.22 C
1020 14-08-2009 12:04:44 19.5 C 61 % 11.78 C
1021 14-08-2009 12:16:43 20.4 C 61 % 12.63 C
1022 14-08-2009 12:28:43 21.7 C 53 % 11.71 C
1023 14-08-2009 12:40:43 21.5 C 52 % 11.24 C
1024 14-08-2009 12:52:43 22.1 C 49 % 10.89 C
1025 14-08-2009 13:04:43 22 C 49 % 10.8 C
Sensor: Nr:Datum:Temp:Feuchte:Taupunkt:
Aussen-T/F 1026 14-08-2009 13:16:43 22.3 C 49 % 11.08 C
1027 14-08-2009 13:28:43 22.8 C 48 % 11.22 C
1028 14-08-2009 13:40:42 23.8 C 44 % 10.82 C
1029 14-08-2009 13:52:43 24 C 40 % 9.58 C
1030 14-08-2009 14:04:42 24.2 C 40 % 9.75 C
1031 14-08-2009 14:16:42 24.9 C 40 % 10.38 C
1032 14-08-2009 14:28:42 25.3 C 38 % 9.97 C
1033 14-08-2009 14:40:42 25.1 C 35 % 8.57 C
1034 14-08-2009 14:52:42 25.8 C 34 % 8.76 C
1035 14-08-2009 15:04:42 26.2 C 32 % 8.21 C
1036 14-08-2009 15:16:41 26 C 30 % 7.09 C
1037 14-08-2009 15:28:41 26.5 C 30 % 7.53 C
1038 14-08-2009 15:40:42 25.8 C 31 % 7.4 C
1039 14-08-2009 15:52:41 26.6 C 29 % 7.12 C
1040 14-08-2009 16:04:41 25.6 C 31 % 7.23 C
1041 14-08-2009 16:16:41 26.2 C 29 % 6.77 C
1042 14-08-2009 16:28:41 27.6 C 28 % 7.46 C
1043 14-08-2009 16:40:41 27.5 C 27 % 6.84 C
1044 14-08-2009 16:52:40 27.7 C 27 % 7.01 C
1045 14-08-2009 17:04:41 28.2 C 25 % 6.32 C
1046 14-08-2009 17:16:41 28.4 C 25 % 6.49 C
1047 14-08-2009 17:28:41 29 C 25 % 6.99 C
1048 14-08-2009 17:40:40 29.2 C 25 % 7.16 C
1049 14-08-2009 17:52:41 30 C 24 % 7.24 C
1050 14-08-2009 18:04:40 29.7 C 22 % 5.73 C
Sensor: Nr:Datum:Temp:Feuchte:Taupunkt:
Aussen-T/F 1051 14-08-2009 18:16:40 29.1 C 25 % 7.08 C
1052 14-08-2009 18:28:40 29.5 C 28 % 9.08 C
1053 14-08-2009 18:40:39 28.9 C 26 % 7.48 C
1054 14-08-2009 18:52:40 28.9 C 28 % 8.57 C
1055 14-08-2009 19:04:40 27.8 C 32 % 9.6 C
1056 14-08-2009 19:16:39 26.7 C 35 % 9.98 C
1057 14-08-2009 19:28:39 25.8 C 37 % 10.01 C
1058 14-08-2009 19:40:40 25.4 C 38 % 10.06 C
1059 14-08-2009 19:52:39 24.9 C 40 % 10.38 C
1060 14-08-2009 20:04:39 24.5 C 41 % 10.39 C
1061 14-08-2009 20:16:39 23.7 C 43 % 10.39 C
1062 14-08-2009 20:28:39 22.5 C 46 % 10.31 C
1063 14-08-2009 20:40:39 21.4 C 50 % 10.55 C
1064 14-08-2009 20:52:38 20.5 C 53 % 10.6 C
1065 14-08-2009 21:04:38 20.1 C 52 % 9.94 C
1066 14-08-2009 21:16:39 19.7 C 55 % 10.41 C
1067 14-08-2009 21:28:39 19.7 C 55 % 10.41 C
1068 14-08-2009 21:40:38 19.2 C 57 % 10.48 C
1069 14-08-2009 21:52:38 19.2 C 61 % 11.5 C
1070 14-08-2009 22:05:38 19 C 61 % 11.31 C
1071 14-08-2009 22:17:38 18.8 C 63 % 11.61 C
1072 14-08-2009 22:29:38 18.6 C 62 % 11.18 C
1073 14-08-2009 22:41:38 18.5 C 63 % 11.33 C
1074 14-08-2009 22:53:38 18.2 C 64 % 11.28 C
1075 14-08-2009 23:05:39 17.9 C 66 % 11.46 C
Sensor: Nr:Datum:Temp:Feuchte:Taupunkt:
Aussen-T/F 1076 14-08-2009 23:17:39 17.6 C 66 % 11.18 C
1077 14-08-2009 23:29:39 17.5 C 67 % 11.31 C
1078 14-08-2009 23:41:39 17.2 C 66 % 10.8 C
1079 14-08-2009 23:53:39 17.1 C 67 % 10.93 C
1080 15-08-2009 00:05:39 16.9 C 69 % 11.18 C
1081 15-08-2009 00:17:39 16.7 C 69 % 10.99 C
1082 15-08-2009 00:29:39 16.6 C 70 % 11.11 C
1083 15-08-2009 00:41:39 16.5 C 71 % 11.23 C
1084 15-08-2009 00:53:39 16.3 C 73 % 11.46 C
1085 15-08-2009 01:05:39 16.1 C 74 % 11.47 C
1086 15-08-2009 01:17:39 15.9 C 76 % 11.68 C
1087 15-08-2009 01:29:39 15.8 C 77 % 11.78 C
1088 15-08-2009 01:41:39 15.8 C 77 % 11.78 C
1089 15-08-2009 01:53:39 15.4 C 78 % 11.59 C
1090 15-08-2009 02:05:39 15.2 C 79 % 11.59 C
1091 15-08-2009 02:17:39 15.2 C 80 % 11.78 C
1092 15-08-2009 02:29:39 15.1 C 80 % 11.68 C
1093 15-08-2009 02:41:39 15 C 81 % 11.77 C
1094 15-08-2009 02:53:40 14.9 C 82 % 11.86 C
1095 15-08-2009 03:05:40 14.9 C 82 % 11.86 C
1096 15-08-2009 03:17:40 14.8 C 83 % 11.94 C
1097 15-08-2009 03:29:40 14.4 C 83 % 11.55 C
1098 15-08-2009 03:41:40 14.3 C 83 % 11.45 C
1099 15-08-2009 03:53:40 14.2 C 83 % 11.36 C
1100 15-08-2009 04:05:40 14.2 C 83 % 11.36 C
Sensor: Nr:Datum:Temp:Feuchte:Taupunkt:
Aussen-T/F 1101 15-08-2009 04:17:40 14.1 C 83 % 11.26 C
1102 15-08-2009 04:29:40 13.9 C 85 % 11.42 C
1103 15-08-2009 04:41:40 13.8 C 86 % 11.5 C
1104 15-08-2009 04:53:40 13.7 C 87 % 11.58 C
1105 15-08-2009 05:05:40 13.8 C 88 % 11.85 C
1106 15-08-2009 05:17:40 13.7 C 88 % 11.75 C
1107 15-08-2009 05:29:40 13.5 C 88 % 11.55 C
1108 15-08-2009 05:41:40 13.8 C 88 % 11.85 C
1109 15-08-2009 05:53:40 13.9 C 87 % 11.77 C
1110 15-08-2009 06:05:40 14 C 87 % 11.87 C
1111 15-08-2009 06:17:40 14 C 86 % 11.7 C
1112 15-08-2009 06:29:40 14 C 85 % 11.52 C
1113 15-08-2009 06:41:41 13.8 C 86 % 11.5 C
1114 15-08-2009 06:53:41 13.9 C 85 % 11.42 C
1115 15-08-2009 07:05:41 13.9 C 85 % 11.42 C
1116 15-08-2009 07:17:41 13.7 C 85 % 11.23 C
1117 15-08-2009 07:29:41 13.6 C 85 % 11.13 C
1118 15-08-2009 07:41:41 13.8 C 86 % 11.5 C
1119 15-08-2009 07:53:41 13.8 C 85 % 11.32 C
1120 15-08-2009 08:05:41 14.1 C 84 % 11.44 C
1121 15-08-2009 08:17:41 14.1 C 83 % 11.26 C
1122 15-08-2009 08:29:41 14.4 C 84 % 11.73 C
1123 15-08-2009 08:41:38 14.2 C 82 % 11.17 C
1124 15-08-2009 08:53:38 14.6 C 83 % 11.75 C
1125 15-08-2009 09:05:38 15 C 79 % 11.39 C
Sensor: Nr:Datum:Temp:Feuchte:Taupunkt:
Aussen-T/F 1126 15-08-2009 09:17:37 14.8 C 80 % 11.39 C
1127 15-08-2009 09:29:37 15 C 79 % 11.39 C
1128 15-08-2009 09:41:37 15.3 C 80 % 11.87 C
1129 15-08-2009 09:53:37 15.9 C 78 % 12.07 C
1130 15-08-2009 10:05:37 16.2 C 75 % 11.77 C
1131 15-08-2009 10:17:37 17.1 C 74 % 12.43 C
1132 15-08-2009 10:29:37 17.9 C 73 % 12.99 C
1133 15-08-2009 10:41:36 18.5 C 72 % 13.36 C
1134 15-08-2009 10:53:37 19.2 C 68 % 13.15 C
1135 15-08-2009 11:05:36 19.8 C 65 % 13.03 C
1136 15-08-2009 11:17:36 20.8 C 62 % 13.26 C
1137 15-08-2009 11:29:36 21.4 C 59 % 13.06 C
1138 15-08-2009 11:41:37 22.1 C 56 % 12.92 C
1139 15-08-2009 11:53:36 22.9 C 53 % 12.82 C
1140 15-08-2009 12:05:36 23.3 C 48 % 11.68 C
1141 15-08-2009 12:17:36 23.9 C 43 % 10.57 C
1142 15-08-2009 12:29:36 24 C 40 % 9.58 C
1143 15-08-2009 12:41:36 24.5 C 40 % 10.02 C
1144 15-08-2009 12:53:35 24.9 C 36 % 8.81 C
1145 15-08-2009 13:05:35 25.3 C 35 % 8.75 C
1146 15-08-2009 13:17:35 25.6 C 32 % 7.69 C
1147 15-08-2009 13:29:35 26.6 C 31 % 8.09 C
1148 15-08-2009 13:41:35 27.2 C 30 % 8.13 C
1149 15-08-2009 13:53:34 27.2 C 30 % 8.13 C
1150 15-08-2009 14:05:35 27.4 C 30 % 8.3 C
Sensor: Nr:Datum:Temp:Feuchte:Taupunkt:
Aussen-T/F 1151 15-08-2009 14:17:35 27.7 C 31 % 9.04 C
1152 15-08-2009 14:29:35 27.9 C 30 % 8.73 C
1153 15-08-2009 14:41:34 28.3 C 30 % 9.07 C
1154 15-08-2009 14:53:34 28.8 C 29 % 9 C
1155 15-08-2009 15:05:35 29.4 C 29 % 9.52 C
1156 15-08-2009 15:17:34 29.8 C 27 % 8.8 C
1157 15-08-2009 15:29:34 30 C 25 % 7.83 C
1158 15-08-2009 15:41:34 30.2 C 26 % 8.58 C
1159 15-08-2009 15:53:34 30.4 C 26 % 8.75 C
1160 15-08-2009 16:05:34 30.8 C 23 % 7.28 C
1161 15-08-2009 16:17:33 30.6 C 23 % 7.12 C
1162 15-08-2009 16:29:33 30.8 C 23 % 7.28 C
1163 15-08-2009 16:41:33 31.4 C 23 % 7.78 C
1164 15-08-2009 16:53:33 31.8 C 20 % 6.08 C
1165 15-08-2009 17:05:33 31.4 C 20 % 5.75 C
1166 15-08-2009 17:17:33 32 C 20 % 6.24 C
1167 15-08-2009 17:29:33 31.9 C 20 % 6.16 C
1168 15-08-2009 17:41:33 31.7 C 20 % 6 C
1169 15-08-2009 17:53:33 31.7 C 20 % 6 C
1170 15-08-2009 18:05:32 31.5 C 20 % 5.83 C
1171 15-08-2009 18:17:32 31.7 C 20 % 6 C
1172 15-08-2009 18:29:33 31.3 C 20 % 5.67 C
1173 15-08-2009 18:41:32 31.4 C 20 % 5.75 C
1174 15-08-2009 18:53:32 31.2 C 20 % 5.59 C
1175 15-08-2009 19:05:32 31.2 C 20 % 5.59 C
Sensor: Nr:Datum:Temp:Feuchte:Taupunkt:
Aussen-T/F 1176 15-08-2009 19:17:32 31.2 C 20 % 5.59 C
1177 15-08-2009 19:29:32 31.2 C 23 % 7.62 C
1178 15-08-2009 19:41:32 30.9 C 25 % 8.59 C
1179 15-08-2009 19:53:31 30.2 C 25 % 8 C
1180 15-08-2009 20:05:32 29.4 C 27 % 8.46 C
1181 15-08-2009 20:17:31 28.3 C 30 % 9.07 C
1182 15-08-2009 20:29:31 26.9 C 33 % 9.28 C
1183 15-08-2009 20:41:31 25.9 C 37 % 10.1 C
1184 15-08-2009 20:53:31 25.2 C 39 % 10.27 C
1185 15-08-2009 21:05:31 24.5 C 40 % 10.02 C
1186 15-08-2009 21:17:31 24 C 43 % 10.66 C
1187 15-08-2009 21:29:31 23.7 C 46 % 11.4 C
1188 15-08-2009 21:41:30 23.2 C 48 % 11.59 C
1189 15-08-2009 21:53:30 22.8 C 48 % 11.22 C
1190 15-08-2009 22:05:30 22.4 C 48 % 10.86 C
1191 15-08-2009 22:17:30 22 C 50 % 11.11 C
1192 15-08-2009 22:29:30 21.9 C 51 % 11.31 C
1193 15-08-2009 22:42:31 21.8 C 51 % 11.22 C
1194 15-08-2009 22:54:31 21.5 C 53 % 11.52 C
1195 15-08-2009 23:06:31 21.3 C 53 % 11.34 C
1196 15-08-2009 23:18:31 20.9 C 55 % 11.53 C
1197 15-08-2009 23:30:31 20.6 C 56 % 11.52 C
1198 15-08-2009 23:42:31 20.5 C 56 % 11.43 C
1199 15-08-2009 23:54:31 20.2 C 57 % 11.42 C
1200 16-08-2009 00:06:31 20.1 C 58 % 11.58 C
Sensor: Nr:Datum:Temp:Feuchte:Taupunkt:
Aussen-T/F 1201 16-08-2009 00:18:31 19.8 C 59 % 11.56 C
1202 16-08-2009 00:30:31 19.7 C 59 % 11.47 C
1203 16-08-2009 00:42:31 19.3 C 61 % 11.6 C
1204 16-08-2009 00:54:31 19.1 C 62 % 11.65 C
1205 16-08-2009 01:06:31 18.9 C 63 % 11.71 C
1206 16-08-2009 01:18:31 18.5 C 64 % 11.57 C
1207 16-08-2009 01:30:31 18.5 C 64 % 11.57 C
1208 16-08-2009 01:42:31 18.3 C 66 % 11.84 C
1209 16-08-2009 01:54:32 18.2 C 66 % 11.75 C
1210 16-08-2009 02:06:32 18 C 66 % 11.56 C
1211 16-08-2009 02:18:32 17.9 C 67 % 11.69 C
1212 16-08-2009 02:30:32 17.8 C 69 % 12.04 C
1213 16-08-2009 02:42:32 17.6 C 70 % 12.07 C
1214 16-08-2009 02:54:32 17.5 C 71 % 12.19 C
1215 16-08-2009 03:06:32 17.3 C 71 % 12 C
1216 16-08-2009 03:18:32 17.1 C 72 % 12.02 C
1217 16-08-2009 03:30:32 17 C 72 % 11.92 C
1218 16-08-2009 03:42:32 16.8 C 73 % 11.94 C
1219 16-08-2009 03:54:32 16.7 C 74 % 12.05 C
1220 16-08-2009 04:06:32 16.5 C 74 % 11.85 C
1221 16-08-2009 04:18:32 16.4 C 75 % 11.96 C
1222 16-08-2009 04:30:32 16.3 C 76 % 12.07 C
1223 16-08-2009 04:42:32 16.2 C 77 % 12.17 C
1224 16-08-2009 04:54:32 16 C 77 % 11.97 C
1225 16-08-2009 05:06:32 15.9 C 79 % 12.27 C
Sensor: Nr:Datum:Temp:Feuchte:Taupunkt:
Aussen-T/F 1226 16-08-2009 05:18:32 15.9 C 79 % 12.27 C
1227 16-08-2009 05:30:32 15.9 C 79 % 12.27 C
1228 16-08-2009 05:42:33 15.8 C 79 % 12.17 C
1229 16-08-2009 05:54:33 15.7 C 79 % 12.07 C
1230 16-08-2009 06:06:33 15.6 C 79 % 11.97 C
1231 16-08-2009 06:18:33 15.6 C 79 % 11.97 C
1232 16-08-2009 06:30:33 15.5 C 79 % 11.88 C
1233 16-08-2009 06:42:33 15.5 C 80 % 12.07 C
1234 16-08-2009 06:54:33 15.4 C 79 % 11.78 C
1235 16-08-2009 07:06:33 15.5 C 79 % 11.88 C
1236 16-08-2009 07:18:33 15.5 C 80 % 12.07 C
1237 16-08-2009 07:30:33 15.5 C 80 % 12.07 C
1238 16-08-2009 07:42:33 15.6 C 80 % 12.16 C
1239 16-08-2009 07:54:33 15.7 C 80 % 12.26 C
1240 16-08-2009 08:06:33 15.9 C 80 % 12.46 C
1241 16-08-2009 08:18:30 16 C 79 % 12.36 C
1242 16-08-2009 08:30:30 16.4 C 79 % 12.75 C
1243 16-08-2009 08:42:30 16.6 C 78 % 12.75 C
1244 16-08-2009 08:54:30 16.8 C 78 % 12.94 C
1245 16-08-2009 09:06:30 17.2 C 76 % 12.94 C
1246 16-08-2009 09:18:30 17.6 C 74 % 12.91 C
1247 16-08-2009 09:30:30 18.1 C 73 % 13.19 C
1248 16-08-2009 09:42:30 18.7 C 73 % 13.76 C
1249 16-08-2009 09:54:29 19.3 C 70 % 13.69 C
1250 16-08-2009 10:06:29 20 C 67 % 13.69 C
Sensor: Nr:Datum:Temp:Feuchte:Taupunkt:
Aussen-T/F 1251 16-08-2009 10:18:29 20.8 C 65 % 13.98 C
1252 16-08-2009 10:30:29 21.5 C 62 % 13.92 C
1253 16-08-2009 10:42:29 21.9 C 62 % 14.29 C
1254 16-08-2009 10:54:28 22.6 C 62 % 14.95 C
1255 16-08-2009 11:06:29 23.6 C 62 % 15.89 C
1256 16-08-2009 11:18:29 24 C 55 % 14.41 C
1257 16-08-2009 11:30:28 25 C 48 % 13.23 C
1258 16-08-2009 11:42:28 25.8 C 42 % 11.92 C
1259 16-08-2009 11:54:29 26.8 C 42 % 12.82 C
1260 16-08-2009 12:06:28 27.2 C 38 % 11.65 C
1261 16-08-2009 12:18:28 27.6 C 35 % 10.77 C
1262 16-08-2009 12:30:27 28.1 C 35 % 11.2 C
1263 16-08-2009 12:42:27 28.6 C 33 % 10.76 C
1264 16-08-2009 12:54:28 29 C 32 % 10.64 C
1265 16-08-2009 13:06:27 29.6 C 31 % 10.68 C
1266 16-08-2009 13:18:27 30 C 28 % 9.51 C
1267 16-08-2009 13:30:28 30.6 C 26 % 8.92 C
1268 16-08-2009 13:42:28 30.7 C 25 % 8.42 C
1269 16-08-2009 13:54:27 31.1 C 25 % 8.76 C
1270 16-08-2009 14:06:27 31 C 25 % 8.67 C
1271 16-08-2009 14:18:27 31.4 C 24 % 8.41 C
1272 16-08-2009 14:30:27 31.7 C 22 % 7.38 C
1273 16-08-2009 14:42:27 31.8 C 20 % 6.08 C
1274 16-08-2009 14:54:26 32 C 20 % 6.24 C
1275 16-08-2009 15:06:27 32.2 C 20 % 6.41 C
Sensor: Nr:Datum:Temp:Feuchte:Taupunkt:
Aussen-T/F 1276 16-08-2009 15:18:26 32 C 20 % 6.24 C
1277 16-08-2009 15:30:26 32.3 C 20 % 6.49 C
1278 16-08-2009 15:42:26 32.4 C 20 % 6.57 C
1279 16-08-2009 15:54:26 32.9 C 20 % 6.98 C
1280 16-08-2009 16:06:26 32.9 C 20 % 6.98 C
1281 16-08-2009 16:18:26 32.9 C 20 % 6.98 C
1282 16-08-2009 16:30:25 32.9 C 20 % 6.98 C
1283 16-08-2009 16:42:25 32.6 C 20 % 6.73 C
1284 16-08-2009 16:54:26 32.9 C 20 % 6.98 C
1285 16-08-2009 17:06:25 33 C 20 % 7.06 C
1286 16-08-2009 17:18:25 32.8 C 20 % 6.9 C
1287 16-08-2009 17:30:25 32.5 C 20 % 6.65 C
1288 16-08-2009 17:42:25 32.9 C 20 % 6.98 C
1289 16-08-2009 17:54:25 32.7 C 20 % 6.81 C
1290 16-08-2009 18:06:24 32.6 C 20 % 6.73 C
1291 16-08-2009 18:18:24 32.4 C 20 % 6.57 C
1292 16-08-2009 18:30:25 32.4 C 21 % 7.28 C
1293 16-08-2009 18:42:25 32.1 C 24 % 8.99 C
1294 16-08-2009 18:54:24 32 C 24 % 8.91 C
1295 16-08-2009 19:06:24 31.6 C 28 % 10.87 C
1296 16-08-2009 19:18:24 32 C 27 % 10.66 C
1297 16-08-2009 19:30:24 31.9 C 26 % 10.02 C
1298 16-08-2009 19:42:24 31.7 C 26 % 9.85 C
1299 16-08-2009 19:54:23 30.7 C 31 % 11.63 C
1300 16-08-2009 20:06:24 30.4 C 32 % 11.85 C
Sensor: Nr:Datum:Temp:Feuchte:Taupunkt:
Aussen-T/F 1301 16-08-2009 20:18:23 30.1 C 32 % 11.59 C
1302 16-08-2009 20:30:23 29 C 35 % 11.99 C
1303 16-08-2009 20:42:23 28.3 C 38 % 12.63 C
1304 16-08-2009 20:54:23 27.1 C 40 % 12.34 C
1305 16-08-2009 21:06:23 26.9 C 43 % 13.27 C
1306 16-08-2009 21:18:23 26.5 C 44 % 13.26 C
1307 16-08-2009 21:30:22 26.4 C 44 % 13.17 C
1308 16-08-2009 21:42:22 25.9 C 45 % 13.06 C
1309 16-08-2009 21:54:23 25.7 C 47 % 13.55 C
1310 16-08-2009 22:07:23 25.3 C 48 % 13.5 C
1311 16-08-2009 22:19:23 25 C 49 % 13.55 C
1312 16-08-2009 22:31:23 24.7 C 52 % 14.19 C
1313 16-08-2009 22:43:23 24.4 C 51 % 13.61 C
1314 16-08-2009 22:55:23 24.2 C 52 % 13.73 C
1315 16-08-2009 23:07:23 23.8 C 54 % 13.94 C
1316 16-08-2009 23:19:23 23.7 C 55 % 14.13 C
1317 16-08-2009 23:31:23 23.4 C 56 % 14.13 C
1318 16-08-2009 23:43:24 23.2 C 57 % 14.21 C
1319 16-08-2009 23:55:24 23.1 C 57 % 14.12 C
1320 17-08-2009 00:07:24 22.9 C 59 % 14.47 C
1321 17-08-2009 00:19:24 22.8 C 59 % 14.37 C
1322 17-08-2009 00:31:24 22.7 C 59 % 14.28 C
1323 17-08-2009 00:43:24 22.3 C 60 % 14.16 C
1324 17-08-2009 00:55:24 22 C 61 % 14.14 C
1325 17-08-2009 01:07:24 21.8 C 61 % 13.95 C
Sensor: Nr:Datum:Temp:Feuchte:Taupunkt:
Aussen-T/F 1326 17-08-2009 01:19:24 21.6 C 62 % 14.01 C
1327 17-08-2009 01:31:24 21.6 C 61 % 13.76 C
1328 17-08-2009 01:43:24 21.3 C 62 % 13.73 C
1329 17-08-2009 01:55:24 21.2 C 62 % 13.63 C
1330 17-08-2009 02:07:24 21 C 64 % 13.93 C
1331 17-08-2009 02:19:24 20.8 C 65 % 13.98 C
1332 17-08-2009 02:31:24 20.7 C 66 % 14.12 C
1333 17-08-2009 02:43:24 20.6 C 66 % 14.03 C
1334 17-08-2009 02:55:24 20.2 C 68 % 14.11 C
1335 17-08-2009 03:07:24 20 C 68 % 13.92 C
1336 17-08-2009 03:19:24 19.7 C 70 % 14.08 C
1337 17-08-2009 03:31:25 19.6 C 72 % 14.42 C
1338 17-08-2009 03:43:25 19.4 C 73 % 14.44 C
1339 17-08-2009 03:55:25 19.3 C 72 % 14.13 C
1340 17-08-2009 04:07:25 19.2 C 73 % 14.25 C
1341 17-08-2009 04:19:25 18.9 C 75 % 14.37 C
1342 17-08-2009 04:31:25 18.8 C 76 % 14.48 C
1343 17-08-2009 04:43:25 18.7 C 75 % 14.18 C
1344 17-08-2009 04:55:25 18.6 C 76 % 14.29 C
1345 17-08-2009 05:07:25 18.4 C 77 % 14.3 C
1346 17-08-2009 05:19:25 18.3 C 77 % 14.2 C
1347 17-08-2009 05:31:25 18.1 C 78 % 14.21 C
1348 17-08-2009 05:43:25 18 C 78 % 14.11 C
1349 17-08-2009 05:55:25 18 C 78 % 14.11 C
1350 17-08-2009 06:07:25 18 C 78 % 14.11 C
Sensor: Nr:Datum:Temp:Feuchte:Taupunkt:
Aussen-T/F 1351 17-08-2009 06:19:25 17.8 C 80 % 14.31 C
1352 17-08-2009 06:31:25 17.7 C 80 % 14.21 C
1353 17-08-2009 06:43:25 17.8 C 80 % 14.31 C
1354 17-08-2009 06:55:23 18 C 79 % 14.31 C
1355 17-08-2009 07:07:23 18.2 C 78 % 14.3 C
1356 17-08-2009 07:19:23 18.3 C 78 % 14.4 C
1357 17-08-2009 07:31:23 18.4 C 77 % 14.3 C
1358 17-08-2009 07:43:23 18.3 C 77 % 14.2 C
1359 17-08-2009 07:55:23 18.7 C 77 % 14.59 C
1360 17-08-2009 08:07:22 18.8 C 75 % 14.28 C
1361 17-08-2009 08:19:02 18.8 C 75 % 14.28 C
1362 17-08-2009 08:31:01 19.1 C 74 % 14.36 C
1363 17-08-2009 08:43:01 19.5 C 73 % 14.53 C
1364 17-08-2009 08:55:02 19.7 C 71 % 14.3 C
1365 17-08-2009 09:07:02 19.9 C 71 % 14.49 C
1366 17-08-2009 09:19:01 20.5 C 68 % 14.39 C
1367 17-08-2009 09:31:01 21.1 C 65 % 14.27 C
1368 17-08-2009 09:43:02 21.4 C 64 % 14.31 C
1369 17-08-2009 09:55:01 21.2 C 64 % 14.12 C
1370 17-08-2009 10:07:01 21.6 C 64 % 14.5 C
1371 17-08-2009 10:19:01 22.2 C 62 % 14.58 C
1372 17-08-2009 10:31:00 23 C 58 % 14.29 C
1373 17-08-2009 10:43:00 23.5 C 58 % 14.76 C
1374 17-08-2009 10:55:01 24.1 C 54 % 14.21 C
1375 17-08-2009 11:07:00 25 C 51 % 14.16 C
Sensor: Nr:Datum:Temp:Feuchte:Taupunkt:
Aussen-T/F 1376 17-08-2009 11:19:00 25.5 C 49 % 14 C
1377 17-08-2009 11:30:59 26.1 C 48 % 14.23 C
1378 17-08-2009 11:42:59 27 C 45 % 14.06 C
1379 17-08-2009 11:55:00 27.2 C 44 % 13.89 C
1380 17-08-2009 12:07:59 27.5 C 44 % 14.16 C
1381 17-08-2009 12:19:59 27.9 C 40 % 13.05 C
1382 17-08-2009 12:31:00 28.1 C 40 % 13.23 C
1383 17-08-2009 12:43:00 28.5 C 38 % 12.8 C
1384 17-08-2009 12:55:59 29.1 C 38 % 13.34 C
1385 17-08-2009 13:07:59 29.7 C 35 % 12.61 C
1386 17-08-2009 13:19:59 29.4 C 34 % 11.9 C
1387 17-08-2009 13:31:59 30 C 34 % 12.43 C
1388 17-08-2009 13:43:59 29.9 C 33 % 11.89 C
1389 17-08-2009 13:55:58 29.7 C 35 % 12.61 C
1390 17-08-2009 14:07:59 30.3 C 34 % 12.69 C
1391 17-08-2009 14:19:59 30.3 C 32 % 11.77 C
1392 17-08-2009 14:31:58 29.4 C 34 % 11.9 C
1393 17-08-2009 14:43:58 30.1 C 31 % 11.12 C
1394 17-08-2009 14:55:58 30.6 C 31 % 11.55 C
1395 17-08-2009 15:07:58 30.9 C 30 % 11.31 C
1396 17-08-2009 15:19:58 29.8 C 34 % 12.25 C
1397 17-08-2009 15:31:57 28.9 C 36 % 12.33 C
1398 17-08-2009 15:43:57 30 C 32 % 11.51 C
1399 17-08-2009 15:55:58 29.5 C 35 % 12.43 C
1400 17-08-2009 16:07:57 29.5 C 36 % 12.86 C
Sensor: Nr:Datum:Temp:Feuchte:Taupunkt:
Aussen-T/F 1401 17-08-2009 16:19:57 29.5 C 34 % 11.99 C
1402 17-08-2009 16:31:57 29.1 C 35 % 12.08 C
1403 17-08-2009 16:43:57 30.8 C 31 % 11.72 C
1404 17-08-2009 16:55:57 30.6 C 30 % 11.05 C
1405 17-08-2009 17:07:57 29.3 C 33 % 11.37 C
1406 17-08-2009 17:19:56 29.4 C 34 % 11.9 C
1407 17-08-2009 17:31:57 28.7 C 34 % 11.29 C
1408 17-08-2009 17:43:57 29 C 33 % 11.1 C
1409 17-08-2009 17:55:56 29.6 C 30 % 10.19 C
1410 17-08-2009 18:07:56 30.3 C 28 % 9.76 C
1411 17-08-2009 18:19:56 29.4 C 30 % 10.02 C
1412 17-08-2009 18:31:56 28.4 C 32 % 10.12 C
1413 17-08-2009 18:43:56 28.2 C 32 % 9.95 C
1414 17-08-2009 18:55:56 28.1 C 31 % 9.39 C
1415 17-08-2009 19:07:55 27.9 C 32 % 9.69 C
1416 17-08-2009 19:19:56 27.6 C 32 % 9.43 C
1417 17-08-2009 19:31:55 26 C 35 % 9.36 C
1418 17-08-2009 19:43:55 26.2 C 36 % 9.96 C
1419 17-08-2009 19:55:55 25.8 C 38 % 10.41 C
1420 17-08-2009 20:07:55 24.6 C 41 % 10.48 C
1421 17-08-2009 20:19:55 23.8 C 43 % 10.48 C
1422 17-08-2009 20:31:55 23.3 C 42 % 9.68 C
1423 17-08-2009 20:43:55 23.2 C 42 % 9.59 C
1424 17-08-2009 20:55:55 23 C 40 % 8.68 C
1425 17-08-2009 21:07:54 22.8 C 40 % 8.5 C
Sensor: Nr:Datum:Temp:Feuchte:Taupunkt:
Aussen-T/F 1426 17-08-2009 21:19:54 22.3 C 41 % 8.42 C
1427 17-08-2009 21:31:54 22.4 C 43 % 9.22 C
1428 17-08-2009 21:43:54 22 C 43 % 8.85 C
1429 17-08-2009 21:55:54 21.6 C 46 % 9.49 C
1430 17-08-2009 22:08:55 21.4 C 47 % 9.63 C
1431 17-08-2009 22:20:55 21.2 C 48 % 9.76 C
1432 17-08-2009 22:32:55 21 C 48 % 9.58 C
1433 17-08-2009 22:44:55 20.9 C 49 % 9.79 C
1434 17-08-2009 22:56:55 20.8 C 50 % 10 C
1435 17-08-2009 23:08:55 20.8 C 51 % 10.3 C
1436 17-08-2009 23:20:55 20.8 C 51 % 10.3 C
1437 17-08-2009 23:32:55 20.6 C 53 % 10.69 C
1438 17-08-2009 23:44:55 20.8 C 53 % 10.88 C
1439 17-08-2009 23:56:55 20.6 C 54 % 10.97 C
1440 18-08-2009 00:08:55 20.2 C 55 % 10.88 C
1441 18-08-2009 00:20:55 20 C 55 % 10.69 C
1442 18-08-2009 00:32:55 20 C 56 % 10.96 C
1443 18-08-2009 00:44:55 19.8 C 56 % 10.78 C
1444 18-08-2009 00:56:55 19.5 C 56 % 10.5 C
1445 18-08-2009 01:08:55 19.2 C 57 % 10.48 C
1446 18-08-2009 01:20:56 19 C 57 % 10.3 C
1447 18-08-2009 01:32:56 18.8 C 58 % 10.37 C
1448 18-08-2009 01:44:56 18.6 C 59 % 10.44 C
1449 18-08-2009 01:56:56 18.4 C 60 % 10.5 C
1450 18-08-2009 02:08:56 18.3 C 60 % 10.41 C
Sensor: Nr:Datum:Temp:Feuchte:Taupunkt:
Aussen-T/F 1451 18-08-2009 02:20:56 18.1 C 61 % 10.47 C
1452 18-08-2009 02:32:56 18 C 61 % 10.37 C
1453 18-08-2009 02:44:56 17.9 C 63 % 10.76 C
1454 18-08-2009 02:56:56 17.7 C 64 % 10.81 C
1455 18-08-2009 03:08:56 17.4 C 65 % 10.76 C
1456 18-08-2009 03:20:56 17.2 C 66 % 10.8 C
1457 18-08-2009 03:32:56 16.9 C 67 % 10.74 C
1458 18-08-2009 03:44:56 16.6 C 69 % 10.89 C
1459 18-08-2009 03:56:56 16.4 C 70 % 10.92 C
1460 18-08-2009 04:08:56 16.2 C 73 % 11.36 C
1461 18-08-2009 04:20:56 16.1 C 73 % 11.26 C
1462 18-08-2009 04:32:56 15.8 C 74 % 11.18 C
1463 18-08-2009 04:44:56 15.8 C 73 % 10.97 C
1464 18-08-2009 04:56:56 15.6 C 74 % 10.99 C
1465 18-08-2009 05:08:57 15.5 C 74 % 10.89 C
1466 18-08-2009 05:20:57 15.3 C 76 % 11.1 C
1467 18-08-2009 05:32:57 15.2 C 76 % 11 C
1468 18-08-2009 05:44:57 14.9 C 78 % 11.1 C
1469 18-08-2009 05:56:57 14.8 C 79 % 11.2 C
1470 18-08-2009 06:08:57 14.6 C 80 % 11.19 C
1471 18-08-2009 06:20:57 14.5 C 80 % 11.09 C
1472 18-08-2009 06:32:57 14.2 C 81 % 10.99 C
1473 18-08-2009 06:44:57 14.3 C 81 % 11.09 C
1474 18-08-2009 06:56:57 14.3 C 81 % 11.09 C
1475 18-08-2009 07:08:55 14.2 C 81 % 10.99 C
Sensor: Nr:Datum:Temp:Feuchte:Taupunkt:
Aussen-T/F 1476 18-08-2009 07:20:55 14.3 C 82 % 11.27 C
1477 18-08-2009 07:32:54 14.4 C 82 % 11.37 C
1478 18-08-2009 07:44:55 14.3 C 82 % 11.27 C
1479 18-08-2009 07:56:55 14.4 C 82 % 11.37 C
1480 18-08-2009 08:08:54 14.4 C 82 % 11.37 C
1481 18-08-2009 08:20:54 14.7 C 82 % 11.66 C
1482 18-08-2009 08:32:54 14.9 C 81 % 11.67 C
1483 18-08-2009 08:44:54 15.2 C 80 % 11.78 C
1484 18-08-2009 08:56:54 15.4 C 79 % 11.78 C
1485 18-08-2009 09:08:54 15.7 C 78 % 11.88 C
1486 18-08-2009 09:20:53 16.2 C 77 % 12.17 C
1487 18-08-2009 09:32:54 16.9 C 75 % 12.44 C
1488 18-08-2009 09:44:53 17.5 C 71 % 12.19 C
1489 18-08-2009 09:56:53 18.1 C 68 % 12.11 C
1490 18-08-2009 10:08:53 18.5 C 66 % 12.03 C
1491 18-08-2009 10:20:53 19.1 C 63 % 11.9 C
1492 18-08-2009 10:32:53 19.5 C 60 % 11.53 C
1493 18-08-2009 10:44:52 20.1 C 59 % 11.84 C
1494 18-08-2009 10:56:52 20.7 C 55 % 11.34 C
1495 18-08-2009 11:08:52 21.1 C 51 % 10.58 C
1496 18-08-2009 11:20:53 21.6 C 46 % 9.49 C
1497 18-08-2009 11:32:52 22 C 45 % 9.53 C
1498 18-08-2009 11:44:52 22.2 C 42 % 8.69 C
1499 18-08-2009 11:56:52 22.8 C 41 % 8.87 C
1500 18-08-2009 12:08:52 23 C 38 % 7.93 C
Sensor: Nr:Datum:Temp:Feuchte:Taupunkt:
Aussen-T/F 1501 18-08-2009 12:20:52 23.4 C 37 % 7.89 C
1502 18-08-2009 12:32:51 24.2 C 36 % 8.2 C
1503 18-08-2009 12:44:52 24.5 C 33 % 7.18 C
1504 18-08-2009 12:56:52 24.3 C 32 % 6.56 C
1505 18-08-2009 13:08:52 25.2 C 33 % 7.79 C
1506 18-08-2009 13:20:51 26.1 C 30 % 7.18 C
1507 18-08-2009 13:32:51 27.2 C 27 % 6.59 C
1508 18-08-2009 13:44:51 27.6 C 25 % 5.81 C
1509 18-08-2009 13:56:51 26.8 C 25 % 5.14 C
1510 18-08-2009 14:08:51 27 C 25 % 5.31 C
1511 18-08-2009 14:20:50 27.1 C 24 % 4.81 C
1512 18-08-2009 14:32:51 28.3 C 23 % 5.2 C
1513 18-08-2009 14:44:50 28.3 C 21 % 3.9 C
1514 18-08-2009 14:56:50 28.8 C 20 % 3.62 C
1515 18-08-2009 15:08:50 29.6 C 20 % 4.28 C
1516 18-08-2009 15:20:50 30.3 C 20 % 4.85 C
1517 18-08-2009 15:32:50 30.7 C 20 % 5.18 C
1518 18-08-2009 15:44:50 30.7 C 20 % 5.18 C
1519 18-08-2009 15:56:50 30.4 C 20 % 4.93 C
1520 18-08-2009 16:08:49 30.3 C 20 % 4.85 C
1521 18-08-2009 16:20:50 30.6 C 20 % 5.1 C
1522 18-08-2009 16:32:49 30.9 C 20 % 5.34 C
1523 18-08-2009 16:44:49 31.7 C 20 % 6 C
1524 18-08-2009 16:56:49 32.1 C 20 % 6.32 C
1525 18-08-2009 17:08:50 32.3 C 20 % 6.49 C
Sensor: Nr:Datum:Temp:Feuchte:Taupunkt:
Aussen-T/F 1526 18-08-2009 17:20:49 32.3 C 20 % 6.49 C
1527 18-08-2009 17:32:49 32.5 C 20 % 6.65 C
1528 18-08-2009 17:44:48 32.5 C 20 % 6.65 C
1529 18-08-2009 17:56:48 32.6 C 20 % 6.73 C
1530 18-08-2009 18:08:49 32.9 C 20 % 6.98 C
1531 18-08-2009 18:20:48 32.4 C 20 % 6.57 C
1532 18-08-2009 18:32:48 31.8 C 20 % 6.08 C
1533 18-08-2009 18:44:48 31.5 C 20 % 5.83 C
1534 18-08-2009 18:56:48 31.8 C 20 % 6.08 C
1535 18-08-2009 19:08:48 31.4 C 20 % 5.75 C
1536 18-08-2009 19:20:48 30.3 C 22 % 6.22 C
1537 18-08-2009 19:32:47 29.3 C 24 % 6.65 C
1538 18-08-2009 19:44:48 28.7 C 25 % 6.74 C
1539 18-08-2009 19:56:48 28.1 C 25 % 6.24 C
1540 18-08-2009 20:08:47 26.6 C 26 % 5.53 C
1541 18-08-2009 20:20:47 25.7 C 28 % 5.84 C
1542 18-08-2009 20:32:47 25.2 C 30 % 6.41 C
1543 18-08-2009 20:44:47 24.5 C 32 % 6.74 C
1544 18-08-2009 20:56:47 24 C 35 % 7.61 C
1545 18-08-2009 21:08:47 23.7 C 35 % 7.34 C
1546 18-08-2009 21:20:46 23.4 C 36 % 7.49 C
1547 18-08-2009 21:32:47 22.8 C 37 % 7.36 C
1548 18-08-2009 21:44:46 22.5 C 40 % 8.24 C
1549 18-08-2009 21:56:46 22.3 C 40 % 8.06 C
1550 18-08-2009 22:08:46 22 C 40 % 7.79 C
Sensor: Nr:Datum:Temp:Feuchte:Taupunkt:
Aussen-T/F 1551 18-08-2009 22:21:47 21.7 C 42 % 8.24 C
1552 18-08-2009 22:33:47 21.4 C 42 % 7.97 C
1553 18-08-2009 22:45:47 21.4 C 43 % 8.31 C
1554 18-08-2009 22:57:47 20.9 C 44 % 8.2 C
1555 18-08-2009 23:09:47 20.8 C 45 % 8.44 C
1556 18-08-2009 23:21:47 20.5 C 46 % 8.49 C
1557 18-08-2009 23:33:47 20.3 C 47 % 8.63 C
1558 18-08-2009 23:45:47 20.1 C 48 % 8.76 C
1559 18-08-2009 23:57:47 20 C 49 % 8.97 C
1560 19-08-2009 00:09:47 19.7 C 51 % 9.29 C
1561 19-08-2009 00:21:47 19.5 C 53 % 9.67 C
1562 19-08-2009 00:33:47 19.3 C 54 % 9.77 C
1563 19-08-2009 00:45:47 19.1 C 55 % 9.86 C
1564 19-08-2009 00:57:48 18.8 C 56 % 9.84 C
1565 19-08-2009 01:09:48 18.5 C 57 % 9.83 C
1566 19-08-2009 01:21:48 18.3 C 59 % 10.16 C
1567 19-08-2009 01:33:48 18.2 C 59 % 10.06 C
1568 19-08-2009 01:45:48 18.1 C 60 % 10.22 C
1569 19-08-2009 01:57:48 18 C 60 % 10.13 C
1570 19-08-2009 02:09:48 17.7 C 62 % 10.33 C
1571 19-08-2009 02:21:48 17.6 C 62 % 10.24 C
1572 19-08-2009 02:33:48 17.4 C 63 % 10.29 C
1573 19-08-2009 02:45:48 17.2 C 64 % 10.34 C
1574 19-08-2009 02:57:48 17 C 65 % 10.38 C
1575 19-08-2009 03:09:48 16.9 C 66 % 10.51 C
Sensor: Nr:Datum:Temp:Feuchte:Taupunkt:
Aussen-T/F 1576 19-08-2009 03:21:48 16.8 C 66 % 10.42 C
1577 19-08-2009 03:33:48 16.6 C 66 % 10.23 C
1578 19-08-2009 03:45:48 16.4 C 67 % 10.26 C
1579 19-08-2009 03:57:48 16.3 C 67 % 10.17 C
1580 19-08-2009 04:09:48 16.1 C 68 % 10.2 C
1581 19-08-2009 04:21:48 15.9 C 70 % 10.44 C
1582 19-08-2009 04:33:48 15.7 C 71 % 10.46 C
1583 19-08-2009 04:45:49 15.6 C 71 % 10.37 C
1584 19-08-2009 04:57:49 15.4 C 72 % 10.38 C
1585 19-08-2009 05:09:49 15.4 C 72 % 10.38 C
1586 19-08-2009 05:21:49 15.2 C 73 % 10.4 C
1587 19-08-2009 05:33:49 15.1 C 73 % 10.3 C
1588 19-08-2009 05:45:49 15 C 74 % 10.41 C
1589 19-08-2009 05:57:49 14.8 C 75 % 10.42 C
1590 19-08-2009 06:09:49 14.7 C 75 % 10.32 C
1591 19-08-2009 06:21:49 14.7 C 76 % 10.52 C
1592 19-08-2009 06:33:49 14.7 C 76 % 10.52 C
1593 19-08-2009 06:45:47 14.3 C 76 % 10.13 C
1594 19-08-2009 06:57:47 14.2 C 77 % 10.23 C
1595 19-08-2009 07:09:46 14.5 C 77 % 10.52 C
1596 19-08-2009 07:21:47 14.4 C 77 % 10.42 C
1597 19-08-2009 07:33:46 14.7 C 77 % 10.71 C
1598 19-08-2009 07:45:46 14.5 C 79 % 10.91 C
1599 19-08-2009 07:57:47 14.8 C 79 % 11.2 C
1600 19-08-2009 08:09:46 15 C 78 % 11.2 C
Sensor: Nr:Datum:Temp:Feuchte:Taupunkt:
Aussen-T/F 1601 19-08-2009 08:21:46 15.2 C 78 % 11.39 C
1602 19-08-2009 08:33:46 15.5 C 77 % 11.49 C
1603 19-08-2009 08:45:45 15.8 C 77 % 11.78 C
1604 19-08-2009 08:57:45 16.2 C 74 % 11.56 C
1605 19-08-2009 09:09:45 16.6 C 73 % 11.74 C
1606 19-08-2009 09:21:45 17 C 72 % 11.92 C
1607 19-08-2009 09:33:46 17.5 C 70 % 11.97 C
1608 19-08-2009 09:45:45 18.1 C 67 % 11.88 C
1609 19-08-2009 09:57:45 18.7 C 65 % 11.99 C
1610 19-08-2009 10:09:45 19.4 C 60 % 11.44 C
1611 19-08-2009 10:21:44 20.1 C 58 % 11.58 C
1612 19-08-2009 10:33:45 20.8 C 56 % 11.71 C
1613 19-08-2009 10:45:44 21.5 C 54 % 11.81 C
1614 19-08-2009 10:57:44 22.2 C 53 % 12.17 C
1615 19-08-2009 11:09:44 22.7 C 53 % 12.63 C
1616 19-08-2009 11:21:44 23.5 C 51 % 12.78 C
1617 19-08-2009 11:33:44 24.1 C 47 % 12.09 C
1618 19-08-2009 11:45:44 25 C 42 % 11.2 C
1619 19-08-2009 11:57:44 25.6 C 38 % 10.23 C
1620 19-08-2009 12:09:44 26.7 C 36 % 10.4 C
1621 19-08-2009 12:21:44 27.1 C 36 % 10.75 C
1622 19-08-2009 12:33:43 27.5 C 35 % 10.68 C
1623 19-08-2009 12:45:43 27.8 C 32 % 9.6 C
1624 19-08-2009 12:57:43 28.2 C 30 % 8.99 C
1625 19-08-2009 13:09:43 28.8 C 30 % 9.51 C
Sensor: Nr:Datum:Temp:Feuchte:Taupunkt:
Aussen-T/F 1626 19-08-2009 13:21:43 30 C 27 % 8.97 C
1627 19-08-2009 13:33:43 30.6 C 25 % 8.34 C
1628 19-08-2009 13:45:43 30.7 C 25 % 8.42 C
1629 19-08-2009 13:57:43 30.7 C 25 % 8.42 C
1630 19-08-2009 14:09:43 30.9 C 25 % 8.59 C
1631 19-08-2009 14:21:42 31.5 C 23 % 7.87 C
1632 19-08-2009 14:33:42 31.8 C 22 % 7.46 C
1633 19-08-2009 14:45:42 32.2 C 22 % 7.79 C
1634 19-08-2009 14:57:42 32.3 C 20 % 6.49 C
1635 19-08-2009 15:09:42 32.6 C 21 % 7.44 C
1636 19-08-2009 15:21:41 32.9 C 20 % 6.98 C
1637 19-08-2009 15:33:42 33 C 20 % 7.06 C
1638 19-08-2009 15:45:41 33 C 20 % 7.06 C
1639 19-08-2009 15:57:41 32.9 C 20 % 6.98 C
1640 19-08-2009 16:09:41 33.5 C 20 % 7.47 C
1641 19-08-2009 16:21:42 33.4 C 20 % 7.39 C
1642 19-08-2009 16:33:41 33 C 20 % 7.06 C
1643 19-08-2009 16:45:41 33 C 20 % 7.06 C
1644 19-08-2009 16:57:41 33.6 C 20 % 7.55 C
1645 19-08-2009 17:09:41 33.3 C 20 % 7.3 C
1646 19-08-2009 17:21:41 33.5 C 20 % 7.47 C
1647 19-08-2009 17:33:40 33.7 C 20 % 7.63 C
1648 19-08-2009 17:45:40 33.8 C 20 % 7.71 C
1649 19-08-2009 17:57:40 34.4 C 20 % 8.2 C
1650 19-08-2009 18:09:41 34.2 C 20 % 8.04 C
Sensor: Nr:Datum:Temp:Feuchte:Taupunkt:
Aussen-T/F 1651 19-08-2009 18:21:40 33.9 C 20 % 7.8 C
1652 19-08-2009 18:33:40 34.2 C 20 % 8.04 C
1653 19-08-2009 18:45:40 34.2 C 20 % 8.04 C
1654 19-08-2009 18:57:40 33.8 C 20 % 7.71 C
1655 19-08-2009 19:09:40 33.5 C 20 % 7.47 C
1656 19-08-2009 19:21:39 32.9 C 20 % 6.98 C
1657 19-08-2009 19:33:39 32.5 C 21 % 7.36 C
1658 19-08-2009 19:45:39 32.1 C 21 % 7.03 C
1659 19-08-2009 19:57:39 31.8 C 23 % 8.12 C
1660 19-08-2009 20:09:39 31.2 C 26 % 9.42 C
1661 19-08-2009 20:21:39 30.3 C 30 % 10.79 C
1662 19-08-2009 20:33:39 29.2 C 32 % 10.81 C
1663 19-08-2009 20:45:39 28.3 C 34 % 10.94 C
1664 19-08-2009 20:57:39 27.9 C 35 % 11.03 C
1665 19-08-2009 21:09:38 27.8 C 35 % 10.94 C
1666 19-08-2009 21:21:38 27.4 C 36 % 11.01 C
1667 19-08-2009 21:33:39 27 C 37 % 11.07 C
1668 19-08-2009 21:45:38 26.3 C 38 % 10.86 C
1669 19-08-2009 21:57:38 26 C 40 % 11.36 C
1670 19-08-2009 22:09:38 25.7 C 41 % 11.47 C
1671 19-08-2009 22:21:37 25.4 C 42 % 11.56 C
1672 19-08-2009 22:33:38 24.8 C 44 % 11.72 C
1673 19-08-2009 22:46:38 24.8 C 44 % 11.72 C
1674 19-08-2009 22:58:38 24.4 C 46 % 12.04 C
1675 19-08-2009 23:10:38 23.9 C 47 % 11.91 C
Sensor: Nr:Datum:Temp:Feuchte:Taupunkt:
Aussen-T/F 1676 19-08-2009 23:22:38 23.7 C 48 % 12.04 C
1677 19-08-2009 23:34:38 23.7 C 49 % 12.36 C
1678 19-08-2009 23:46:38 23.3 C 50 % 12.3 C
1679 19-08-2009 23:58:39 23 C 51 % 12.32 C
1680 20-08-2009 00:10:39 22.7 C 53 % 12.63 C
1681 20-08-2009 00:22:39 22.6 C 53 % 12.54 C
1682 20-08-2009 00:34:39 22.2 C 55 % 12.73 C
1683 20-08-2009 00:46:39 21.9 C 57 % 13 C
1684 20-08-2009 00:58:39 21.9 C 56 % 12.73 C
1685 20-08-2009 01:10:39 21.6 C 58 % 12.99 C
1686 20-08-2009 01:22:39 21.4 C 58 % 12.8 C
1687 20-08-2009 01:34:39 21.3 C 58 % 12.71 C
1688 20-08-2009 01:46:39 21.2 C 58 % 12.61 C
1689 20-08-2009 01:58:39 20.9 C 59 % 12.59 C
1690 20-08-2009 02:10:39 20.8 C 61 % 13.01 C
1691 20-08-2009 02:22:39 20.6 C 62 % 13.07 C
1692 20-08-2009 02:34:39 20.3 C 62 % 12.79 C
1693 20-08-2009 02:46:39 20.2 C 62 % 12.69 C
1694 20-08-2009 02:58:39 20 C 63 % 12.75 C
1695 20-08-2009 03:10:39 19.9 C 65 % 13.13 C
1696 20-08-2009 03:22:39 19.8 C 65 % 13.03 C
1697 20-08-2009 03:34:39 19.7 C 65 % 12.94 C
1698 20-08-2009 03:46:40 19.5 C 66 % 12.98 C
1699 20-08-2009 03:58:40 19.3 C 67 % 13.02 C
1700 20-08-2009 04:10:40 19.3 C 68 % 13.25 C
Sensor: Nr:Datum:Temp:Feuchte:Taupunkt:
Aussen-T/F 1701 20-08-2009 04:22:40 19.1 C 68 % 13.06 C
1702 20-08-2009 04:34:40 18.9 C 70 % 13.31 C
1703 20-08-2009 04:46:40 18.7 C 70 % 13.12 C
1704 20-08-2009 04:58:40 18.5 C 71 % 13.15 C
1705 20-08-2009 05:10:40 18.3 C 71 % 12.95 C
1706 20-08-2009 05:22:40 18.3 C 72 % 13.17 C
1707 20-08-2009 05:34:40 18.2 C 72 % 13.07 C
1708 20-08-2009 05:46:40 18.2 C 72 % 13.07 C
1709 20-08-2009 05:58:40 18.1 C 73 % 13.19 C
1710 20-08-2009 06:10:40 17.9 C 74 % 13.2 C
1711 20-08-2009 06:22:40 17.7 C 75 % 13.22 C
1712 20-08-2009 06:34:40 17.6 C 75 % 13.12 C
1713 20-08-2009 06:46:40 17.6 C 75 % 13.12 C
1714 20-08-2009 06:58:40 17.6 C 76 % 13.32 C
1715 20-08-2009 07:10:39 17.6 C 76 % 13.32 C
1716 20-08-2009 07:22:38 17.8 C 76 % 13.52 C
1717 20-08-2009 07:34:38 17.9 C 76 % 13.61 C
1718 20-08-2009 07:46:38 18.3 C 75 % 13.79 C
1719 20-08-2009 07:58:38 18.9 C 73 % 13.96 C
1720 20-08-2009 08:10:38 19.5 C 70 % 13.89 C
1721 20-08-2009 08:22:37 19.6 C 69 % 13.76 C
1722 20-08-2009 08:34:38 19.8 C 69 % 13.95 C
1723 20-08-2009 08:46:38 20.1 C 67 % 13.78 C
1724 20-08-2009 08:58:38 20.2 C 67 % 13.88 C
1725 20-08-2009 09:10:37 20.2 C 67 % 13.88 C
Sensor: Nr:Datum:Temp:Feuchte:Taupunkt:
Aussen-T/F 1726 20-08-2009 09:22:37 20.6 C 66 % 14.03 C
1727 20-08-2009 09:34:37 21.2 C 64 % 14.12 C
1728 20-08-2009 09:46:37 21.9 C 63 % 14.54 C
1729 20-08-2009 09:58:37 22.4 C 60 % 14.26 C
1730 20-08-2009 10:10:37 22.7 C 59 % 14.28 C
1731 20-08-2009 10:22:36 23.6 C 58 % 14.86 C
1732 20-08-2009 10:34:37 24.7 C 55 % 15.05 C
1733 20-08-2009 10:46:36 25.4 C 53 % 15.13 C
1734 20-08-2009 10:58:36 25.9 C 54 % 15.88 C
1735 20-08-2009 11:10:36 26.4 C 52 % 15.75 C
1736 20-08-2009 11:22:36 27.1 C 53 % 16.7 C
1737 20-08-2009 11:34:36 27.7 C 51 % 16.64 C
1738 20-08-2009 11:46:36 28.4 C 49 % 16.65 C
1739 20-08-2009 11:58:36 29.4 C 45 % 16.23 C
1740 20-08-2009 12:10:35 30.4 C 42 % 16.04 C
1741 20-08-2009 12:22:36 30.9 C 35 % 13.66 C
1742 20-08-2009 12:34:35 31.3 C 34 % 13.56 C
1743 20-08-2009 12:46:35 31.5 C 30 % 11.83 C
1744 20-08-2009 12:58:35 31.9 C 29 % 11.66 C
1745 20-08-2009 13:10:35 32.4 C 29 % 12.08 C
1746 20-08-2009 13:22:35 32.7 C 26 % 10.69 C
1747 20-08-2009 13:34:35 32.7 C 29 % 12.34 C
1748 20-08-2009 13:46:35 32.5 C 30 % 12.68 C
1749 20-08-2009 13:58:35 32.5 C 29 % 12.17 C
1750 20-08-2009 14:10:35 33.1 C 26 % 11.03 C
Sensor: Nr:Datum:Temp:Feuchte:Taupunkt:
Aussen-T/F 1751 20-08-2009 14:22:34 33.5 C 25 % 10.77 C
1752 20-08-2009 14:34:34 33.8 C 24 % 10.41 C
1753 20-08-2009 14:46:34 34 C 24 % 10.58 C
1754 20-08-2009 14:58:34 34.2 C 20 % 8.04 C
1755 20-08-2009 15:10:34 34.2 C 20 % 8.04 C
1756 20-08-2009 15:22:33 34.7 C 20 % 8.45 C
1757 20-08-2009 15:34:34 34.4 C 20 % 8.2 C
1758 20-08-2009 15:46:33 34.4 C 20 % 8.2 C
1759 20-08-2009 15:58:33 34.4 C 20 % 8.2 C
1760 20-08-2009 16:10:33 34.2 C 20 % 8.04 C
1761 20-08-2009 16:22:33 34 C 20 % 7.88 C
1762 20-08-2009 16:34:33 33.4 C 20 % 7.39 C
1763 20-08-2009 16:46:33 33.4 C 22 % 8.79 C
1764 20-08-2009 16:58:33 33.2 C 23 % 9.28 C
1765 20-08-2009 17:10:33 33.4 C 24 % 10.08 C
1766 20-08-2009 17:22:02 34.4 C 20 % 8.2 C
1767 20-08-2009 17:34:01 34.2 C 20 % 8.04 C
1768 20-08-2009 17:46:02 33.6 C 21 % 8.27 C
1769 20-08-2009 17:58:02 33.1 C 25 % 10.44 C
1770 20-08-2009 18:10:01 33 C 24 % 9.75 C
1771 20-08-2009 18:22:01 33.8 C 20 % 7.71 C
1772 20-08-2009 18:34:01 33.8 C 20 % 7.71 C
1773 20-08-2009 18:46:01 33.6 C 22 % 8.95 C
1774 20-08-2009 18:58:02 32.9 C 24 % 9.66 C
1775 20-08-2009 19:10:00 32.7 C 25 % 10.1 C
Sensor: Nr:Datum:Temp:Feuchte:Taupunkt:
Aussen-T/F 1776 20-08-2009 19:22:01 32.4 C 24 % 9.24 C
1777 20-08-2009 19:34:01 32.1 C 26 % 10.18 C
1778 20-08-2009 19:46:00 31.8 C 27 % 10.49 C
1779 20-08-2009 19:58:00 31.4 C 28 % 10.7 C
1780 20-08-2009 20:10:01 31.1 C 30 % 11.48 C
1781 20-08-2009 20:22:00 30.6 C 31 % 11.55 C
1782 20-08-2009 20:34:00 30.2 C 32 % 11.68 C
1783 20-08-2009 20:45:59 30 C 33 % 11.97 C
1784 20-08-2009 20:57:59 29.7 C 32 % 11.25 C
1785 20-08-2009 21:10:00 29.6 C 32 % 11.16 C
1786 20-08-2009 21:22:00 30.7 C 26 % 9 C
1787 20-08-2009 21:34:59 30.7 C 25 % 8.42 C
1788 20-08-2009 21:45:59 29.5 C 31 % 10.6 C
1789 20-08-2009 21:57:59 27.8 C 36 % 11.37 C
1790 20-08-2009 22:10:59 27.2 C 37 % 11.25 C
1791 20-08-2009 22:22:59 26.6 C 39 % 11.51 C
1792 20-08-2009 22:34:59 25.8 C 42 % 11.92 C
1793 20-08-2009 22:47:59 24.2 C 50 % 13.12 C
1794 20-08-2009 22:59:59 24.5 C 50 % 13.4 C
1795 20-08-2009 23:11:59 24.6 C 48 % 12.87 C
1796 20-08-2009 23:24:00 24.6 C 48 % 12.87 C
1797 20-08-2009 23:35:00 24.5 C 48 % 12.77 C
1798 20-08-2009 23:47:00 24.6 C 48 % 12.87 C
1799 20-08-2009 23:59:00 24.3 C 49 % 12.91 C
1800 21-08-2009 00:11:00 24 C 49 % 12.63 C
Sensor: Nr:Datum:Temp:Feuchte:Taupunkt:
Aussen-T/F 1801 21-08-2009 00:23:00 24.1 C 49 % 12.72 C
1802 21-08-2009 00:35:00 23.8 C 51 % 13.06 C
1803 21-08-2009 00:47:00 23.6 C 52 % 13.17 C
1804 21-08-2009 00:59:00 23.5 C 53 % 13.37 C
1805 21-08-2009 01:11:00 23.4 C 56 % 14.13 C
1806 21-08-2009 01:23:00 21.7 C 72 % 16.43 C
1807 21-08-2009 01:35:00 21.2 C 80 % 17.61 C
1808 21-08-2009 01:47:00 20.9 C 83 % 17.9 C
1809 21-08-2009 01:59:00 20.4 C 83 % 17.42 C
1810 21-08-2009 02:11:00 20.5 C 79 % 16.73 C
1811 21-08-2009 02:23:00 20.4 C 78 % 16.44 C
1812 21-08-2009 02:35:00 20.2 C 78 % 16.24 C
1813 21-08-2009 02:47:00 20.8 C 74 % 16 C
1814 21-08-2009 02:59:00 20.6 C 76 % 16.22 C
1815 21-08-2009 03:11:00 20.5 C 76 % 16.12 C
1816 21-08-2009 03:23:01 20.7 C 75 % 16.11 C
1817 21-08-2009 03:35:01 20.5 C 76 % 16.12 C
1818 21-08-2009 03:47:01 20.3 C 79 % 16.54 C
1819 21-08-2009 03:59:01 19.9 C 81 % 16.54 C
1820 21-08-2009 04:11:01 19.8 C 82 % 16.64 C
1821 21-08-2009 04:23:01 20.1 C 81 % 16.74 C
1822 21-08-2009 04:35:01 20.4 C 80 % 16.83 C
1823 21-08-2009 04:47:01 20.4 C 75 % 15.82 C
1824 21-08-2009 04:59:01 20.5 C 74 % 15.71 C
1825 21-08-2009 05:11:01 20.5 C 74 % 15.71 C
Sensor: Nr:Datum:Temp:Feuchte:Taupunkt:
Aussen-T/F 1826 21-08-2009 05:23:01 20 C 74 % 15.23 C
1827 21-08-2009 05:35:01 19.6 C 75 % 15.05 C
1828 21-08-2009 05:47:01 19.3 C 72 % 14.13 C
1829 21-08-2009 05:59:01 19.3 C 68 % 13.25 C
1830 21-08-2009 06:11:01 19.1 C 68 % 13.06 C
1831 21-08-2009 06:23:01 18.1 C 70 % 12.55 C
1832 21-08-2009 06:35:01 18 C 63 % 10.86 C
1833 21-08-2009 06:47:01 18 C 63 % 10.86 C
1834 21-08-2009 06:59:01 18.2 C 64 % 11.28 C
1835 21-08-2009 07:11:59 18.2 C 63 % 11.05 C
1836 21-08-2009 07:23:59 18.4 C 61 % 10.75 C
1837 21-08-2009 07:35:59 18.7 C 63 % 11.52 C
1838 21-08-2009 07:47:59 18.9 C 63 % 11.71 C
1839 21-08-2009 07:59:59 19.1 C 63 % 11.9 C
1840 21-08-2009 08:11:59 19.3 C 65 % 12.56 C
1841 21-08-2009 08:23:58 19.4 C 65 % 12.66 C
1842 21-08-2009 08:35:58 19.3 C 65 % 12.56 C
1843 21-08-2009 08:47:58 19.3 C 63 % 12.09 C
1844 21-08-2009 08:59:58 19.4 C 61 % 11.69 C
1845 21-08-2009 09:11:58 19.5 C 59 % 11.28 C
1846 21-08-2009 09:23:58 19.5 C 60 % 11.53 C
1847 21-08-2009 09:35:57 19.5 C 56 % 10.5 C
1848 21-08-2009 09:47:58 19.5 C 54 % 9.95 C
1849 21-08-2009 09:59:59 19.4 C 52 % 9.3 C
1850 21-08-2009 10:11:57 19.5 C 51 % 9.1 C
Sensor: Nr:Datum:Temp:Feuchte:Taupunkt:
Aussen-T/F 1851 21-08-2009 10:23:57 19.5 C 51 % 9.1 C
1852 21-08-2009 10:35:58 19.7 C 47 % 8.08 C
1853 21-08-2009 10:47:57 19.2 C 50 % 8.53 C
1854 21-08-2009 10:59:57 17.1 C 58 % 8.78 C
1855 21-08-2009 11:11:57 17.7 C 56 % 8.82 C
1856 21-08-2009 11:23:56 17.9 C 50 % 7.34 C
1857 21-08-2009 11:35:57 17.2 C 53 % 7.55 C
1858 21-08-2009 11:47:56 16.4 C 60 % 8.62 C
1859 21-08-2009 11:59:56 15.2 C 73 % 10.4 C
1860 21-08-2009 12:11:56 15.1 C 79 % 11.49 C
1861 21-08-2009 12:23:57 15.5 C 81 % 12.26 C
1862 21-08-2009 12:35:56 15.6 C 81 % 12.35 C
1863 21-08-2009 12:47:56 15.8 C 81 % 12.55 C
1864 21-08-2009 12:59:56 15.9 C 82 % 12.83 C
1865 21-08-2009 13:11:56 16 C 80 % 12.55 C
1866 21-08-2009 13:23:56 16.4 C 80 % 12.94 C
1867 21-08-2009 13:35:55 16.1 C 79 % 12.46 C
1868 21-08-2009 13:47:55 16.3 C 80 % 12.85 C
1869 21-08-2009 13:59:56 16.7 C 80 % 13.23 C
1870 21-08-2009 14:11:55 17.4 C 73 % 12.51 C
1871 21-08-2009 14:23:55 17.5 C 71 % 12.19 C
1872 21-08-2009 14:35:55 17.8 C 68 % 11.82 C
1873 21-08-2009 14:47:55 18.9 C 65 % 12.18 C
1874 21-08-2009 14:59:55 19.1 C 61 % 11.41 C
1875 21-08-2009 15:11:55 19.6 C 59 % 11.37 C
Sensor: Nr:Datum:Temp:Feuchte:Taupunkt:
Aussen-T/F 1876 21-08-2009 15:23:54 20.2 C 57 % 11.42 C
1877 21-08-2009 15:35:54 21.1 C 54 % 11.44 C
1878 21-08-2009 15:47:54 22.5 C 50 % 11.56 C
1879 21-08-2009 15:59:54 23.7 C 43 % 10.39 C
1880 21-08-2009 16:11:54 24.9 C 37 % 9.22 C
1881 21-08-2009 16:23:54 24.5 C 36 % 8.46 C
1882 21-08-2009 16:35:54 25.7 C 34 % 8.67 C
1883 21-08-2009 16:47:54 26 C 31 % 7.57 C
1884 21-08-2009 16:59:54 26.3 C 34 % 9.19 C
1885 21-08-2009 17:11:53 27.5 C 30 % 8.39 C
1886 21-08-2009 17:23:54 28 C 30 % 8.82 C
1887 21-08-2009 17:35:53 27.6 C 28 % 7.46 C
1888 21-08-2009 17:47:53 27.4 C 30 % 8.3 C
1889 21-08-2009 17:59:54 26.9 C 31 % 8.35 C
1890 21-08-2009 18:11:53 27.5 C 30 % 8.39 C
1891 21-08-2009 18:23:53 26.9 C 31 % 8.35 C
1892 21-08-2009 18:35:53 25.5 C 33 % 8.06 C
1893 21-08-2009 18:47:52 25.4 C 35 % 8.84 C
1894 21-08-2009 18:59:52 25.7 C 34 % 8.67 C
1895 21-08-2009 19:11:53 26 C 33 % 8.49 C
1896 21-08-2009 19:23:52 25.9 C 35 % 9.27 C
1897 21-08-2009 19:35:52 25.7 C 37 % 9.92 C
1898 21-08-2009 19:47:52 24.9 C 38 % 9.61 C
1899 21-08-2009 19:59:52 23.3 C 43 % 10.03 C
1900 21-08-2009 20:11:52 22.2 C 47 % 10.36 C
Sensor: Nr:Datum:Temp:Feuchte:Taupunkt:
Aussen-T/F 1901 21-08-2009 20:23:52 21 C 51 % 10.48 C
1902 21-08-2009 20:35:52 20 C 54 % 10.42 C
1903 21-08-2009 20:47:51 19.8 C 58 % 11.3 C
1904 21-08-2009 20:59:51 19.5 C 59 % 11.28 C
1905 21-08-2009 21:11:51 19.2 C 59 % 11 C
1906 21-08-2009 21:23:51 18.8 C 63 % 11.61 C
1907 21-08-2009 21:35:52 18.6 C 63 % 11.42 C
1908 21-08-2009 21:47:51 18.5 C 64 % 11.57 C
1909 21-08-2009 21:59:51 18.1 C 64 % 11.19 C
1910 21-08-2009 22:11:50 17.9 C 66 % 11.46 C
1911 21-08-2009 22:23:51 17.7 C 67 % 11.5 C
1912 21-08-2009 22:35:51 17.5 C 69 % 11.75 C
1913 21-08-2009 22:47:50 17.3 C 69 % 11.56 C
1914 21-08-2009 22:59:50 17.1 C 69 % 11.37 C
1915 21-08-2009 23:12:51 17 C 70 % 11.49 C
1916 21-08-2009 23:24:51 16.9 C 71 % 11.61 C
1917 21-08-2009 23:36:51 16.8 C 72 % 11.73 C
1918 21-08-2009 23:48:51 16.5 C 72 % 11.44 C
1919 22-08-2009 00:00:51 16.3 C 73 % 11.46 C
1920 22-08-2009 00:12:51 16 C 73 % 11.17 C
1921 22-08-2009 00:24:51 15.9 C 75 % 11.48 C
1922 22-08-2009 00:36:51 15.8 C 75 % 11.38 C
1923 22-08-2009 00:48:51 15.8 C 75 % 11.38 C
1924 22-08-2009 01:00:51 15.6 C 76 % 11.39 C
1925 22-08-2009 01:12:51 15.6 C 77 % 11.59 C
Sensor: Nr:Datum:Temp:Feuchte:Taupunkt:
Aussen-T/F 1926 22-08-2009 01:24:51 15.3 C 78 % 11.49 C
1927 22-08-2009 01:36:51 15.1 C 78 % 11.3 C
1928 22-08-2009 01:48:51 15 C 79 % 11.39 C
1929 22-08-2009 02:00:51 14.8 C 81 % 11.57 C
1930 22-08-2009 02:12:51 14.7 C 82 % 11.66 C
1931 22-08-2009 02:24:52 14.7 C 81 % 11.48 C
1932 22-08-2009 02:36:52 14.4 C 81 % 11.18 C
1933 22-08-2009 02:48:52 14.3 C 83 % 11.45 C
1934 22-08-2009 03:00:52 14.1 C 84 % 11.44 C
1935 22-08-2009 03:12:52 13.9 C 85 % 11.42 C
1936 22-08-2009 03:24:52 14 C 84 % 11.34 C
1937 22-08-2009 03:36:52 14 C 84 % 11.34 C
1938 22-08-2009 03:48:52 13.9 C 84 % 11.24 C
1939 22-08-2009 04:00:52 13.8 C 84 % 11.15 C
1940 22-08-2009 04:12:52 13.7 C 83 % 10.87 C
1941 22-08-2009 04:24:52 13.5 C 83 % 10.67 C
1942 22-08-2009 04:36:52 13.3 C 85 % 10.83 C
1943 22-08-2009 04:48:52 13.2 C 86 % 10.91 C
1944 22-08-2009 05:00:52 13.1 C 86 % 10.81 C
1945 22-08-2009 05:12:52 13.2 C 86 % 10.91 C
1946 22-08-2009 05:24:52 13.2 C 86 % 10.91 C
1947 22-08-2009 05:36:52 13.1 C 85 % 10.64 C
1948 22-08-2009 05:48:52 13 C 84 % 10.36 C
1949 22-08-2009 06:00:52 13 C 84 % 10.36 C
1950 22-08-2009 06:12:52 13 C 85 % 10.54 C
Sensor: Nr:Datum:Temp:Feuchte:Taupunkt:
Aussen-T/F 1951 22-08-2009 06:24:53 13.1 C 84 % 10.46 C
1952 22-08-2009 06:36:53 13.1 C 84 % 10.46 C
1953 22-08-2009 06:48:53 13.3 C 84 % 10.66 C
1954 22-08-2009 07:00:53 13.2 C 83 % 10.38 C
1955 22-08-2009 07:12:53 13.1 C 83 % 10.28 C
1956 22-08-2009 07:24:53 13.1 C 83 % 10.28 C
1957 22-08-2009 07:36:53 13.4 C 83 % 10.57 C
1958 22-08-2009 07:48:53 13.6 C 83 % 10.77 C
1959 22-08-2009 08:00:53 13.8 C 82 % 10.78 C
1960 22-08-2009 08:12:53 14.1 C 81 % 10.89 C
1961 22-08-2009 08:24:53 14.5 C 78 % 10.71 C
1962 22-08-2009 08:36:53 14.6 C 76 % 10.42 C
1963 22-08-2009 08:48:53 15.1 C 74 % 10.5 C
1964 22-08-2009 09:00:53 15.6 C 72 % 10.57 C
1965 22-08-2009 09:12:53 16.2 C 69 % 10.51 C
1966 22-08-2009 09:24:51 16.4 C 66 % 10.04 C
1967 22-08-2009 09:36:51 16.9 C 65 % 10.28 C
1968 22-08-2009 09:48:50 16.7 C 67 % 10.55 C
1969 22-08-2009 10:00:51 16.6 C 67 % 10.45 C
1970 22-08-2009 10:12:51 17.5 C 66 % 11.08 C
1971 22-08-2009 10:24:50 18.2 C 62 % 10.81 C
1972 22-08-2009 10:36:50 19.2 C 58 % 10.74 C
1973 22-08-2009 10:48:50 19.8 C 55 % 10.51 C
1974 22-08-2009 11:00:50 20.5 C 53 % 10.6 C
1975 22-08-2009 11:12:50 21 C 50 % 10.19 C
Sensor: Nr:Datum:Temp:Feuchte:Taupunkt:
Aussen-T/F 1976 22-08-2009 11:24:49 21.4 C 49 % 10.25 C
1977 22-08-2009 11:36:49 21.6 C 47 % 9.81 C
1978 22-08-2009 11:48:49 22 C 46 % 9.86 C
1979 22-08-2009 12:00:49 22 C 45 % 9.53 C
1980 22-08-2009 12:12:49 21.8 C 47 % 9.99 C
1981 22-08-2009 12:24:49 22.6 C 42 % 9.05 C
1982 22-08-2009 12:36:49 22.8 C 40 % 8.5 C
1983 22-08-2009 12:48:48 22.9 C 39 % 8.22 C
1984 22-08-2009 13:00:48 22.9 C 38 % 7.84 C
1985 22-08-2009 13:12:48 24 C 34 % 7.18 C
1986 22-08-2009 13:24:49 24.8 C 35 % 8.31 C
1987 22-08-2009 13:36:48 24.9 C 33 % 7.53 C
1988 22-08-2009 13:48:48 25.5 C 31 % 7.14 C
1989 22-08-2009 14:00:48 25.3 C 31 % 6.97 C
1990 22-08-2009 14:12:48 25.9 C 27 % 5.48 C
1991 22-08-2009 14:24:48 26 C 26 % 5.03 C
1992 22-08-2009 14:36:48 26.2 C 26 % 5.2 C
1993 22-08-2009 14:48:50 26.9 C 25 % 5.22 C
1994 22-08-2009 15:00:02 27.2 C 25 % 5.48 C
1995 22-08-2009 15:12:02 28.2 C 21 % 3.82 C
1996 22-08-2009 15:24:01 26.8 C 23 % 3.95 C
1997 22-08-2009 15:36:02 25.6 C 26 % 4.69 C
1998 22-08-2009 15:48:01 25.5 C 25 % 4.04 C
1999 22-08-2009 16:00:01 26.6 C 24 % 4.39 C
2000 22-08-2009 16:12:02 28.4 C 21 % 3.99 C
Sensor: Nr:Datum:Temp:Feuchte:Taupunkt:
Aussen-T/F 2001 22-08-2009 16:24:01 29.2 C 20 % 3.95 C
2002 22-08-2009 16:36:02 30.3 C 20 % 4.85 C
2003 22-08-2009 16:48:01 30.6 C 20 % 5.1 C
2004 22-08-2009 17:00:01 26.8 C 20 % 1.98 C
2005 22-08-2009 17:12:02 27.5 C 21 % 3.24 C
2006 22-08-2009 17:24:01 29.2 C 20 % 3.95 C
2007 22-08-2009 17:36:02 28.5 C 20 % 3.38 C
2008 22-08-2009 17:48:01 28.7 C 20 % 3.54 C
2009 22-08-2009 18:00:01 28.9 C 20 % 3.7 C
2010 22-08-2009 18:12:02 28.5 C 20 % 3.38 C
2011 22-08-2009 18:24:01 29.6 C 20 % 4.28 C
2012 22-08-2009 18:36:02 28.4 C 20 % 3.29 C
2013 22-08-2009 18:48:02 27.4 C 20 % 2.47 C
2014 22-08-2009 19:00:02 27.4 C 21 % 3.16 C
2015 22-08-2009 19:12:01 26.8 C 22 % 3.32 C
2016 22-08-2009 19:24:02 26.7 C 24 % 4.47 C
2017 22-08-2009 19:36:02 26.2 C 25 % 4.63 C
2018 22-08-2009 19:48:02 26 C 28 % 6.09 C
2019 22-08-2009 20:00:02 25.3 C 29 % 6 C
2020 22-08-2009 20:12:03 24.3 C 31 % 6.1 C
2021 22-08-2009 20:24:02 23.2 C 32 % 5.61 C
2022 22-08-2009 20:36:03 22.1 C 34 % 5.52 C
2023 22-08-2009 20:48:02 21.4 C 35 % 5.32 C
2024 22-08-2009 21:00:02 20.8 C 36 % 5.2 C
2025 22-08-2009 21:12:02 20 C 37 % 4.88 C
Sensor: Nr:Datum:Temp:Feuchte:Taupunkt:
Aussen-T/F 2026 22-08-2009 21:24:02 19.7 C 40 % 5.73 C
2027 22-08-2009 21:36:03 19.6 C 40 % 5.64 C
2028 22-08-2009 21:48:02 19.5 C 41 % 5.91 C
2029 22-08-2009 22:00:03 19.1 C 42 % 5.9 C
2030 22-08-2009 22:12:01 18.7 C 43 % 5.88 C
2031 22-08-2009 22:24:02 18.3 C 45 % 6.17 C
2032 22-08-2009 22:36:02 18.1 C 45 % 5.99 C
2033 22-08-2009 22:48:02 17.9 C 46 % 6.13 C
2034 22-08-2009 23:00:02 17.6 C 46 % 5.86 C
2035 22-08-2009 23:12:02 17.4 C 47 % 5.98 C
2036 22-08-2009 23:24:02 17.2 C 48 % 6.11 C
2037 22-08-2009 23:36:02 17 C 49 % 6.22 C
2038 22-08-2009 23:48:01 16.8 C 51 % 6.62 C
2039 23-08-2009 00:00:01 16.4 C 53 % 6.81 C
2040 23-08-2009 00:12:02 16.1 C 54 % 6.8 C
2041 23-08-2009 00:25:03 15.8 C 56 % 7.05 C
2042 23-08-2009 00:37:03 15.7 C 55 % 6.69 C
2043 23-08-2009 00:49:03 15.4 C 57 % 6.93 C
2044 23-08-2009 01:01:03 15.2 C 59 % 7.25 C
2045 23-08-2009 01:13:03 15 C 60 % 7.31 C
2046 23-08-2009 01:25:03 14.8 C 61 % 7.36 C
2047 23-08-2009 01:37:03 14.7 C 61 % 7.27 C
2048 23-08-2009 01:49:03 14.4 C 61 % 6.98 C
2049 23-08-2009 02:01:03 14.2 C 61 % 6.8 C
2050 23-08-2009 02:13:03 14.2 C 63 % 7.27 C
Sensor: Nr:Datum:Temp:Feuchte:Taupunkt:
Aussen-T/F 2051 23-08-2009 02:25:03 14 C 65 % 7.53 C
2052 23-08-2009 02:37:03 13.7 C 66 % 7.47 C
2053 23-08-2009 02:49:03 13.7 C 66 % 7.47 C
2054 23-08-2009 03:01:03 13.5 C 68 % 7.72 C
2055 23-08-2009 03:13:04 13.4 C 68 % 7.62 C
2056 23-08-2009 03:25:04 13.2 C 69 % 7.64 C
2057 23-08-2009 03:37:04 13.1 C 70 % 7.76 C
2058 23-08-2009 03:49:04 13 C 71 % 7.87 C
2059 23-08-2009 04:01:04 12.9 C 73 % 8.18 C
2060 23-08-2009 04:13:04 12.7 C 73 % 7.99 C
2061 23-08-2009 04:25:04 12.6 C 74 % 8.09 C
2062 23-08-2009 04:37:04 12.4 C 74 % 7.9 C
2063 23-08-2009 04:49:04 12.2 C 74 % 7.71 C
2064 23-08-2009 05:01:04 12.3 C 75 % 8 C
2065 23-08-2009 05:13:04 12 C 76 % 7.91 C
2066 23-08-2009 05:25:04 12 C 76 % 7.91 C
2067 23-08-2009 05:37:04 11.8 C 77 % 7.9 C
2068 23-08-2009 05:49:04 11.7 C 78 % 8 C
2069 23-08-2009 06:01:04 11.6 C 78 % 7.9 C
2070 23-08-2009 06:13:04 11.5 C 78 % 7.8 C
2071 23-08-2009 06:25:04 11.4 C 78 % 7.71 C
2072 23-08-2009 06:37:04 11.4 C 78 % 7.71 C
2073 23-08-2009 06:49:04 11.3 C 79 % 7.8 C
2074 23-08-2009 07:01:04 11.4 C 80 % 8.08 C
2075 23-08-2009 07:13:05 11.4 C 79 % 7.89 C
Sensor: Nr:Datum:Temp:Feuchte:Taupunkt:
Aussen-T/F 2076 23-08-2009 07:25:05 11.5 C 79 % 7.99 C
2077 23-08-2009 07:37:05 11.6 C 79 % 8.09 C
2078 23-08-2009 07:49:05 11.7 C 79 % 8.18 C
2079 23-08-2009 08:01:05 11.9 C 80 % 8.56 C
2080 23-08-2009 08:13:05 12.1 C 79 % 8.57 C
2081 23-08-2009 08:25:05 12.4 C 79 % 8.86 C
2082 23-08-2009 08:37:05 12.7 C 79 % 9.16 C
2083 23-08-2009 08:49:05 13 C 77 % 9.07 C
2084 23-08-2009 09:01:05 13.5 C 76 % 9.36 C
2085 23-08-2009 09:13:05 13.8 C 74 % 9.25 C
2086 23-08-2009 09:25:03 14.2 C 74 % 9.64 C
2087 23-08-2009 09:37:02 14.7 C 72 % 9.71 C
2088 23-08-2009 09:49:02 15.3 C 70 % 9.87 C
2089 23-08-2009 10:01:01 16 C 68 % 10.1 C
2090 23-08-2009 10:13:01 16.6 C 66 % 10.23 C
2091 23-08-2009 10:25:01 17.2 C 63 % 10.1 C
2092 23-08-2009 10:37:02 17.7 C 62 % 10.33 C
2093 23-08-2009 10:49:02 17.7 C 63 % 10.57 C
2094 23-08-2009 11:01:01 18.7 C 61 % 11.03 C
2095 23-08-2009 11:13:01 19.7 C 54 % 10.14 C
2096 23-08-2009 11:25:02 20.8 C 47 % 9.08 C
2097 23-08-2009 11:37:02 21.6 C 43 % 8.49 C
2098 23-08-2009 11:49:02 22.1 C 42 % 8.6 C
2099 23-08-2009 12:01:02 22.6 C 39 % 7.95 C
2100 23-08-2009 12:13:02 23.1 C 36 % 7.23 C
Sensor: Nr:Datum:Temp:Feuchte:Taupunkt:
Aussen-T/F 2101 23-08-2009 12:25:02 23.4 C 33 % 6.22 C
2102 23-08-2009 12:37:02 23.7 C 32 % 6.04 C
2103 23-08-2009 12:49:02 24.2 C 30 % 5.54 C
2104 23-08-2009 13:01:03 24.5 C 29 % 5.31 C
2105 23-08-2009 13:13:03 24.9 C 27 % 4.63 C
2106 23-08-2009 13:25:02 25.5 C 26 % 4.6 C
2107 23-08-2009 13:37:02 25.7 C 25 % 4.21 C
2108 23-08-2009 13:49:01 26.1 C 23 % 3.37 C
2109 23-08-2009 14:01:02 26.3 C 22 % 2.91 C
2110 23-08-2009 14:13:02 26.6 C 23 % 3.78 C
2111 23-08-2009 14:25:01 27.1 C 21 % 2.91 C
2112 23-08-2009 14:37:01 27.3 C 21 % 3.08 C
2113 23-08-2009 14:49:01 27.7 C 21 % 3.41 C
2114 23-08-2009 15:01:02 27.8 C 21 % 3.49 C
2115 23-08-2009 15:13:02 28.3 C 21 % 3.9 C
2116 23-08-2009 15:25:01 28.4 C 20 % 3.29 C
2117 23-08-2009 15:37:01 28.2 C 20 % 3.13 C
2118 23-08-2009 15:49:01 29.2 C 20 % 3.95 C
2119 23-08-2009 16:01:01 29.7 C 20 % 4.36 C
2120 23-08-2009 16:13:01 30.2 C 20 % 4.77 C
2121 23-08-2009 16:25:01 30.1 C 20 % 4.69 C
2122 23-08-2009 16:37:01 30.5 C 20 % 5.01 C
2123 23-08-2009 16:49:01 30.6 C 20 % 5.1 C
2124 23-08-2009 17:01:02 30.8 C 20 % 5.26 C
2125 23-08-2009 17:13:03 30.9 C 20 % 5.34 C
Sensor: Nr:Datum:Temp:Feuchte:Taupunkt:
Aussen-T/F 2126 23-08-2009 17:25:01 31.1 C 20 % 5.51 C
2127 23-08-2009 17:37:01 31 C 20 % 5.42 C
2128 23-08-2009 17:49:01 31 C 20 % 5.42 C
2129 23-08-2009 18:01:01 31.1 C 20 % 5.51 C
2130 23-08-2009 18:13:01 31.2 C 20 % 5.59 C
2131 23-08-2009 18:25:01 31.1 C 20 % 5.51 C
2132 23-08-2009 18:37:01 30.6 C 20 % 5.1 C
2133 23-08-2009 18:49:01 30 C 20 % 4.61 C
2134 23-08-2009 19:01:01 30.6 C 20 % 5.1 C
2135 23-08-2009 19:13:01 30.7 C 20 % 5.18 C
2136 23-08-2009 19:25:02 30.1 C 20 % 4.69 C
2137 23-08-2009 19:37:01 30 C 20 % 4.61 C
2138 23-08-2009 19:49:02 28.8 C 20 % 3.62 C
2139 23-08-2009 20:01:02 27.9 C 22 % 4.23 C
2140 23-08-2009 20:13:02 26.1 C 25 % 4.55 C
2141 23-08-2009 20:25:02 24.8 C 28 % 5.07 C
2142 23-08-2009 20:37:02 23.7 C 30 % 5.11 C
2143 23-08-2009 20:49:02 22.9 C 31 % 4.89 C
2144 23-08-2009 21:01:01 22.4 C 32 % 4.91 C
2145 23-08-2009 21:13:01 21.7 C 35 % 5.58 C
2146 23-08-2009 21:25:01 21.3 C 35 % 5.23 C
2147 23-08-2009 21:37:02 21 C 36 % 5.37 C
2148 23-08-2009 21:49:02 20.7 C 37 % 5.5 C
2149 23-08-2009 22:01:02 20.4 C 39 % 5.99 C
2150 23-08-2009 22:13:02 20.1 C 40 % 6.09 C
Sensor: Nr:Datum:Temp:Feuchte:Taupunkt:
Aussen-T/F 2151 23-08-2009 22:25:02 19.8 C 41 % 6.18 C
2152 23-08-2009 22:37:02 19.5 C 43 % 6.6 C
2153 23-08-2009 22:49:02 19.3 C 43 % 6.42 C
2154 23-08-2009 23:01:02 19.1 C 43 % 6.24 C
2155 23-08-2009 23:13:02 18.9 C 45 % 6.72 C
2156 23-08-2009 23:25:02 18.7 C 45 % 6.54 C
2157 23-08-2009 23:37:02 18.6 C 45 % 6.45 C
2158 23-08-2009 23:49:02 18.3 C 45 % 6.17 C
2159 24-08-2009 00:01:02 18.1 C 46 % 6.31 C
2160 24-08-2009 00:13:03 17.9 C 48 % 6.75 C
2161 24-08-2009 00:25:02 17.8 C 48 % 6.65 C
2162 24-08-2009 00:37:02 17.4 C 49 % 6.59 C
2163 24-08-2009 00:49:01 17.4 C 49 % 6.59 C
2164 24-08-2009 01:01:02 17.2 C 51 % 6.98 C
2165 24-08-2009 01:13:02 17 C 51 % 6.8 C
2166 24-08-2009 01:25:01 16.9 C 52 % 6.99 C
2167 24-08-2009 01:37:02 16.6 C 54 % 7.26 C
2168 24-08-2009 01:49:02 16.3 C 54 % 6.98 C
2169 24-08-2009 02:01:02 16.1 C 55 % 7.07 C
2170 24-08-2009 02:13:02 15.9 C 57 % 7.4 C
2171 24-08-2009 02:25:02 15.8 C 58 % 7.56 C
2172 24-08-2009 02:37:02 15.5 C 58 % 7.28 C
2173 24-08-2009 02:50:03 15.4 C 59 % 7.44 C
2174 24-08-2009 03:02:03 15.3 C 59 % 7.34 C
2175 24-08-2009 03:14:04 15 C 61 % 7.55 C
Sensor: Nr:Datum:Temp:Feuchte:Taupunkt:
Aussen-T/F 2176 24-08-2009 03:26:04 14.8 C 62 % 7.6 C
2177 24-08-2009 03:38:02 14.7 C 66 % 8.42 C
2178 24-08-2009 03:50:02 14.3 C 66 % 8.04 C
2179 24-08-2009 04:02:02 14.2 C 66 % 7.95 C
2180 24-08-2009 04:14:02 14 C 67 % 7.98 C
2181 24-08-2009 04:26:02 13.9 C 68 % 8.1 C
2182 24-08-2009 04:38:02 13.7 C 68 % 7.91 C
2183 24-08-2009 04:50:01 13.5 C 70 % 8.14 C
2184 24-08-2009 05:02:02 13.4 C 72 % 8.46 C
2185 24-08-2009 05:14:02 13.3 C 73 % 8.57 C
2186 24-08-2009 05:26:01 13.2 C 73 % 8.47 C
2187 24-08-2009 05:38:02 13.1 C 73 % 8.38 C
2188 24-08-2009 05:50:02 13 C 74 % 8.48 C
2189 24-08-2009 06:02:02 12.9 C 75 % 8.58 C
2190 24-08-2009 06:14:02 12.8 C 75 % 8.48 C
2191 24-08-2009 06:26:01 12.6 C 75 % 8.29 C
2192 24-08-2009 06:38:02 12.7 C 75 % 8.39 C
2193 24-08-2009 06:50:01 12.5 C 75 % 8.19 C
2194 24-08-2009 07:02:02 12.6 C 76 % 8.49 C
2195 24-08-2009 07:14:02 12.7 C 77 % 8.78 C
2196 24-08-2009 07:26:02 12.8 C 77 % 8.87 C
2197 24-08-2009 07:38:02 12.9 C 77 % 8.97 C
2198 24-08-2009 07:50:02 12.9 C 78 % 9.16 C
2199 24-08-2009 08:02:02 13.1 C 77 % 9.16 C
2200 24-08-2009 08:14:02 13.2 C 77 % 9.26 C
Sensor: Nr:Datum:Temp:Feuchte:Taupunkt:
Aussen-T/F 2201 24-08-2009 08:26:02 13.6 C 77 % 9.65 C
2202 24-08-2009 08:38:01 13.8 C 77 % 9.84 C
2203 24-08-2009 08:50:02 14.2 C 77 % 10.23 C
2204 24-08-2009 09:02:01 14.6 C 76 % 10.42 C
2205 24-08-2009 09:14:01 15 C 73 % 10.2 C
2206 24-08-2009 09:26:02 15.5 C 72 % 10.48 C
2207 24-08-2009 09:38:01 16.5 C 68 % 10.58 C
2208 24-08-2009 09:50:02 17.2 C 65 % 10.57 C
2209 24-08-2009 10:02:02 17.9 C 63 % 10.76 C
2210 24-08-2009 10:14:02 18.7 C 59 % 10.53 C
2211 24-08-2009 10:26:02 19.4 C 57 % 10.67 C
2212 24-08-2009 10:38:02 20.1 C 53 % 10.23 C
2213 24-08-2009 10:50:02 20.7 C 52 % 10.5 C
2214 24-08-2009 11:02:01 21.5 C 48 % 10.04 C
2215 24-08-2009 11:14:01 22 C 46 % 9.86 C
2216 24-08-2009 11:26:01 22.4 C 43 % 9.22 C
2217 24-08-2009 11:38:02 22.9 C 44 % 10.01 C
2218 24-08-2009 11:50:02 23.6 C 41 % 9.59 C
2219 24-08-2009 12:02:02 23.9 C 39 % 9.11 C
2220 24-08-2009 12:14:02 24 C 39 % 9.2 C
2221 24-08-2009 12:26:01 24.9 C 37 % 9.22 C
2222 24-08-2009 12:38:02 25.2 C 36 % 9.08 C
2223 24-08-2009 12:50:02 25.2 C 35 % 8.66 C
2224 24-08-2009 13:02:02 25.9 C 34 % 8.85 C
2225 24-08-2009 13:14:02 26.7 C 32 % 8.65 C
Sensor: Nr:Datum:Temp:Feuchte:Taupunkt:
Aussen-T/F 2226 24-08-2009 13:26:02 27.6 C 30 % 8.47 C
2227 24-08-2009 13:38:02 28.2 C 30 % 8.99 C
2228 24-08-2009 13:50:02 28.5 C 29 % 8.75 C
2229 24-08-2009 14:02:02 28.8 C 29 % 9 C
2230 24-08-2009 14:14:02 29.3 C 28 % 8.91 C
2231 24-08-2009 14:26:02 29.9 C 27 % 8.88 C
2232 24-08-2009 14:38:02 30.4 C 26 % 8.75 C
2233 24-08-2009 14:50:02 30.6 C 25 % 8.34 C
2234 24-08-2009 15:02:02 31 C 23 % 7.45 C
2235 24-08-2009 15:14:02 31.2 C 21 % 6.29 C
2236 24-08-2009 15:26:02 31.6 C 21 % 6.62 C
2237 24-08-2009 15:38:02 32 C 20 % 6.24 C
2238 24-08-2009 15:50:02 32.3 C 20 % 6.49 C
2239 24-08-2009 16:02:02 32.6 C 20 % 6.73 C
2240 24-08-2009 16:14:02 32.6 C 20 % 6.73 C
2241 24-08-2009 16:26:02 32.5 C 20 % 6.65 C
2242 24-08-2009 16:38:02 31.9 C 20 % 6.16 C
2243 24-08-2009 16:50:02 31.9 C 20 % 6.16 C
2244 24-08-2009 17:02:02 32.4 C 20 % 6.57 C
2245 24-08-2009 17:14:02 32.9 C 20 % 6.98 C
2246 24-08-2009 17:26:02 33 C 20 % 7.06 C
2247 24-08-2009 17:38:02 33 C 20 % 7.06 C
2248 24-08-2009 17:50:02 33.1 C 20 % 7.14 C
2249 24-08-2009 18:02:02 33.1 C 20 % 7.14 C
2250 24-08-2009 18:14:02 33.1 C 20 % 7.14 C
Sensor: Nr:Datum:Temp:Feuchte:Taupunkt:
Aussen-T/F 2251 24-08-2009 18:26:02 33.1 C 20 % 7.14 C
2252 24-08-2009 18:38:01 33.1 C 20 % 7.14 C
2253 24-08-2009 18:50:02 32.9 C 20 % 6.98 C
2254 24-08-2009 19:02:02 32.6 C 20 % 6.73 C
2255 24-08-2009 19:14:02 32.1 C 21 % 7.03 C
2256 24-08-2009 19:26:02 31.4 C 24 % 8.41 C
2257 24-08-2009 19:38:01 30.6 C 27 % 9.48 C
2258 24-08-2009 19:50:02 30.3 C 29 % 10.29 C
2259 24-08-2009 20:02:01 29.7 C 31 % 10.77 C
2260 24-08-2009 20:14:01 28.5 C 33 % 10.67 C
2261 24-08-2009 20:26:02 27.5 C 35 % 10.68 C
2262 24-08-2009 20:38:01 26.7 C 37 % 10.81 C
2263 24-08-2009 20:50:03 26.1 C 39 % 11.07 C
2264 24-08-2009 21:02:03 25.8 C 40 % 11.18 C
2265 24-08-2009 21:14:03 25.6 C 41 % 11.38 C
2266 24-08-2009 21:26:02 25.5 C 42 % 11.65 C
2267 24-08-2009 21:38:03 25.5 C 42 % 11.65 C
2268 24-08-2009 21:50:02 25.3 C 42 % 11.47 C
2269 24-08-2009 22:02:01 25 C 43 % 11.56 C
2270 24-08-2009 22:14:01 24.6 C 45 % 11.88 C
2271 24-08-2009 22:26:02 24.2 C 45 % 11.52 C
2272 24-08-2009 22:38:01 24 C 46 % 11.67 C
2273 24-08-2009 22:50:02 24 C 46 % 11.67 C
2274 24-08-2009 23:02:01 23.9 C 47 % 11.91 C
2275 24-08-2009 23:14:01 23.6 C 49 % 12.27 C
Sensor: Nr:Datum:Temp:Feuchte:Taupunkt:
Aussen-T/F 2276 24-08-2009 23:26:02 23.2 C 50 % 12.21 C
2277 24-08-2009 23:38:02 23 C 49 % 11.72 C
2278 24-08-2009 23:50:02 22.5 C 52 % 12.16 C
2279 25-08-2009 00:02:02 22.2 C 51 % 11.59 C
2280 25-08-2009 00:14:02 22.1 C 52 % 11.79 C
2281 25-08-2009 00:26:02 22 C 51 % 11.4 C
2282 25-08-2009 00:38:02 21.8 C 53 % 11.8 C
2283 25-08-2009 00:50:01 21.4 C 52 % 11.14 C
2284 25-08-2009 01:02:02 21.2 C 53 % 11.25 C
2285 25-08-2009 01:14:02 21.2 C 54 % 11.53 C
2286 25-08-2009 01:26:01 21 C 55 % 11.62 C
2287 25-08-2009 01:38:02 20.6 C 56 % 11.52 C
2288 25-08-2009 01:50:02 20.8 C 56 % 11.71 C
2289 25-08-2009 02:02:02 20.9 C 56 % 11.8 C
2290 25-08-2009 02:14:02 20.7 C 57 % 11.88 C
2291 25-08-2009 02:26:02 20.6 C 57 % 11.79 C
2292 25-08-2009 02:38:02 20.7 C 57 % 11.88 C
2293 25-08-2009 02:50:01 20.8 C 58 % 12.24 C
2294 25-08-2009 03:02:01 20.5 C 58 % 11.96 C
2295 25-08-2009 03:14:02 20.5 C 59 % 12.22 C
2296 25-08-2009 03:26:02 20.3 C 59 % 12.03 C
2297 25-08-2009 03:38:01 20.2 C 59 % 11.94 C
2298 25-08-2009 03:50:01 20 C 60 % 12 C
2299 25-08-2009 04:02:02 20 C 60 % 12 C
2300 25-08-2009 04:14:02 20 C 61 % 12.26 C
Sensor: Nr:Datum:Temp:Feuchte:Taupunkt:
Aussen-T/F 2301 25-08-2009 04:26:01 19.9 C 62 % 12.41 C
2302 25-08-2009 04:38:02 20 C 60 % 12 C
2303 25-08-2009 04:50:01 20 C 60 % 12 C
2304 25-08-2009 05:02:02 20 C 60 % 12 C
2305 25-08-2009 05:14:02 19.7 C 63 % 12.46 C
2306 25-08-2009 05:26:01 20.1 C 57 % 11.32 C
2307 25-08-2009 05:38:01 20.3 C 55 % 10.97 C
2308 25-08-2009 05:50:01 19.9 C 57 % 11.14 C
2309 25-08-2009 06:02:02 19.6 C 59 % 11.37 C
2310 25-08-2009 06:14:02 19.2 C 61 % 11.5 C
2311 25-08-2009 06:26:01 19.1 C 63 % 11.9 C
2312 25-08-2009 06:38:01 19.1 C 63 % 11.9 C
2313 25-08-2009 06:50:01 19.2 C 62 % 11.75 C
2314 25-08-2009 07:02:01 19.4 C 63 % 12.18 C
2315 25-08-2009 07:14:01 19.6 C 62 % 12.13 C
2316 25-08-2009 07:26:01 19.8 C 61 % 12.07 C
2317 25-08-2009 07:38:01 20 C 59 % 11.75 C
2318 25-08-2009 07:50:01 20.1 C 59 % 11.84 C
2319 25-08-2009 08:02:01 20.2 C 59 % 11.94 C
2320 25-08-2009 08:14:01 20.1 C 60 % 12.1 C
2321 25-08-2009 08:26:02 20.3 C 61 % 12.54 C
2322 25-08-2009 08:38:01 20.4 C 62 % 12.88 C
2323 25-08-2009 08:50:01 20.8 C 60 % 12.76 C
2324 25-08-2009 09:02:01 21.3 C 57 % 12.44 C
2325 25-08-2009 09:14:01 21.5 C 57 % 12.63 C
Sensor: Nr:Datum:Temp:Feuchte:Taupunkt:
Aussen-T/F 2326 25-08-2009 09:26:02 21.4 C 59 % 13.06 C
2327 25-08-2009 09:38:01 22 C 58 % 13.36 C
2328 25-08-2009 09:50:02 22.5 C 56 % 13.29 C
2329 25-08-2009 10:02:01 23.2 C 52 % 12.8 C
2330 25-08-2009 10:14:01 23.6 C 51 % 12.88 C
2331 25-08-2009 10:26:02 23.7 C 49 % 12.36 C
2332 25-08-2009 10:38:01 23.9 C 49 % 12.54 C
2333 25-08-2009 10:50:02 23.8 C 50 % 12.76 C
2334 25-08-2009 11:02:01 23.7 C 53 % 13.56 C
2335 25-08-2009 11:14:01 23.4 C 53 % 13.28 C
2336 25-08-2009 11:26:01 23.6 C 53 % 13.46 C
2337 25-08-2009 11:38:01 24 C 50 % 12.94 C
2338 25-08-2009 11:50:02 23.8 C 51 % 13.06 C
2339 25-08-2009 12:02:01 24.6 C 48 % 12.87 C
2340 25-08-2009 12:14:01 25.2 C 46 % 12.76 C
2341 25-08-2009 12:26:01 26 C 45 % 13.15 C
2342 25-08-2009 12:38:02 26.7 C 43 % 13.09 C
2343 25-08-2009 12:50:01 27.5 C 39 % 12.31 C
2344 25-08-2009 13:02:02 28.1 C 38 % 12.45 C
2345 25-08-2009 13:14:02 28.1 C 38 % 12.45 C
2346 25-08-2009 13:26:01 28.7 C 36 % 12.16 C
2347 25-08-2009 13:38:02 28.3 C 33 % 10.49 C
2348 25-08-2009 13:50:01 27.8 C 34 % 10.51 C
2349 25-08-2009 14:02:02 28.7 C 33 % 10.84 C
2350 25-08-2009 14:14:02 28.3 C 33 % 10.49 C
Sensor: Nr:Datum:Temp:Feuchte:Taupunkt:
Aussen-T/F 2351 25-08-2009 14:26:01 28.7 C 32 % 10.38 C
2352 25-08-2009 14:38:02 28.3 C 33 % 10.49 C
2353 25-08-2009 14:50:01 28.3 C 33 % 10.49 C
2354 25-08-2009 15:02:02 28.1 C 33 % 10.32 C
2355 25-08-2009 15:14:02 27.5 C 36 % 11.1 C
2356 25-08-2009 15:26:01 27.9 C 36 % 11.45 C
2357 25-08-2009 15:38:01 29.1 C 32 % 10.73 C
2358 25-08-2009 15:50:01 27.9 C 34 % 10.59 C
2359 25-08-2009 16:02:01 28.1 C 34 % 10.77 C
2360 25-08-2009 16:14:02 28.5 C 31 % 9.73 C
2361 25-08-2009 16:26:01 28.3 C 33 % 10.49 C
2362 25-08-2009 16:38:01 28 C 33 % 10.23 C
2363 25-08-2009 16:50:01 27.6 C 33 % 9.89 C
2364 25-08-2009 17:02:01 27.4 C 36 % 11.01 C
2365 25-08-2009 17:14:01 26.8 C 36 % 10.49 C
2366 25-08-2009 17:26:01 26.6 C 37 % 10.72 C
2367 25-08-2009 17:38:01 25.7 C 38 % 10.32 C
2368 25-08-2009 17:50:01 25.6 C 39 % 10.62 C
2369 25-08-2009 18:02:01 25.5 C 38 % 10.15 C
2370 25-08-2009 18:14:01 25.6 C 39 % 10.62 C
2371 25-08-2009 18:26:02 25.4 C 41 % 11.2 C
2372 25-08-2009 18:38:01 25 C 42 % 11.2 C
2373 25-08-2009 18:50:02 24.8 C 45 % 12.06 C
2374 25-08-2009 19:02:01 24.4 C 48 % 12.68 C
2375 25-08-2009 19:14:01 24.3 C 49 % 12.91 C
Sensor: Nr:Datum:Temp:Feuchte:Taupunkt:
Aussen-T/F 2376 25-08-2009 19:26:02 24.1 C 50 % 13.03 C
2377 25-08-2009 19:38:01 23.9 C 53 % 13.74 C
2378 25-08-2009 19:50:02 23.7 C 54 % 13.84 C
2379 25-08-2009 20:02:01 23.5 C 55 % 13.94 C
2380 25-08-2009 20:14:01 23.2 C 56 % 13.94 C
2381 25-08-2009 20:26:02 23.2 C 57 % 14.21 C
2382 25-08-2009 20:38:01 23.2 C 56 % 13.94 C
2383 25-08-2009 20:50:02 23.1 C 56 % 13.85 C
2384 25-08-2009 21:02:02 22.6 C 58 % 13.92 C
2385 25-08-2009 21:14:02 22.1 C 60 % 13.98 C
2386 25-08-2009 21:26:01 22 C 61 % 14.14 C
2387 25-08-2009 21:38:02 21.9 C 62 % 14.29 C
2388 25-08-2009 21:50:01 21.9 C 63 % 14.54 C
2389 25-08-2009 22:03:03 21.9 C 62 % 14.29 C
2390 25-08-2009 22:15:03 21.7 C 63 % 14.35 C
2391 25-08-2009 22:27:03 21.5 C 64 % 14.41 C
2392 25-08-2009 22:39:03 21.3 C 64 % 14.22 C
2393 25-08-2009 22:51:03 21.2 C 65 % 14.36 C
2394 25-08-2009 23:03:03 21.2 C 66 % 14.6 C
2395 25-08-2009 23:15:03 21.2 C 66 % 14.6 C
2396 25-08-2009 23:27:03 21.3 C 66 % 14.69 C
2397 25-08-2009 23:39:03 20.9 C 62 % 13.35 C
2398 25-08-2009 23:51:03 20.6 C 61 % 12.82 C
2399 26-08-2009 00:03:03 20.8 C 59 % 12.5 C
2400 26-08-2009 00:15:03 20.7 C 58 % 12.15 C
Sensor: Nr:Datum:Temp:Feuchte:Taupunkt:
Aussen-T/F 2401 26-08-2009 00:27:03 20.4 C 59 % 12.12 C
2402 26-08-2009 00:39:04 20.4 C 59 % 12.12 C
2403 26-08-2009 00:51:04 20.3 C 59 % 12.03 C
2404 26-08-2009 01:03:04 20.3 C 59 % 12.03 C
2405 26-08-2009 01:15:04 19.9 C 61 % 12.16 C
2406 26-08-2009 01:27:04 19.8 C 61 % 12.07 C
2407 26-08-2009 01:39:04 19.7 C 61 % 11.97 C
2408 26-08-2009 01:51:04 19.3 C 62 % 11.84 C
2409 26-08-2009 02:03:04 18.8 C 64 % 11.85 C
2410 26-08-2009 02:15:04 18.7 C 64 % 11.76 C
2411 26-08-2009 02:27:04 18.5 C 65 % 11.8 C
2412 26-08-2009 02:39:04 18.2 C 66 % 11.75 C
2413 26-08-2009 02:51:04 17.8 C 68 % 11.82 C
2414 26-08-2009 03:03:04 17.7 C 69 % 11.95 C
2415 26-08-2009 03:15:04 17.5 C 70 % 11.97 C
2416 26-08-2009 03:27:04 17.1 C 70 % 11.59 C
2417 26-08-2009 03:39:04 16.9 C 71 % 11.61 C
2418 26-08-2009 03:51:04 16.7 C 72 % 11.63 C
2419 26-08-2009 04:03:04 16.6 C 73 % 11.74 C
2420 26-08-2009 04:15:04 16.4 C 73 % 11.55 C
2421 26-08-2009 04:27:05 16.3 C 73 % 11.46 C
2422 26-08-2009 04:39:05 16.1 C 73 % 11.26 C
2423 26-08-2009 04:51:05 15.8 C 75 % 11.38 C
2424 26-08-2009 05:03:05 15.7 C 76 % 11.48 C
2425 26-08-2009 05:15:05 15.6 C 76 % 11.39 C
Sensor: Nr:Datum:Temp:Feuchte:Taupunkt:
Aussen-T/F 2426 26-08-2009 05:27:05 15.4 C 76 % 11.19 C
2427 26-08-2009 05:39:05 15.3 C 77 % 11.3 C
2428 26-08-2009 05:51:05 15.4 C 77 % 11.39 C
2429 26-08-2009 06:03:05 15.6 C 77 % 11.59 C
2430 26-08-2009 06:15:05 15.4 C 77 % 11.39 C
2431 26-08-2009 06:27:05 15.2 C 77 % 11.2 C
2432 26-08-2009 06:39:05 15.1 C 78 % 11.3 C
2433 26-08-2009 06:51:05 14.9 C 79 % 11.29 C
2434 26-08-2009 07:03:02 14.8 C 80 % 11.39 C
2435 26-08-2009 07:15:02 14.7 C 81 % 11.48 C
2436 26-08-2009 07:27:02 14.7 C 81 % 11.48 C
2437 26-08-2009 07:39:02 14.8 C 81 % 11.57 C
2438 26-08-2009 07:51:02 15 C 80 % 11.58 C
2439 26-08-2009 08:03:02 15.1 C 80 % 11.68 C
2440 26-08-2009 08:15:02 15.2 C 80 % 11.78 C
2441 26-08-2009 08:27:03 15.4 C 80 % 11.97 C
2442 26-08-2009 08:39:02 15.6 C 80 % 12.16 C
2443 26-08-2009 08:51:02 15.9 C 79 % 12.27 C
2444 26-08-2009 09:03:01 16.1 C 77 % 12.07 C
2445 26-08-2009 09:15:02 16.4 C 77 % 12.36 C
2446 26-08-2009 09:27:02 16.8 C 76 % 12.55 C
2447 26-08-2009 09:39:02 17.4 C 73 % 12.51 C
2448 26-08-2009 09:51:02 17.9 C 73 % 12.99 C
2449 26-08-2009 10:03:02 18.5 C 68 % 12.49 C
2450 26-08-2009 10:15:02 19.1 C 65 % 12.37 C
Sensor: Nr:Datum:Temp:Feuchte:Taupunkt:
Aussen-T/F 2451 26-08-2009 10:27:02 19.6 C 62 % 12.13 C
2452 26-08-2009 10:39:03 20.2 C 59 % 11.94 C
2453 26-08-2009 10:51:02 20.9 C 46 % 8.86 C
2454 26-08-2009 11:03:02 21.3 C 44 % 8.56 C
2455 26-08-2009 11:15:01 21.8 C 42 % 8.33 C
2456 26-08-2009 11:27:01 22.3 C 37 % 6.92 C
2457 26-08-2009 11:39:02 22.5 C 37 % 7.1 C
2458 26-08-2009 11:51:02 22.7 C 36 % 6.87 C
2459 26-08-2009 12:03:02 23.4 C 35 % 7.08 C
2460 26-08-2009 12:15:02 23.8 C 33 % 6.57 C
2461 26-08-2009 12:27:02 24.1 C 31 % 5.93 C
2462 26-08-2009 12:39:02 24.5 C 30 % 5.8 C
2463 26-08-2009 12:51:02 24 C 31 % 5.84 C
2464 26-08-2009 13:03:02 24.9 C 31 % 6.62 C
2465 26-08-2009 13:15:02 25.5 C 29 % 6.17 C
2466 26-08-2009 13:27:02 25.9 C 29 % 6.52 C
2467 26-08-2009 13:39:02 26.6 C 28 % 6.61 C
2468 26-08-2009 13:51:02 26.9 C 27 % 6.33 C
2469 26-08-2009 14:03:02 27.2 C 28 % 7.12 C
2470 26-08-2009 14:15:02 27.8 C 27 % 7.1 C
2471 26-08-2009 14:27:02 27.8 C 27 % 7.1 C
2472 26-08-2009 14:39:02 27.8 C 27 % 7.1 C
2473 26-08-2009 14:51:02 28.6 C 27 % 7.78 C
2474 26-08-2009 15:03:02 28 C 30 % 8.82 C
2475 26-08-2009 15:15:02 27.8 C 31 % 9.13 C
Sensor: Nr:Datum:Temp:Feuchte:Taupunkt:
Aussen-T/F 2476 26-08-2009 15:27:02 27.9 C 29 % 8.23 C
2477 26-08-2009 15:39:02 27.8 C 32 % 9.6 C
2478 26-08-2009 15:51:02 27.1 C 30 % 8.04 C
2479 26-08-2009 16:03:02 27.7 C 30 % 8.56 C
2480 26-08-2009 16:15:02 28.7 C 27 % 7.86 C
2481 26-08-2009 16:27:02 28.9 C 26 % 7.48 C
2482 26-08-2009 16:39:02 28.6 C 27 % 7.78 C
2483 26-08-2009 16:51:02 29.6 C 26 % 8.07 C
2484 26-08-2009 17:03:02 29.8 C 25 % 7.67 C
2485 26-08-2009 17:15:02 29.5 C 25 % 7.41 C
2486 26-08-2009 17:27:02 28.1 C 26 % 6.8 C
2487 26-08-2009 17:39:02 28.4 C 26 % 7.06 C
2488 26-08-2009 17:51:02 28.7 C 26 % 7.31 C
2489 26-08-2009 18:03:02 29 C 24 % 6.4 C
2490 26-08-2009 18:15:02 28.1 C 24 % 5.65 C
2491 26-08-2009 18:27:03 27.8 C 26 % 6.55 C
2492 26-08-2009 18:39:01 27.7 C 26 % 6.47 C
2493 26-08-2009 18:51:02 28 C 26 % 6.72 C
2494 26-08-2009 19:03:01 28.6 C 25 % 6.66 C
2495 26-08-2009 19:15:01 28.5 C 25 % 6.57 C
2496 26-08-2009 19:27:01 27.6 C 28 % 7.46 C
2497 26-08-2009 19:39:02 27.4 C 28 % 7.29 C
2498 26-08-2009 19:51:02 26.4 C 31 % 7.92 C
2499 26-08-2009 20:03:02 25.3 C 34 % 8.32 C
2500 26-08-2009 20:15:02 24.3 C 36 % 8.28 C
Sensor: Nr:Datum:Temp:Feuchte:Taupunkt:
Aussen-T/F 2501 26-08-2009 20:27:02 23.5 C 39 % 8.76 C
2502 26-08-2009 20:39:02 23 C 40 % 8.68 C
2503 26-08-2009 20:51:02 22.8 C 42 % 9.23 C
2504 26-08-2009 21:03:01 22.8 C 43 % 9.58 C
2505 26-08-2009 21:15:02 22.7 C 44 % 9.83 C
2506 26-08-2009 21:27:02 22.6 C 44 % 9.74 C
2507 26-08-2009 21:39:01 22.7 C 45 % 10.16 C
2508 26-08-2009 21:51:02 22.5 C 46 % 10.31 C
2509 26-08-2009 22:04:03 22.4 C 47 % 10.54 C
2510 26-08-2009 22:16:04 22.1 C 49 % 10.89 C
2511 26-08-2009 22:28:04 22 C 50 % 11.11 C
2512 26-08-2009 22:40:04 21.8 C 53 % 11.8 C
2513 26-08-2009 22:52:04 21.9 C 53 % 11.89 C
2514 26-08-2009 23:04:04 21.6 C 54 % 11.9 C
2515 26-08-2009 23:16:04 21.4 C 55 % 11.99 C
2516 26-08-2009 23:28:04 21.3 C 56 % 12.17 C
2517 26-08-2009 23:40:04 21.1 C 57 % 12.25 C
2518 26-08-2009 23:52:04 20.8 C 59 % 12.5 C
2519 27-08-2009 00:04:04 20.7 C 59 % 12.41 C
2520 27-08-2009 00:16:04 20.4 C 60 % 12.38 C
2521 27-08-2009 00:28:04 20.3 C 61 % 12.54 C
2522 27-08-2009 00:40:04 20 C 61 % 12.26 C
2523 27-08-2009 00:52:04 19.9 C 63 % 12.65 C
2524 27-08-2009 01:04:04 19.9 C 63 % 12.65 C
2525 27-08-2009 01:16:04 19.8 C 64 % 12.8 C
Sensor: Nr:Datum:Temp:Feuchte:Taupunkt:
Aussen-T/F 2526 27-08-2009 01:28:04 19.6 C 65 % 12.84 C
2527 27-08-2009 01:40:04 19.3 C 66 % 12.79 C
2528 27-08-2009 01:52:04 19.2 C 67 % 12.93 C
2529 27-08-2009 02:04:05 19 C 67 % 12.74 C
2530 27-08-2009 02:16:05 18.8 C 69 % 13 C
2531 27-08-2009 02:28:05 18.7 C 69 % 12.9 C
2532 27-08-2009 02:40:05 18.5 C 70 % 12.93 C
2533 27-08-2009 02:52:05 18.4 C 71 % 13.05 C
2534 27-08-2009 03:04:05 18.3 C 71 % 12.95 C
2535 27-08-2009 03:16:05 18 C 72 % 12.88 C
2536 27-08-2009 03:28:05 17.9 C 73 % 12.99 C
2537 27-08-2009 03:40:05 17.8 C 73 % 12.9 C
2538 27-08-2009 03:52:05 17.6 C 74 % 12.91 C
2539 27-08-2009 04:04:05 17.5 C 75 % 13.02 C
2540 27-08-2009 04:16:05 17.4 C 75 % 12.93 C
2541 27-08-2009 04:28:05 17.3 C 75 % 12.83 C
2542 27-08-2009 04:40:05 17.2 C 76 % 12.94 C
2543 27-08-2009 04:52:05 17 C 77 % 12.94 C
2544 27-08-2009 05:04:05 17 C 78 % 13.14 C
2545 27-08-2009 05:16:05 16.8 C 80 % 13.33 C
2546 27-08-2009 05:28:05 16.6 C 80 % 13.14 C
2547 27-08-2009 05:40:05 16.5 C 81 % 13.23 C
2548 27-08-2009 05:52:06 16.4 C 81 % 13.13 C
2549 27-08-2009 06:04:06 16.3 C 81 % 13.04 C
2550 27-08-2009 06:16:06 16.2 C 81 % 12.94 C
Sensor: Nr:Datum:Temp:Feuchte:Taupunkt:
Aussen-T/F 2551 27-08-2009 06:28:06 16.1 C 81 % 12.84 C
2552 27-08-2009 06:40:06 16.1 C 81 % 12.84 C
2553 27-08-2009 06:52:02 16 C 81 % 12.74 C
2554 27-08-2009 07:04:02 16 C 82 % 12.93 C
2555 27-08-2009 07:16:02 16 C 82 % 12.93 C
2556 27-08-2009 07:28:02 16 C 82 % 12.93 C
2557 27-08-2009 07:40:01 16.2 C 82 % 13.13 C
2558 27-08-2009 07:52:02 16.3 C 82 % 13.22 C
2559 27-08-2009 08:04:01 16.4 C 83 % 13.51 C
2560 27-08-2009 08:16:02 16.5 C 83 % 13.6 C
2561 27-08-2009 08:28:02 16.6 C 83 % 13.7 C
2562 27-08-2009 08:40:01 16.8 C 83 % 13.9 C
2563 27-08-2009 08:52:02 17.1 C 82 % 14 C
2564 27-08-2009 09:04:02 17.4 C 81 % 14.11 C
2565 27-08-2009 09:16:02 17.7 C 80 % 14.21 C
2566 27-08-2009 09:28:03 18.1 C 78 % 14.21 C
2567 27-08-2009 09:40:01 18.8 C 77 % 14.68 C
2568 27-08-2009 09:52:02 19.4 C 73 % 14.44 C
2569 27-08-2009 10:04:01 20 C 69 % 14.14 C
2570 27-08-2009 10:16:01 20.5 C 68 % 14.39 C
2571 27-08-2009 10:28:01 21 C 65 % 14.17 C
2572 27-08-2009 10:40:02 22 C 56 % 12.82 C
2573 27-08-2009 10:52:02 23 C 50 % 12.02 C
2574 27-08-2009 11:04:01 23.7 C 45 % 11.07 C
2575 27-08-2009 11:16:02 24.3 C 42 % 10.57 C
Sensor: Nr:Datum:Temp:Feuchte:Taupunkt:
Aussen-T/F 2576 27-08-2009 11:28:02 24.8 C 40 % 10.29 C
2577 27-08-2009 11:40:02 25.2 C 38 % 9.88 C
2578 27-08-2009 11:52:02 25.5 C 36 % 9.34 C
2579 27-08-2009 12:04:03 25.8 C 35 % 9.19 C
2580 27-08-2009 12:16:02 25.7 C 35 % 9.1 C
2581 27-08-2009 12:28:02 26.4 C 33 % 8.84 C
2582 27-08-2009 12:40:02 26.5 C 31 % 8.01 C
2583 27-08-2009 12:52:01 26.9 C 30 % 7.87 C
2584 27-08-2009 13:04:02 27.1 C 30 % 8.04 C
2585 27-08-2009 13:16:01 27.7 C 28 % 7.55 C
2586 27-08-2009 13:28:01 28.1 C 27 % 7.35 C
2587 27-08-2009 13:40:02 28.2 C 26 % 6.89 C
2588 27-08-2009 13:52:02 28.6 C 26 % 7.23 C
2589 27-08-2009 14:04:02 29 C 26 % 7.57 C
2590 27-08-2009 14:16:01 29.5 C 25 % 7.41 C
2591 27-08-2009 14:28:01 30 C 24 % 7.24 C
2592 27-08-2009 14:40:02 30.1 C 23 % 6.7 C
2593 27-08-2009 14:52:01 30.3 C 22 % 6.22 C
2594 27-08-2009 15:04:02 30.4 C 21 % 5.63 C
2595 27-08-2009 15:16:01 30.3 C 20 % 4.85 C
2596 27-08-2009 15:28:01 30.5 C 21 % 5.72 C
2597 27-08-2009 15:40:02 30.3 C 21 % 5.55 C
2598 27-08-2009 15:52:01 30.6 C 21 % 5.8 C
2599 27-08-2009 16:04:02 30.5 C 22 % 6.39 C
2600 27-08-2009 16:16:01 30 C 22 % 5.97 C
Sensor: Nr:Datum:Temp:Feuchte:Taupunkt:
Aussen-T/F 2601 27-08-2009 16:28:01 30.3 C 23 % 6.87 C
2602 27-08-2009 16:40:01 30.6 C 21 % 5.8 C
2603 27-08-2009 16:52:01 30.5 C 23 % 7.03 C
2604 27-08-2009 17:04:02 30.1 C 24 % 7.32 C
2605 27-08-2009 17:16:02 30 C 25 % 7.83 C
2606 27-08-2009 17:28:02 29.7 C 25 % 7.58 C
2607 27-08-2009 17:40:01 29.5 C 26 % 7.99 C
2608 27-08-2009 17:52:01 29.2 C 25 % 7.16 C
2609 27-08-2009 18:04:01 29.2 C 25 % 7.16 C
2610 27-08-2009 18:16:02 30.6 C 22 % 6.47 C
2611 27-08-2009 18:28:02 31 C 21 % 6.13 C
2612 27-08-2009 18:40:01 30.7 C 22 % 6.55 C
2613 27-08-2009 18:52:03 29.8 C 24 % 7.07 C
2614 27-08-2009 19:04:02 29.4 C 25 % 7.33 C
2615 27-08-2009 19:16:02 30.5 C 25 % 8.25 C
2616 27-08-2009 19:28:02 30.7 C 23 % 7.2 C
2617 27-08-2009 19:40:02 30.3 C 25 % 8.09 C
2618 27-08-2009 19:52:03 29.2 C 26 % 7.73 C
2619 27-08-2009 20:04:02 28.4 C 28 % 8.14 C
2620 27-08-2009 20:16:02 27.2 C 30 % 8.13 C
2621 27-08-2009 20:28:02 26.5 C 32 % 8.47 C
2622 27-08-2009 20:40:02 25.9 C 34 % 8.85 C
2623 27-08-2009 20:52:02 25.3 C 35 % 8.75 C
2624 27-08-2009 21:04:02 24.7 C 37 % 9.04 C
2625 27-08-2009 21:16:01 24.7 C 38 % 9.44 C
Sensor: Nr:Datum:Temp:Feuchte:Taupunkt:
Aussen-T/F 2626 27-08-2009 21:28:01 24.2 C 40 % 9.75 C
2627 27-08-2009 21:40:02 24 C 42 % 10.3 C
2628 27-08-2009 21:52:02 23.7 C 42 % 10.03 C
2629 27-08-2009 22:04:02 23.6 C 43 % 10.3 C
2630 27-08-2009 22:16:02 23.4 C 44 % 10.46 C
2631 27-08-2009 22:28:02 22.9 C 47 % 11 C
2632 27-08-2009 22:41:03 22.6 C 48 % 11.04 C
2633 27-08-2009 22:53:03 22.5 C 49 % 11.26 C
2634 27-08-2009 23:05:03 22.3 C 50 % 11.38 C
2635 27-08-2009 23:17:03 22.3 C 50 % 11.38 C
2636 27-08-2009 23:29:03 22.1 C 50 % 11.2 C
2637 27-08-2009 23:41:03 22.1 C 51 % 11.5 C
2638 27-08-2009 23:53:03 22.2 C 50 % 11.29 C
2639 28-08-2009 00:05:03 22.1 C 51 % 11.5 C
2640 28-08-2009 00:17:03 22 C 51 % 11.4 C
2641 28-08-2009 00:29:03 22 C 52 % 11.7 C
2642 28-08-2009 00:41:03 22 C 52 % 11.7 C
2643 28-08-2009 00:53:04 21.9 C 53 % 11.89 C
2644 28-08-2009 01:05:04 21.8 C 54 % 12.08 C
2645 28-08-2009 01:17:04 21.6 C 54 % 11.9 C
2646 28-08-2009 01:29:04 21.3 C 55 % 11.9 C
2647 28-08-2009 01:41:04 21.3 C 56 % 12.17 C
2648 28-08-2009 01:53:04 21.2 C 56 % 12.08 C
2649 28-08-2009 02:05:04 21 C 56 % 11.89 C
2650 28-08-2009 02:17:04 21 C 57 % 12.16 C
Sensor: Nr:Datum:Temp:Feuchte:Taupunkt:
Aussen-T/F 2651 28-08-2009 02:29:04 20.9 C 58 % 12.33 C
2652 28-08-2009 02:41:04 20.9 C 58 % 12.33 C
2653 28-08-2009 02:53:04 20.8 C 58 % 12.24 C
2654 28-08-2009 03:05:04 20.8 C 58 % 12.24 C
2655 28-08-2009 03:17:04 20.8 C 59 % 12.5 C
2656 28-08-2009 03:29:04 20.6 C 59 % 12.31 C
2657 28-08-2009 03:41:04 20.4 C 60 % 12.38 C
2658 28-08-2009 03:53:04 20.4 C 60 % 12.38 C
2659 28-08-2009 04:05:04 20.4 C 60 % 12.38 C
2660 28-08-2009 04:17:04 20.3 C 60 % 12.29 C
2661 28-08-2009 04:29:04 20.1 C 60 % 12.1 C
2662 28-08-2009 04:41:04 20 C 61 % 12.26 C
2663 28-08-2009 04:53:05 20 C 61 % 12.26 C
2664 28-08-2009 05:05:05 19.8 C 62 % 12.31 C
2665 28-08-2009 05:17:05 19.7 C 63 % 12.46 C
2666 28-08-2009 05:29:05 19.7 C 63 % 12.46 C
2667 28-08-2009 05:41:05 19.6 C 64 % 12.61 C
2668 28-08-2009 05:53:05 19.5 C 64 % 12.51 C
2669 28-08-2009 06:05:05 19.6 C 63 % 12.37 C
2670 28-08-2009 06:17:05 19.7 C 62 % 12.22 C
2671 28-08-2009 06:29:05 19.6 C 62 % 12.13 C
2672 28-08-2009 06:41:05 19.5 C 63 % 12.27 C
2673 28-08-2009 06:53:05 19.3 C 64 % 12.32 C
2674 28-08-2009 07:05:03 19.2 C 65 % 12.47 C
2675 28-08-2009 07:17:03 19.2 C 66 % 12.7 C
Sensor: Nr:Datum:Temp:Feuchte:Taupunkt:
Aussen-T/F 2676 28-08-2009 07:29:03 19.4 C 65 % 12.66 C
2677 28-08-2009 07:41:03 19.5 C 65 % 12.75 C
2678 28-08-2009 07:53:02 19.5 C 65 % 12.75 C
2679 28-08-2009 08:05:02 19.7 C 65 % 12.94 C
2680 28-08-2009 08:17:02 20.2 C 63 % 12.94 C
2681 28-08-2009 08:29:02 20.1 C 63 % 12.84 C
2682 28-08-2009 08:41:02 20.3 C 62 % 12.79 C
2683 28-08-2009 08:53:01 20.6 C 61 % 12.82 C
2684 28-08-2009 09:05:02 21 C 59 % 12.69 C
2685 28-08-2009 09:17:01 21.3 C 55 % 11.9 C
2686 28-08-2009 09:29:01 21.7 C 53 % 11.71 C
2687 28-08-2009 09:41:01 21.8 C 53 % 11.8 C
2688 28-08-2009 09:53:01 22.1 C 51 % 11.5 C
2689 28-08-2009 10:05:02 22.3 C 50 % 11.38 C
2690 28-08-2009 10:17:01 22 C 51 % 11.4 C
2691 28-08-2009 10:29:01 21.8 C 53 % 11.8 C
2692 28-08-2009 10:41:02 21.9 C 51 % 11.31 C
2693 28-08-2009 10:53:01 22.1 C 49 % 10.89 C
2694 28-08-2009 11:05:02 22.1 C 49 % 10.89 C
2695 28-08-2009 11:17:02 22.7 C 47 % 10.81 C
2696 28-08-2009 11:29:02 22.4 C 48 % 10.86 C
2697 28-08-2009 11:41:02 22.4 C 45 % 9.89 C
2698 28-08-2009 11:53:01 23.1 C 40 % 8.77 C
2699 28-08-2009 12:05:02 23.2 C 39 % 8.49 C
2700 28-08-2009 12:17:02 23.3 C 37 % 7.8 C
Sensor: Nr:Datum:Temp:Feuchte:Taupunkt:
Aussen-T/F 2701 28-08-2009 12:29:02 23.9 C 36 % 7.93 C
2702 28-08-2009 12:41:02 23.8 C 35 % 7.43 C
2703 28-08-2009 12:53:01 23.4 C 36 % 7.49 C
2704 28-08-2009 13:05:02 22.9 C 37 % 7.45 C
2705 28-08-2009 13:17:02 22.3 C 40 % 8.06 C
2706 28-08-2009 13:29:02 21.8 C 42 % 8.33 C
2707 28-08-2009 13:41:01 22 C 41 % 8.15 C
2708 28-08-2009 13:53:02 22.8 C 41 % 8.87 C
2709 28-08-2009 14:05:01 24 C 37 % 8.42 C
2710 28-08-2009 14:17:02 24.2 C 37 % 8.6 C
2711 28-08-2009 14:29:02 24.2 C 35 % 7.78 C
2712 28-08-2009 14:41:01 24.5 C 35 % 8.05 C
2713 28-08-2009 14:53:02 24.6 C 35 % 8.13 C
2714 28-08-2009 15:05:01 24.3 C 35 % 7.87 C
2715 28-08-2009 15:17:01 24.9 C 32 % 7.08 C
2716 28-08-2009 15:29:01 25.3 C 30 % 6.49 C
2717 28-08-2009 15:41:01 25.5 C 28 % 5.67 C
2718 28-08-2009 15:53:02 25.7 C 27 % 5.31 C
2719 28-08-2009 16:05:02 25.3 C 28 % 5.49 C
2720 28-08-2009 16:17:02 25.4 C 26 % 4.52 C
2721 28-08-2009 16:29:02 25.7 C 25 % 4.21 C
2722 28-08-2009 16:41:02 25.7 C 25 % 4.21 C
2723 28-08-2009 16:53:02 24.7 C 27 % 4.46 C
2724 28-08-2009 17:05:02 24.9 C 26 % 4.09 C
2725 28-08-2009 17:17:01 24.8 C 25 % 3.45 C
Sensor: Nr:Datum:Temp:Feuchte:Taupunkt:
Aussen-T/F 2726 28-08-2009 17:29:01 24.7 C 25 % 3.37 C
2727 28-08-2009 17:41:02 24.8 C 23 % 2.28 C
2728 28-08-2009 17:53:02 23.7 C 25 % 2.53 C
2729 28-08-2009 18:05:02 25.1 C 22 % 1.91 C
2730 28-08-2009 18:17:02 24.8 C 20 % 0.34 C
2731 28-08-2009 18:29:02 25.1 C 20 % 0.59 C
2732 28-08-2009 18:41:02 24.5 C 20 % 0.09 C
2733 28-08-2009 18:53:01 24 C 20 % -0.32 C
2734 28-08-2009 19:05:02 23.7 C 23 % 1.36 C
2735 28-08-2009 19:17:01 23.4 C 24 % 1.7 C
2736 28-08-2009 19:29:01 22.9 C 25 % 1.85 C
2737 28-08-2009 19:41:01 22.5 C 25 % 1.51 C
2738 28-08-2009 19:53:01 22.4 C 26 % 1.97 C
2739 28-08-2009 20:05:02 21.4 C 26 % 1.12 C
2740 28-08-2009 20:17:01 20.8 C 29 % 2.13 C
2741 28-08-2009 20:29:01 20.5 C 30 % 2.35 C
2742 28-08-2009 20:41:02 20.2 C 31 % 2.55 C
2743 28-08-2009 20:53:01 19.9 C 32 % 2.73 C
2744 28-08-2009 21:05:02 19.7 C 32 % 2.56 C
2745 28-08-2009 21:17:01 19.5 C 33 % 2.82 C
2746 28-08-2009 21:29:01 19.4 C 32 % 2.3 C
2747 28-08-2009 21:41:02 19.1 C 34 % 2.89 C
2748 28-08-2009 21:53:01 18.9 C 35 % 3.12 C
2749 28-08-2009 22:06:02 18.6 C 36 % 3.25 C
2750 28-08-2009 22:18:02 18.4 C 38 % 3.84 C
Sensor: Nr:Datum:Temp:Feuchte:Taupunkt:
Aussen-T/F 2751 28-08-2009 22:30:03 18.1 C 38 % 3.57 C
2752 28-08-2009 22:42:03 17.9 C 40 % 4.12 C
2753 28-08-2009 22:54:03 17.7 C 40 % 3.95 C
2754 28-08-2009 23:06:03 17.8 C 40 % 4.03 C
2755 28-08-2009 23:18:03 17.7 C 39 % 3.59 C
2756 28-08-2009 23:30:03 17.6 C 39 % 3.5 C
2757 28-08-2009 23:42:03 17.4 C 40 % 3.68 C
2758 28-08-2009 23:54:03 17.4 C 40 % 3.68 C
2759 29-08-2009 00:06:03 17.3 C 40 % 3.59 C
2760 29-08-2009 00:18:03 16.9 C 42 % 3.92 C
2761 29-08-2009 00:30:03 16.6 C 42 % 3.65 C
2762 29-08-2009 00:42:03 16.5 C 43 % 3.89 C
2763 29-08-2009 00:54:03 16.7 C 41 % 3.4 C
2764 29-08-2009 01:06:03 16.9 C 41 % 3.58 C
2765 29-08-2009 01:18:03 16.6 C 41 % 3.31 C
2766 29-08-2009 01:30:03 16.2 C 42 % 3.29 C
2767 29-08-2009 01:42:03 16 C 42 % 3.11 C
2768 29-08-2009 01:54:03 15.9 C 43 % 3.35 C
2769 29-08-2009 02:06:03 15.9 C 43 % 3.35 C
2770 29-08-2009 02:18:03 15.7 C 43 % 3.17 C
2771 29-08-2009 02:30:04 15.5 C 45 % 3.63 C
2772 29-08-2009 02:42:04 15.1 C 46 % 3.58 C
2773 29-08-2009 02:54:04 15 C 46 % 3.49 C
2774 29-08-2009 03:06:04 15 C 46 % 3.49 C
2775 29-08-2009 03:18:04 14.8 C 47 % 3.61 C
Sensor: Nr:Datum:Temp:Feuchte:Taupunkt:
Aussen-T/F 2776 29-08-2009 03:30:04 14.7 C 47 % 3.52 C
2777 29-08-2009 03:42:04 14.8 C 47 % 3.61 C
2778 29-08-2009 03:54:04 14.7 C 48 % 3.82 C
2779 29-08-2009 04:06:04 14.5 C 49 % 3.93 C
2780 29-08-2009 04:18:04 14.4 C 50 % 4.12 C
2781 29-08-2009 04:30:04 14.2 C 51 % 4.22 C
2782 29-08-2009 04:42:04 14 C 53 % 4.58 C
2783 29-08-2009 04:54:04 13.8 C 55 % 4.93 C
2784 29-08-2009 05:06:04 13.8 C 56 % 5.19 C
2785 29-08-2009 05:18:04 13.6 C 57 % 5.25 C
2786 29-08-2009 05:30:04 13.6 C 57 % 5.25 C
2787 29-08-2009 05:42:04 13.5 C 58 % 5.41 C
2788 29-08-2009 05:54:04 13.5 C 58 % 5.41 C
2789 29-08-2009 06:06:04 13.3 C 59 % 5.47 C
2790 29-08-2009 06:18:04 13.2 C 60 % 5.61 C
2791 29-08-2009 06:30:05 13 C 61 % 5.66 C
2792 29-08-2009 06:42:05 12.8 C 63 % 5.94 C
2793 29-08-2009 06:54:05 12.6 C 65 % 6.2 C
2794 29-08-2009 07:06:05 12.7 C 65 % 6.3 C
2795 29-08-2009 07:18:02 12.7 C 65 % 6.3 C
2796 29-08-2009 07:30:02 12.7 C 66 % 6.52 C
2797 29-08-2009 07:42:02 12.7 C 66 % 6.52 C
2798 29-08-2009 07:54:01 12.8 C 66 % 6.61 C
2799 29-08-2009 08:06:02 12.9 C 66 % 6.71 C
2800 29-08-2009 08:18:01 13.1 C 65 % 6.68 C
Sensor: Nr:Datum:Temp:Feuchte:Taupunkt:
Aussen-T/F 2801 29-08-2009 08:30:01 13.3 C 65 % 6.87 C
2802 29-08-2009 08:42:01 13.7 C 64 % 7.02 C
2803 29-08-2009 08:54:02 14 C 62 % 6.84 C
2804 29-08-2009 09:06:02 14.5 C 60 % 6.84 C
2805 29-08-2009 09:18:01 14.8 C 57 % 6.37 C
2806 29-08-2009 09:30:01 15 C 55 % 6.04 C
2807 29-08-2009 09:42:02 15 C 56 % 6.3 C
2808 29-08-2009 09:54:02 15.6 C 53 % 6.06 C
2809 29-08-2009 10:06:02 16.1 C 50 % 5.69 C
2810 29-08-2009 10:18:01 16.6 C 48 % 5.56 C
2811 29-08-2009 10:30:01 16.8 C 47 % 5.44 C
2812 29-08-2009 10:42:02 17 C 47 % 5.62 C
2813 29-08-2009 10:54:01 17.8 C 45 % 5.72 C
2814 29-08-2009 11:06:02 17.9 C 41 % 4.48 C
2815 29-08-2009 11:18:02 17.8 C 40 % 4.03 C
2816 29-08-2009 11:30:02 18.1 C 38 % 3.57 C
2817 29-08-2009 11:42:02 18.4 C 37 % 3.46 C
2818 29-08-2009 11:54:01 18.4 C 35 % 2.68 C
2819 29-08-2009 12:06:02 18.1 C 37 % 3.2 C
2820 29-08-2009 12:18:02 18.4 C 38 % 3.84 C
2821 29-08-2009 12:30:02 19.2 C 35 % 3.38 C
2822 29-08-2009 12:42:02 19.1 C 34 % 2.89 C
2823 29-08-2009 12:54:02 19.3 C 31 % 1.77 C
2824 29-08-2009 13:06:01 19.4 C 32 % 2.3 C
2825 29-08-2009 13:18:02 19.4 C 33 % 2.73 C
Sensor: Nr:Datum:Temp:Feuchte:Taupunkt:
Aussen-T/F 2826 29-08-2009 13:30:02 20.5 C 29 % 1.87 C
2827 29-08-2009 13:42:01 20.2 C 29 % 1.62 C
2828 29-08-2009 13:54:02 19.6 C 30 % 1.57 C
2829 29-08-2009 14:06:01 19.3 C 32 % 2.21 C
2830 29-08-2009 14:18:02 20.6 C 29 % 1.96 C
2831 29-08-2009 14:30:02 20 C 26 % -0.06 C
2832 29-08-2009 14:42:01 20.4 C 28 % 1.3 C
2833 29-08-2009 14:54:02 20.4 C 27 % 0.8 C
2834 29-08-2009 15:06:02 20.8 C 27 % 1.14 C
2835 29-08-2009 15:18:02 21.6 C 25 % 0.75 C
2836 29-08-2009 15:30:02 22.6 C 21 % -0.81 C
2837 29-08-2009 15:42:02 22.6 C 21 % -0.81 C
2838 29-08-2009 15:54:02 21.3 C 22 % -1.25 C
2839 29-08-2009 16:06:02 21.1 C 27 % 1.39 C
2840 29-08-2009 16:18:01 20.9 C 30 % 2.69 C
2841 29-08-2009 16:30:01 21 C 28 % 1.81 C
2842 29-08-2009 16:42:02 21.5 C 28 % 2.24 C
2843 29-08-2009 16:54:02 20.5 C 30 % 2.35 C
2844 29-08-2009 17:06:02 20.4 C 30 % 2.26 C
2845 29-08-2009 17:18:02 20.7 C 30 % 2.52 C
2846 29-08-2009 17:30:02 21.5 C 27 % 1.73 C
2847 29-08-2009 17:42:02 20.6 C 29 % 1.96 C
2848 29-08-2009 17:54:01 20.7 C 28 % 1.56 C
2849 29-08-2009 18:06:02 20.7 C 29 % 2.05 C
2850 29-08-2009 18:18:01 20.3 C 29 % 1.7 C
Sensor: Nr:Datum:Temp:Feuchte:Taupunkt:
Aussen-T/F 2851 29-08-2009 18:30:01 19.4 C 36 % 3.96 C
2852 29-08-2009 18:42:01 15.8 C 67 % 9.69 C
2853 29-08-2009 18:54:01 15.4 C 74 % 10.79 C
2854 29-08-2009 19:06:02 16.6 C 72 % 11.54 C
2855 29-08-2009 19:18:01 17.2 C 64 % 10.34 C
2856 29-08-2009 19:30:01 17 C 63 % 9.91 C
2857 29-08-2009 19:42:02 16.3 C 63 % 9.25 C
2858 29-08-2009 19:54:02 15.6 C 64 % 8.82 C
2859 29-08-2009 20:06:02 14.8 C 65 % 8.29 C
2860 29-08-2009 20:18:01 14.2 C 65 % 7.72 C
2861 29-08-2009 20:30:01 13.9 C 65 % 7.44 C
2862 29-08-2009 20:42:02 13.6 C 64 % 6.93 C
2863 29-08-2009 20:54:02 13.3 C 64 % 6.64 C
2864 29-08-2009 21:06:02 13.2 C 62 % 6.09 C
2865 29-08-2009 21:18:02 13.2 C 60 % 5.61 C
2866 29-08-2009 21:30:02 13 C 60 % 5.43 C
2867 29-08-2009 21:42:02 12.9 C 64 % 6.26 C
2868 29-08-2009 21:54:02 13 C 59 % 5.19 C
2869 29-08-2009 22:06:02 13 C 61 % 5.66 C
2870 29-08-2009 22:18:02 12.8 C 62 % 5.71 C
2871 29-08-2009 22:30:02 12.7 C 60 % 5.14 C
2872 29-08-2009 22:42:02 12.5 C 61 % 5.19 C
2873 29-08-2009 22:55:02 12.3 C 60 % 4.77 C
2874 29-08-2009 23:07:02 12.3 C 61 % 5.01 C
2875 29-08-2009 23:19:02 12.1 C 60 % 4.58 C
Sensor: Nr:Datum:Temp:Feuchte:Taupunkt:
Aussen-T/F 2876 29-08-2009 23:31:02 12 C 62 % 4.96 C
2877 29-08-2009 23:43:02 11.8 C 62 % 4.77 C
2878 29-08-2009 23:55:02 11.8 C 62 % 4.77 C
2879 30-08-2009 00:07:02 11.6 C 62 % 4.58 C
2880 30-08-2009 00:19:02 11.5 C 62 % 4.48 C
2881 30-08-2009 00:31:02 11.4 C 62 % 4.39 C
2882 30-08-2009 00:43:02 11.2 C 63 % 4.43 C
2883 30-08-2009 00:55:02 11 C 63 % 4.24 C
2884 30-08-2009 01:07:02 10.8 C 64 % 4.27 C
2885 30-08-2009 01:19:02 10.6 C 65 % 4.3 C
2886 30-08-2009 01:31:02 10.4 C 66 % 4.33 C
2887 30-08-2009 01:43:02 10.5 C 67 % 4.64 C
2888 30-08-2009 01:55:02 10.4 C 67 % 4.55 C
2889 30-08-2009 02:07:02 10.3 C 67 % 4.45 C
2890 30-08-2009 02:19:02 10.4 C 67 % 4.55 C
2891 30-08-2009 02:31:03 10.2 C 67 % 4.36 C
2892 30-08-2009 02:43:03 9.9 C 69 % 4.49 C
2893 30-08-2009 02:55:03 9.7 C 70 % 4.5 C
2894 30-08-2009 03:07:03 9.5 C 72 % 4.71 C
2895 30-08-2009 03:19:03 9.4 C 73 % 4.81 C
2896 30-08-2009 03:31:03 9.3 C 73 % 4.72 C
2897 30-08-2009 03:43:03 9.1 C 74 % 4.72 C
2898 30-08-2009 03:55:03 9.1 C 75 % 4.91 C
2899 30-08-2009 04:07:03 9.1 C 76 % 5.1 C
2900 30-08-2009 04:19:03 8.9 C 77 % 5.09 C
Sensor: Nr:Datum:Temp:Feuchte:Taupunkt:
Aussen-T/F 2901 30-08-2009 04:31:03 8.9 C 77 % 5.09 C
2902 30-08-2009 04:43:03 8.7 C 77 % 4.9 C
2903 30-08-2009 04:55:03 8.8 C 79 % 5.36 C
2904 30-08-2009 05:07:03 8.8 C 81 % 5.72 C
2905 30-08-2009 05:19:03 8.7 C 82 % 5.8 C
2906 30-08-2009 05:31:03 8.7 C 81 % 5.63 C
2907 30-08-2009 05:43:03 8.7 C 81 % 5.63 C
2908 30-08-2009 05:55:03 8.6 C 81 % 5.53 C
2909 30-08-2009 06:07:03 8.6 C 81 % 5.53 C
2910 30-08-2009 06:19:03 8.6 C 82 % 5.71 C
2911 30-08-2009 06:31:03 8.7 C 81 % 5.63 C
2912 30-08-2009 06:43:04 8.6 C 80 % 5.35 C
2913 30-08-2009 06:55:01 8.5 C 80 % 5.25 C
2914 30-08-2009 07:07:02 8.6 C 81 % 5.53 C
2915 30-08-2009 07:19:01 8.8 C 81 % 5.72 C
2916 30-08-2009 07:31:01 9 C 78 % 5.38 C
2917 30-08-2009 07:43:01 9.1 C 78 % 5.47 C
2918 30-08-2009 07:55:01 9.6 C 78 % 5.96 C
2919 30-08-2009 08:07:02 9.9 C 77 % 6.06 C
2920 30-08-2009 08:19:02 10.3 C 74 % 5.88 C
2921 30-08-2009 08:31:01 10.8 C 71 % 5.76 C
2922 30-08-2009 08:43:01 11.2 C 69 % 5.73 C
2923 30-08-2009 08:55:01 11.4 C 69 % 5.92 C
2924 30-08-2009 09:07:02 11.7 C 69 % 6.21 C
2925 30-08-2009 09:19:02 12.4 C 64 % 5.79 C
Sensor: Nr:Datum:Temp:Feuchte:Taupunkt:
Aussen-T/F 2926 30-08-2009 09:31:02 12.8 C 63 % 5.94 C
2927 30-08-2009 09:43:02 13.4 C 59 % 5.56 C
2928 30-08-2009 09:55:02 13.8 C 58 % 5.69 C
2929 30-08-2009 10:07:02 14.3 C 56 % 5.65 C
2930 30-08-2009 10:19:01 14.7 C 52 % 4.96 C
2931 30-08-2009 10:31:01 15.2 C 51 % 5.14 C
2932 30-08-2009 10:43:01 15.7 C 48 % 4.73 C
2933 30-08-2009 10:55:01 16.2 C 46 % 4.58 C
2934 30-08-2009 11:07:02 16.6 C 43 % 3.98 C
2935 30-08-2009 11:19:02 17 C 42 % 4.01 C
2936 30-08-2009 11:31:01 17.7 C 41 % 4.3 C
2937 30-08-2009 11:43:01 18.1 C 41 % 4.66 C
2938 30-08-2009 11:55:01 18.4 C 40 % 4.57 C
2939 30-08-2009 12:07:02 18.9 C 38 % 4.29 C
2940 30-08-2009 12:19:02 19.2 C 36 % 3.78 C
2941 30-08-2009 12:31:01 19.3 C 36 % 3.87 C
2942 30-08-2009 12:43:01 20.1 C 34 % 3.77 C
2943 30-08-2009 12:55:02 20.7 C 33 % 3.87 C
2944 30-08-2009 13:07:01 20.8 C 31 % 3.07 C
2945 30-08-2009 13:19:02 20.8 C 31 % 3.07 C
2946 30-08-2009 13:31:01 21.4 C 30 % 3.13 C
2947 30-08-2009 13:43:01 21.4 C 29 % 2.65 C
2948 30-08-2009 13:55:02 22 C 27 % 2.16 C
2949 30-08-2009 14:07:01 22.3 C 26 % 1.89 C
2950 30-08-2009 14:19:01 22.9 C 23 % 0.69 C
Sensor: Nr:Datum:Temp:Feuchte:Taupunkt:
Aussen-T/F 2951 30-08-2009 14:31:01 22.8 C 21 % -0.64 C
2952 30-08-2009 14:43:01 23.5 C 20 % -0.73 C
2953 30-08-2009 14:55:02 23.7 C 20 % -0.57 C
2954 30-08-2009 15:07:02 23.9 C 20 % -0.4 C
2955 30-08-2009 15:19:02 24.2 C 20 % -0.15 C
2956 30-08-2009 15:31:02 24.5 C 20 % 0.09 C
2957 30-08-2009 15:43:02 24.7 C 20 % 0.26 C
2958 30-08-2009 15:55:02 25.4 C 20 % 0.83 C
2959 30-08-2009 16:07:01 25.1 C 20 % 0.59 C
2960 30-08-2009 16:19:02 26.3 C 20 % 1.57 C
2961 30-08-2009 16:31:01 26.2 C 20 % 1.49 C
2962 30-08-2009 16:43:01 26.1 C 20 % 1.41 C
2963 30-08-2009 16:55:02 25.9 C 20 % 1.24 C
2964 30-08-2009 17:07:01 26.2 C 20 % 1.49 C
2965 30-08-2009 17:19:02 27.2 C 20 % 2.31 C
2966 30-08-2009 17:31:02 27.2 C 20 % 2.31 C
2967 30-08-2009 17:43:02 28.7 C 20 % 3.54 C
2968 30-08-2009 17:55:02 27 C 20 % 2.15 C
2969 30-08-2009 18:07:01 26.5 C 20 % 1.74 C
2970 30-08-2009 18:19:01 26.9 C 20 % 2.06 C
2971 30-08-2009 18:31:02 27.3 C 20 % 2.39 C
2972 30-08-2009 18:43:02 26.8 C 20 % 1.98 C
2973 30-08-2009 18:55:02 27.3 C 20 % 2.39 C
2974 30-08-2009 19:07:02 26.7 C 20 % 1.9 C
2975 30-08-2009 19:19:02 26.4 C 20 % 1.65 C
Sensor: Nr:Datum:Temp:Feuchte:Taupunkt:
Aussen-T/F 2976 30-08-2009 19:31:02 26.6 C 20 % 1.82 C
2977 30-08-2009 19:43:02 24.7 C 22 % 1.58 C
2978 30-08-2009 19:55:01 23.9 C 26 % 3.25 C
2979 30-08-2009 20:07:02 22.9 C 29 % 3.94 C
2980 30-08-2009 20:19:01 21.7 C 32 % 4.3 C
2981 30-08-2009 20:31:01 21 C 33 % 4.13 C
2982 30-08-2009 20:43:01 20.3 C 36 % 4.76 C
2983 30-08-2009 20:55:01 19.9 C 37 % 4.79 C
2984 30-08-2009 21:08:03 19.5 C 39 % 5.19 C
2985 30-08-2009 21:20:03 18.9 C 40 % 5.02 C
2986 30-08-2009 21:32:03 18.4 C 42 % 5.27 C
2987 30-08-2009 21:44:03 18.1 C 42 % 5 C
2988 30-08-2009 21:56:03 17.9 C 44 % 5.49 C
2989 30-08-2009 22:08:03 17.5 C 46 % 5.76 C
2990 30-08-2009 22:20:03 17.4 C 46 % 5.67 C
2991 30-08-2009 22:32:03 17 C 47 % 5.62 C
2992 30-08-2009 22:44:03 16.8 C 48 % 5.74 C
2993 30-08-2009 22:56:03 16.7 C 48 % 5.65 C
2994 30-08-2009 23:08:03 16.4 C 48 % 5.37 C
2995 30-08-2009 23:20:03 16 C 49 % 5.3 C
2996 30-08-2009 23:32:03 15.8 C 51 % 5.69 C
2997 30-08-2009 23:44:03 15.6 C 52 % 5.79 C
2998 30-08-2009 23:56:03 15.4 C 53 % 5.88 C
2999 31-08-2009 00:08:03 15.1 C 54 % 5.87 C
3000 31-08-2009 00:20:03 14.8 C 56 % 6.12 C
Sensor: Nr:Datum:Temp:Feuchte:Taupunkt:
Aussen-T/F 3001 31-08-2009 00:32:03 14.7 C 56 % 6.02 C
3002 31-08-2009 00:44:03 14.5 C 57 % 6.09 C
3003 31-08-2009 00:56:04 14.3 C 57 % 5.91 C
3004 31-08-2009 01:08:04 14.1 C 60 % 6.46 C
3005 31-08-2009 01:20:04 13.9 C 60 % 6.27 C
3006 31-08-2009 01:32:04 13.7 C 61 % 6.32 C
3007 31-08-2009 01:44:04 13.6 C 61 % 6.23 C
3008 31-08-2009 01:56:04 13.4 C 62 % 6.28 C
3009 31-08-2009 02:08:04 13.2 C 62 % 6.09 C
3010 31-08-2009 02:20:04 13 C 63 % 6.13 C
3011 31-08-2009 02:32:04 12.9 C 64 % 6.26 C
3012 31-08-2009 02:44:04 12.6 C 65 % 6.2 C
3013 31-08-2009 02:56:04 12.4 C 66 % 6.23 C
3014 31-08-2009 03:08:04 12.3 C 66 % 6.14 C
3015 31-08-2009 03:20:04 12.2 C 66 % 6.04 C
3016 31-08-2009 03:32:04 12.2 C 66 % 6.04 C
3017 31-08-2009 03:44:04 12.3 C 67 % 6.36 C
3018 31-08-2009 03:56:04 12 C 68 % 6.29 C
3019 31-08-2009 04:08:04 11.7 C 69 % 6.21 C
3020 31-08-2009 04:20:04 11.6 C 69 % 6.11 C
3021 31-08-2009 04:32:04 11.5 C 69 % 6.02 C
3022 31-08-2009 04:44:05 11.4 C 69 % 5.92 C
3023 31-08-2009 04:56:05 11.2 C 69 % 5.73 C
3024 31-08-2009 05:08:05 11.1 C 70 % 5.84 C
3025 31-08-2009 05:20:05 10.9 C 72 % 6.06 C
Sensor: Nr:Datum:Temp:Feuchte:Taupunkt:
Aussen-T/F 3026 31-08-2009 05:32:05 10.8 C 72 % 5.96 C
3027 31-08-2009 05:44:05 10.6 C 72 % 5.77 C
3028 31-08-2009 05:56:05 10.6 C 72 % 5.77 C
3029 31-08-2009 06:08:05 10.5 C 73 % 5.87 C
3030 31-08-2009 06:20:05 10.3 C 74 % 5.88 C
3031 31-08-2009 06:32:05 10.1 C 74 % 5.68 C
3032 31-08-2009 06:44:05 10.1 C 74 % 5.68 C
3033 31-08-2009 06:56:05 10.1 C 74 % 5.68 C
3034 31-08-2009 07:08:05 10.2 C 74 % 5.78 C
3035 31-08-2009 07:20:05 10.2 C 74 % 5.78 C
3036 31-08-2009 07:32:05 10.2 C 74 % 5.78 C
3037 31-08-2009 07:44:05 10.3 C 74 % 5.88 C
3038 31-08-2009 07:56:05 10.4 C 74 % 5.97 C
3039 31-08-2009 08:08:05 10.4 C 74 % 5.97 C
3040 31-08-2009 08:20:05 10.5 C 74 % 6.07 C
3041 31-08-2009 08:32:05 10.8 C 74 % 6.36 C
3042 31-08-2009 08:44:06 11 C 72 % 6.15 C
3043 31-08-2009 08:56:06 11.2 C 71 % 6.14 C
3044 31-08-2009 09:08:06 11.5 C 71 % 6.43 C
3045 31-08-2009 09:20:03 11.9 C 71 % 6.82 C
3046 31-08-2009 09:32:03 12.5 C 69 % 6.97 C
3047 31-08-2009 09:44:03 13.2 C 65 % 6.77 C
3048 31-08-2009 09:56:02 13.9 C 62 % 6.75 C
3049 31-08-2009 10:08:02 14.7 C 59 % 6.78 C
3050 31-08-2009 10:20:02 15.6 C 56 % 6.86 C
Sensor: Nr:Datum:Temp:Feuchte:Taupunkt:
Aussen-T/F 3051 31-08-2009 10:32:01 16.4 C 54 % 7.08 C
3052 31-08-2009 10:44:01 17.1 C 51 % 6.89 C
3053 31-08-2009 10:56:02 17.8 C 50 % 7.25 C
3054 31-08-2009 11:08:01 18.5 C 48 % 7.29 C
3055 31-08-2009 11:20:02 19.1 C 46 % 7.22 C
3056 31-08-2009 11:32:01 19.7 C 45 % 7.44 C
3057 31-08-2009 11:44:01 20.2 C 45 % 7.9 C
3058 31-08-2009 11:56:02 21.1 C 40 % 6.99 C
3059 31-08-2009 12:08:01 21.9 C 39 % 7.33 C
3060 31-08-2009 12:20:01 22.5 C 37 % 7.1 C
3061 31-08-2009 12:32:01 22.9 C 31 % 4.89 C
3062 31-08-2009 12:44:01 23.4 C 31 % 5.32 C
3063 31-08-2009 12:56:02 23.7 C 26 % 3.08 C
3064 31-08-2009 13:08:02 24.5 C 26 % 3.76 C
3065 31-08-2009 13:20:02 24.9 C 27 % 4.63 C
3066 31-08-2009 13:32:02 25.6 C 24 % 3.55 C
3067 31-08-2009 13:44:02 25.9 C 23 % 3.2 C
3068 31-08-2009 13:56:02 26.6 C 22 % 3.15 C
3069 31-08-2009 14:08:01 26.9 C 21 % 2.75 C
3070 31-08-2009 14:20:01 27.3 C 20 % 2.39 C
3071 31-08-2009 14:32:02 28 C 20 % 2.97 C
3072 31-08-2009 14:44:02 28.2 C 20 % 3.13 C
3073 31-08-2009 14:56:02 28.7 C 20 % 3.54 C
3074 31-08-2009 15:08:02 28.4 C 20 % 3.29 C
3075 31-08-2009 15:20:02 28.5 C 20 % 3.38 C
Sensor: Nr:Datum:Temp:Feuchte:Taupunkt:
Aussen-T/F 3076 31-08-2009 15:32:02 29.2 C 20 % 3.95 C
3077 31-08-2009 15:44:02 29.5 C 20 % 4.2 C
3078 31-08-2009 15:56:01 30 C 20 % 4.61 C
3079 31-08-2009 16:08:02 30.6 C 20 % 5.1 C
3080 31-08-2009 16:20:01 31 C 20 % 5.42 C
3081 31-08-2009 16:32:01 31.6 C 20 % 5.91 C
3082 31-08-2009 16:44:02 31.5 C 20 % 5.83 C
3083 31-08-2009 16:56:01 31.9 C 20 % 6.16 C
3084 31-08-2009 17:08:02 31.7 C 20 % 6 C
3085 31-08-2009 17:20:01 31.9 C 20 % 6.16 C
3086 31-08-2009 17:32:02 31.9 C 20 % 6.16 C
3087 31-08-2009 17:44:02 31.7 C 20 % 6 C
3088 31-08-2009 17:56:02 31.7 C 20 % 6 C
3089 31-08-2009 18:08:02 31.8 C 20 % 6.08 C
3090 31-08-2009 18:20:01 31.7 C 20 % 6 C
3091 31-08-2009 18:32:02 31.4 C 20 % 5.75 C
3092 31-08-2009 18:44:02 31.5 C 20 % 5.83 C
3093 31-08-2009 18:56:01 31 C 20 % 5.42 C
3094 31-08-2009 19:08:02 30.9 C 20 % 5.34 C
3095 31-08-2009 19:20:02 30.7 C 20 % 5.18 C
3096 31-08-2009 19:32:02 30.3 C 20 % 4.85 C
3097 31-08-2009 19:44:02 29.1 C 20 % 3.87 C
3098 31-08-2009 19:56:01 27.2 C 21 % 3 C
3099 31-08-2009 20:08:02 25.6 C 24 % 3.55 C
3100 31-08-2009 20:20:02 24.5 C 25 % 3.2 C
Sensor: Nr:Datum:Temp:Feuchte:Taupunkt:
Aussen-T/F 3101 31-08-2009 20:32:02 23.7 C 26 % 3.08 C
3102 31-08-2009 20:44:02 22.9 C 27 % 2.93 C
3103 31-08-2009 20:56:02 22.6 C 28 % 3.19 C
3104 31-08-2009 21:08:02 22.3 C 28 % 2.93 C
3105 31-08-2009 21:20:02 21.8 C 30 % 3.47 C
3106 31-08-2009 21:32:01 21.5 C 30 % 3.21 C
3107 31-08-2009 21:44:01 21.2 C 30 % 2.95 C
3108 31-08-2009 21:57:02 20.8 C 32 % 3.52 C
3109 31-08-2009 22:09:02 20.5 C 32 % 3.26 C
3110 31-08-2009 22:21:03 20.2 C 33 % 3.43 C
3111 31-08-2009 22:33:03 19.9 C 35 % 4 C
3112 31-08-2009 22:45:03 19.7 C 35 % 3.82 C
3113 31-08-2009 22:57:03 19.5 C 36 % 4.05 C
3114 31-08-2009 23:09:03 19.2 C 38 % 4.55 C
3115 31-08-2009 23:21:03 18.9 C 40 % 5.02 C
3116 31-08-2009 23:33:03 18.6 C 42 % 5.45 C
3117 31-08-2009 23:45:03 18.3 C 42 % 5.18 C
3118 31-08-2009 23:57:03 18.1 C 42 % 5 C
3119 01-09-2009 00:09:03 17.9 C 43 % 5.16 C
3120 01-09-2009 00:21:03 17.7 C 45 % 5.63 C
3121 01-09-2009 00:33:03 17.3 C 46 % 5.58 C
3122 01-09-2009 00:45:03 17.2 C 46 % 5.49 C
3123 01-09-2009 00:57:03 16.9 C 48 % 5.83 C
3124 01-09-2009 01:09:03 16.8 C 48 % 5.74 C
3125 01-09-2009 01:21:03 16.6 C 49 % 5.85 C
Sensor: Nr:Datum:Temp:Feuchte:Taupunkt:
Aussen-T/F 3126 01-09-2009 01:33:03 16.4 C 49 % 5.67 C
3127 01-09-2009 01:45:03 16.2 C 50 % 5.78 C
3128 01-09-2009 01:57:03 16.1 C 52 % 6.25 C
3129 01-09-2009 02:09:03 16.2 C 52 % 6.34 C
3130 01-09-2009 02:21:04 15.9 C 54 % 6.61 C
3131 01-09-2009 02:33:04 15.8 C 54 % 6.52 C
3132 01-09-2009 02:45:04 15.6 C 55 % 6.6 C
3133 01-09-2009 02:57:04 15.5 C 55 % 6.51 C
3134 01-09-2009 03:09:04 15.4 C 54 % 6.15 C
3135 01-09-2009 03:21:04 15.4 C 53 % 5.88 C
3136 01-09-2009 03:33:04 15.4 C 54 % 6.15 C
3137 01-09-2009 03:45:04 15.2 C 54 % 5.96 C
3138 01-09-2009 03:57:04 15.2 C 57 % 6.75 C
3139 01-09-2009 04:09:04 14.9 C 58 % 6.72 C
3140 01-09-2009 04:21:04 14.8 C 60 % 7.12 C
3141 01-09-2009 04:33:04 14.7 C 60 % 7.03 C
3142 01-09-2009 04:45:04 14.4 C 61 % 6.98 C
3143 01-09-2009 04:57:04 14.2 C 62 % 7.03 C
3144 01-09-2009 05:09:04 14.3 C 62 % 7.13 C
3145 01-09-2009 05:21:04 14.2 C 62 % 7.03 C
3146 01-09-2009 05:33:04 14.1 C 63 % 7.17 C
3147 01-09-2009 05:45:04 14 C 64 % 7.31 C
3148 01-09-2009 05:57:04 13.9 C 65 % 7.44 C
3149 01-09-2009 06:09:04 13.8 C 65 % 7.34 C
3150 01-09-2009 06:21:04 13.7 C 66 % 7.47 C
Sensor: Nr:Datum:Temp:Feuchte:Taupunkt:
Aussen-T/F 3151 01-09-2009 06:33:05 13.6 C 68 % 7.81 C
3152 01-09-2009 06:45:05 13.5 C 69 % 7.93 C
3153 01-09-2009 06:57:05 13.5 C 69 % 7.93 C
3154 01-09-2009 07:09:01 13.6 C 70 % 8.24 C
3155 01-09-2009 07:21:02 13.8 C 70 % 8.43 C
3156 01-09-2009 07:33:02 13.9 C 70 % 8.53 C
3157 01-09-2009 07:45:02 14 C 69 % 8.41 C
3158 01-09-2009 07:57:03 14.1 C 69 % 8.5 C
3159 01-09-2009 08:09:02 14.2 C 68 % 8.39 C
3160 01-09-2009 08:21:02 14.4 C 69 % 8.79 C
3161 01-09-2009 08:33:02 14.4 C 68 % 8.58 C
3162 01-09-2009 08:45:02 15.1 C 68 % 9.24 C
3163 01-09-2009 08:57:02 15.5 C 67 % 9.41 C
3164 01-09-2009 09:09:02 15.9 C 66 % 9.56 C
3165 01-09-2009 09:21:02 16.4 C 65 % 9.81 C
3166 01-09-2009 09:33:01 17 C 62 % 9.67 C
3167 01-09-2009 09:45:02 17.7 C 61 % 10.09 C
3168 01-09-2009 09:57:02 18.2 C 59 % 10.06 C
3169 01-09-2009 10:09:01 18.9 C 57 % 10.2 C
3170 01-09-2009 10:21:01 19.6 C 56 % 10.59 C
3171 01-09-2009 10:33:01 20.6 C 55 % 11.25 C
3172 01-09-2009 10:45:02 23.2 C 47 % 11.27 C
3173 01-09-2009 10:57:02 24.4 C 41 % 10.3 C
3174 01-09-2009 11:09:01 25 C 39 % 10.09 C
3175 01-09-2009 11:21:02 25.4 C 38 % 10.06 C
Sensor: Nr:Datum:Temp:Feuchte:Taupunkt:
Aussen-T/F 3176 01-09-2009 11:33:02 25.7 C 37 % 9.92 C
3177 01-09-2009 11:45:01 26.4 C 36 % 10.13 C
3178 01-09-2009 11:57:01 26.6 C 35 % 9.89 C
3179 01-09-2009 12:09:02 27.5 C 32 % 9.34 C
3180 01-09-2009 12:21:01 28.3 C 30 % 9.07 C
3181 01-09-2009 12:33:02 28.8 C 30 % 9.51 C
3182 01-09-2009 12:45:02 28.7 C 30 % 9.42 C
3183 01-09-2009 12:57:02 28.9 C 29 % 9.09 C
3184 01-09-2009 13:09:02 29.1 C 28 % 8.74 C
3185 01-09-2009 13:21:01 29.2 C 28 % 8.83 C
3186 01-09-2009 13:33:02 29.1 C 30 % 9.76 C
3187 01-09-2009 13:45:02 30 C 28 % 9.51 C
3188 01-09-2009 13:57:02 29.9 C 28 % 9.42 C
3189 01-09-2009 14:09:02 29.5 C 28 % 9.08 C
3190 01-09-2009 14:21:01 29.4 C 29 % 9.52 C
3191 01-09-2009 14:33:02 30.1 C 28 % 9.59 C
3192 01-09-2009 14:45:02 29.9 C 27 % 8.88 C
3193 01-09-2009 14:57:02 30.2 C 27 % 9.14 C
3194 01-09-2009 15:09:02 29.5 C 28 % 9.08 C
3195 01-09-2009 15:21:01 28.3 C 31 % 9.56 C
3196 01-09-2009 15:33:02 27.8 C 32 % 9.6 C
3197 01-09-2009 15:45:02 27.7 C 33 % 9.97 C
3198 01-09-2009 15:57:02 27.1 C 34 % 9.89 C
3199 01-09-2009 16:09:02 25.2 C 43 % 11.74 C
3200 01-09-2009 16:21:02 24.2 C 50 % 13.12 C
Sensor: Nr:Datum:Temp:Feuchte:Taupunkt:
Aussen-T/F 3201 01-09-2009 16:33:02 23.4 C 55 % 13.85 C
3202 01-09-2009 16:45:02 23.1 C 55 % 13.57 C
3203 01-09-2009 16:57:02 22.9 C 59 % 14.47 C
3204 01-09-2009 17:09:02 21.4 C 69 % 15.48 C
3205 01-09-2009 17:21:02 20.8 C 74 % 16 C
3206 01-09-2009 17:33:01 20.5 C 79 % 16.73 C
3207 01-09-2009 17:45:02 20.3 C 80 % 16.74 C
3208 01-09-2009 17:57:02 20.3 C 81 % 16.93 C
3209 01-09-2009 18:09:01 20.1 C 81 % 16.74 C
3210 01-09-2009 18:21:02 20.1 C 82 % 16.93 C
3211 01-09-2009 18:33:01 20 C 83 % 17.02 C
3212 01-09-2009 18:45:02 19.9 C 84 % 17.12 C
3213 01-09-2009 18:57:02 20.1 C 84 % 17.31 C
3214 01-09-2009 19:09:02 20 C 84 % 17.21 C
3215 01-09-2009 19:21:02 19.8 C 85 % 17.21 C
3216 01-09-2009 19:33:03 20.1 C 85 % 17.5 C
3217 01-09-2009 19:45:02 19.9 C 86 % 17.49 C
3218 01-09-2009 19:57:02 20 C 84 % 17.21 C
3219 01-09-2009 20:09:02 19.7 C 85 % 17.11 C
3220 01-09-2009 20:21:02 19.8 C 85 % 17.21 C
3221 01-09-2009 20:33:02 20 C 83 % 17.02 C
3222 01-09-2009 20:45:02 19.8 C 84 % 17.02 C
3223 01-09-2009 20:57:02 19.8 C 83 % 16.83 C
3224 01-09-2009 21:10:02 19.8 C 83 % 16.83 C
3225 01-09-2009 21:22:02 19.7 C 82 % 16.54 C
Sensor: Nr:Datum:Temp:Feuchte:Taupunkt:
Aussen-T/F 3226 01-09-2009 21:34:02 19.7 C 82 % 16.54 C
3227 01-09-2009 21:46:02 19.7 C 80 % 16.15 C
3228 01-09-2009 21:58:02 19.5 C 79 % 15.76 C
3229 01-09-2009 22:10:02 19.6 C 80 % 16.06 C
3230 01-09-2009 22:22:02 19.5 C 80 % 15.96 C
3231 01-09-2009 22:34:02 19.7 C 79 % 15.96 C
3232 01-09-2009 22:46:02 19.7 C 78 % 15.76 C
3233 01-09-2009 22:58:02 19.4 C 79 % 15.66 C
3234 01-09-2009 23:10:02 19.3 C 80 % 15.76 C
3235 01-09-2009 23:22:03 19.4 C 78 % 15.47 C
3236 01-09-2009 23:34:03 19.1 C 77 % 14.97 C
3237 01-09-2009 23:46:03 18.7 C 79 % 14.99 C
3238 01-09-2009 23:58:03 18.5 C 80 % 14.99 C
3239 02-09-2009 00:10:03 18.8 C 81 % 15.47 C
3240 02-09-2009 00:22:03 18.6 C 80 % 15.08 C
3241 02-09-2009 00:34:03 18.4 C 81 % 15.08 C
3242 02-09-2009 00:46:03 18.2 C 81 % 14.89 C
3243 02-09-2009 00:58:03 17.8 C 83 % 14.88 C
3244 02-09-2009 01:10:03 17.6 C 84 % 14.87 C
3245 02-09-2009 01:22:03 17.3 C 83 % 14.39 C
3246 02-09-2009 01:34:03 17.2 C 82 % 14.1 C
3247 02-09-2009 01:46:03 17.2 C 80 % 13.72 C
3248 02-09-2009 01:58:03 17.2 C 80 % 13.72 C
3249 02-09-2009 02:10:03 17 C 80 % 13.53 C
3250 02-09-2009 02:22:03 17 C 78 % 13.14 C
Sensor: Nr:Datum:Temp:Feuchte:Taupunkt:
Aussen-T/F 3251 02-09-2009 02:34:03 16.8 C 78 % 12.94 C
3252 02-09-2009 02:46:03 16.8 C 78 % 12.94 C
3253 02-09-2009 02:58:03 16.7 C 78 % 12.85 C
3254 02-09-2009 03:10:04 16.4 C 80 % 12.94 C
3255 02-09-2009 03:22:04 16.2 C 81 % 12.94 C
3256 02-09-2009 03:34:04 16.4 C 81 % 13.13 C
3257 02-09-2009 03:46:04 16.6 C 81 % 13.33 C
3258 02-09-2009 03:58:04 16.4 C 80 % 12.94 C
3259 02-09-2009 04:10:04 16.2 C 80 % 12.75 C
3260 02-09-2009 04:22:04 15.9 C 82 % 12.83 C
3261 02-09-2009 04:34:04 15.9 C 82 % 12.83 C
3262 02-09-2009 04:46:04 15.8 C 82 % 12.74 C
3263 02-09-2009 04:58:04 15.6 C 83 % 12.72 C
3264 02-09-2009 05:10:04 15.5 C 83 % 12.63 C
3265 02-09-2009 05:22:04 15.4 C 84 % 12.71 C
3266 02-09-2009 05:34:04 15.2 C 84 % 12.52 C
3267 02-09-2009 05:46:04 15.2 C 85 % 12.7 C
3268 02-09-2009 05:58:04 15.3 C 85 % 12.79 C
3269 02-09-2009 06:10:04 15.3 C 85 % 12.79 C
3270 02-09-2009 06:22:04 15.2 C 84 % 12.52 C
3271 02-09-2009 06:34:03 15.1 C 84 % 12.42 C
3272 02-09-2009 06:46:02 15 C 84 % 12.32 C
3273 02-09-2009 06:58:03 15.1 C 84 % 12.42 C
3274 02-09-2009 07:10:01 15.2 C 83 % 12.33 C
3275 02-09-2009 07:22:01 15.1 C 83 % 12.24 C
Sensor: Nr:Datum:Temp:Feuchte:Taupunkt:
Aussen-T/F 3276 02-09-2009 07:34:02 15.1 C 83 % 12.24 C
3277 02-09-2009 07:46:02 15.3 C 83 % 12.43 C
3278 02-09-2009 07:58:02 15.5 C 83 % 12.63 C
3279 02-09-2009 08:10:02 15.7 C 82 % 12.64 C
3280 02-09-2009 08:22:02 15.8 C 81 % 12.55 C
3281 02-09-2009 08:34:02 16 C 79 % 12.36 C
3282 02-09-2009 08:46:01 16.5 C 77 % 12.46 C
3283 02-09-2009 08:58:01 17 C 74 % 12.34 C
3284 02-09-2009 09:10:02 17.2 C 72 % 12.11 C
3285 02-09-2009 09:22:02 17.5 C 69 % 11.75 C
3286 02-09-2009 09:34:01 17.9 C 68 % 11.91 C
3287 02-09-2009 09:46:02 18.2 C 63 % 11.05 C
3288 02-09-2009 09:58:02 18.4 C 61 % 10.75 C
3289 02-09-2009 10:10:02 18.7 C 60 % 10.78 C
3290 02-09-2009 10:22:02 18.9 C 59 % 10.72 C
3291 02-09-2009 10:34:02 19.1 C 58 % 10.65 C
3292 02-09-2009 10:46:02 19.3 C 57 % 10.58 C
3293 02-09-2009 10:58:02 19.4 C 56 % 10.4 C
3294 02-09-2009 11:10:01 19.8 C 55 % 10.51 C
3295 02-09-2009 11:22:02 19.9 C 54 % 10.32 C
3296 02-09-2009 11:34:02 20.3 C 52 % 10.13 C
3297 02-09-2009 11:46:02 20.8 C 49 % 9.7 C
3298 02-09-2009 11:58:02 20.8 C 48 % 9.4 C
3299 02-09-2009 12:10:02 21.3 C 42 % 7.88 C
3300 02-09-2009 12:22:02 21.9 C 42 % 8.42 C
Sensor: Nr:Datum:Temp:Feuchte:Taupunkt:
Aussen-T/F 3301 02-09-2009 12:34:03 22 C 41 % 8.15 C
3302 02-09-2009 12:46:02 21.9 C 43 % 8.76 C
3303 02-09-2009 12:58:02 22 C 41 % 8.15 C
3304 02-09-2009 13:10:02 22.1 C 35 % 5.94 C
3305 02-09-2009 13:22:01 22 C 33 % 5 C
3306 02-09-2009 13:34:02 23.1 C 32 % 5.52 C
3307 02-09-2009 13:46:02 23.2 C 29 % 4.2 C
3308 02-09-2009 13:58:02 23.2 C 31 % 5.15 C
3309 02-09-2009 14:10:02 23.2 C 31 % 5.15 C
3310 02-09-2009 14:22:02 23.2 C 32 % 5.61 C
3311 02-09-2009 14:34:02 22.8 C 33 % 5.7 C
3312 02-09-2009 14:46:02 22.5 C 32 % 5 C
3313 02-09-2009 14:58:02 22.3 C 33 % 5.26 C
3314 02-09-2009 15:10:02 22.4 C 33 % 5.35 C
3315 02-09-2009 15:22:02 22.9 C 34 % 6.22 C
3316 02-09-2009 15:34:02 23.3 C 34 % 6.57 C
3317 02-09-2009 15:46:02 23.3 C 33 % 6.14 C
3318 02-09-2009 15:58:02 23.5 C 32 % 5.87 C
3319 02-09-2009 16:10:02 23.5 C 30 % 4.94 C
3320 02-09-2009 16:22:02 23 C 30 % 4.51 C
3321 02-09-2009 16:34:02 22.8 C 32 % 5.26 C
3322 02-09-2009 16:46:02 22.5 C 31 % 4.54 C
3323 02-09-2009 16:58:02 22.4 C 30 % 3.99 C
3324 02-09-2009 17:10:02 22.6 C 31 % 4.63 C
3325 02-09-2009 17:22:03 22.1 C 30 % 3.73 C
Sensor: Nr:Datum:Temp:Feuchte:Taupunkt:
Aussen-T/F 3326 02-09-2009 17:34:02 22.1 C 31 % 4.2 C
3327 02-09-2009 17:46:02 22.2 C 31 % 4.28 C
3328 02-09-2009 17:58:02 22 C 31 % 4.11 C
3329 02-09-2009 18:10:02 21.7 C 32 % 4.3 C
3330 02-09-2009 18:22:02 21.6 C 33 % 4.65 C
3331 02-09-2009 18:34:02 22 C 31 % 4.11 C
3332 02-09-2009 18:46:02 22.9 C 30 % 4.42 C
3333 02-09-2009 18:58:02 21.6 C 31 % 3.76 C
3334 02-09-2009 19:10:02 21.1 C 31 % 3.33 C
3335 02-09-2009 19:22:02 20.9 C 33 % 4.04 C
3336 02-09-2009 19:34:01 20.5 C 35 % 4.53 C
3337 02-09-2009 19:46:02 20 C 36 % 4.49 C
3338 02-09-2009 19:58:02 19.4 C 38 % 4.73 C
3339 02-09-2009 20:10:01 18.8 C 40 % 4.93 C
3340 02-09-2009 20:22:02 18.3 C 42 % 5.18 C
3341 02-09-2009 20:34:02 17.9 C 43 % 5.16 C
3342 02-09-2009 20:46:02 17.7 C 45 % 5.63 C
3343 02-09-2009 20:58:02 17.9 C 45 % 5.81 C
3344 02-09-2009 21:10:03 18.1 C 45 % 5.99 C
3345 02-09-2009 21:22:02 18.1 C 45 % 5.99 C
3346 02-09-2009 21:34:02 18.1 C 46 % 6.31 C
3347 02-09-2009 21:46:01 18 C 46 % 6.22 C
3348 02-09-2009 21:58:01 17.9 C 48 % 6.75 C
3349 02-09-2009 22:10:02 17.8 C 48 % 6.65 C
3350 02-09-2009 22:23:02 16.9 C 56 % 8.07 C
Sensor: Nr:Datum:Temp:Feuchte:Taupunkt:
Aussen-T/F 3351 02-09-2009 22:35:02 16.2 C 69 % 10.51 C
3352 02-09-2009 22:47:03 15.3 C 73 % 10.49 C
3353 02-09-2009 22:59:03 15.7 C 77 % 11.68 C
3354 02-09-2009 23:11:03 16 C 74 % 11.37 C
3355 02-09-2009 23:23:03 16.2 C 71 % 10.94 C
3356 02-09-2009 23:35:03 16 C 69 % 10.32 C
3357 02-09-2009 23:47:03 16 C 69 % 10.32 C
3358 02-09-2009 23:59:03 16.2 C 68 % 10.29 C
3359 03-09-2009 00:11:03 16.2 C 70 % 10.73 C
3360 03-09-2009 00:23:03 16.4 C 66 % 10.04 C
3361 03-09-2009 00:35:03 16.6 C 64 % 9.77 C
3362 03-09-2009 00:47:03 16.7 C 63 % 9.63 C
3363 03-09-2009 00:59:03 16.8 C 64 % 9.96 C
3364 03-09-2009 01:11:03 16.6 C 64 % 9.77 C
3365 03-09-2009 01:23:03 16.5 C 64 % 9.67 C
3366 03-09-2009 01:35:03 16.6 C 64 % 9.77 C
3367 03-09-2009 01:47:03 16.5 C 64 % 9.67 C
3368 03-09-2009 01:59:03 16.5 C 64 % 9.67 C
3369 03-09-2009 02:11:03 16.4 C 65 % 9.81 C
3370 03-09-2009 02:23:03 16.5 C 64 % 9.67 C
3371 03-09-2009 02:35:04 15.6 C 71 % 10.37 C
3372 03-09-2009 02:47:04 15 C 76 % 10.81 C
3373 03-09-2009 02:59:04 15 C 78 % 11.2 C
3374 03-09-2009 03:11:04 15 C 80 % 11.58 C
3375 03-09-2009 03:23:04 14.9 C 83 % 12.04 C
Sensor: Nr:Datum:Temp:Feuchte:Taupunkt:
Aussen-T/F 3376 03-09-2009 03:35:04 15 C 82 % 11.95 C
3377 03-09-2009 03:47:04 15.1 C 82 % 12.05 C
3378 03-09-2009 03:59:04 15.1 C 82 % 12.05 C
3379 03-09-2009 04:11:04 15.3 C 80 % 11.87 C
3380 03-09-2009 04:23:04 15.3 C 80 % 11.87 C
3381 03-09-2009 04:35:04 15.3 C 80 % 11.87 C
3382 03-09-2009 04:47:04 15.4 C 80 % 11.97 C
3383 03-09-2009 04:59:04 15 C 81 % 11.77 C
3384 03-09-2009 05:11:04 15 C 83 % 12.14 C
3385 03-09-2009 05:23:04 14.9 C 85 % 12.4 C
3386 03-09-2009 05:35:04 14.8 C 86 % 12.48 C
3387 03-09-2009 05:47:04 14.8 C 86 % 12.48 C
3388 03-09-2009 05:59:04 14.7 C 86 % 12.38 C
3389 03-09-2009 06:11:04 14.7 C 88 % 12.73 C
3390 03-09-2009 06:23:05 14.7 C 88 % 12.73 C
3391 03-09-2009 06:35:05 15 C 87 % 12.86 C
3392 03-09-2009 06:47:05 15 C 87 % 12.86 C
3393 03-09-2009 06:59:05 14.8 C 88 % 12.83 C
3394 03-09-2009 07:11:02 14.8 C 88 % 12.83 C
3395 03-09-2009 07:23:03 14.7 C 89 % 12.91 C
3396 03-09-2009 07:35:02 14.9 C 90 % 13.28 C
3397 03-09-2009 07:47:02 15.2 C 90 % 13.57 C
3398 03-09-2009 07:59:02 15.4 C 89 % 13.6 C
3399 03-09-2009 08:11:02 15.6 C 88 % 13.62 C
3400 03-09-2009 08:23:02 15.7 C 87 % 13.54 C
Sensor: Nr:Datum:Temp:Feuchte:Taupunkt:
Aussen-T/F 3401 03-09-2009 08:35:03 15.8 C 85 % 13.28 C
3402 03-09-2009 08:47:02 15.8 C 85 % 13.28 C
3403 03-09-2009 08:59:03 15.7 C 86 % 13.37 C
3404 03-09-2009 09:11:01 16 C 83 % 13.12 C
3405 03-09-2009 09:23:01 16.4 C 80 % 12.94 C
3406 03-09-2009 09:35:02 16.8 C 78 % 12.94 C
3407 03-09-2009 09:47:02 17.7 C 71 % 12.38 C
3408 03-09-2009 09:59:02 17.8 C 70 % 12.26 C
3409 03-09-2009 10:11:02 17.9 C 68 % 11.91 C
3410 03-09-2009 10:23:01 18.3 C 64 % 11.38 C
3411 03-09-2009 10:35:02 18.6 C 63 % 11.42 C
3412 03-09-2009 10:47:01 17 C 73 % 12.13 C
3413 03-09-2009 10:59:01 17.2 C 75 % 12.73 C
3414 03-09-2009 11:11:02 17.7 C 67 % 11.5 C
3415 03-09-2009 11:23:02 18 C 61 % 10.37 C
3416 03-09-2009 11:35:02 18.2 C 56 % 9.29 C
3417 03-09-2009 11:47:01 18.8 C 55 % 9.58 C
3418 03-09-2009 11:59:01 18.5 C 53 % 8.75 C
3419 03-09-2009 12:11:02 18.7 C 48 % 7.48 C
3420 03-09-2009 12:23:02 19.2 C 44 % 6.66 C
3421 03-09-2009 12:35:02 19.4 C 41 % 5.82 C
3422 03-09-2009 12:47:02 19.3 C 39 % 5.01 C
3423 03-09-2009 12:59:02 19.5 C 38 % 4.82 C
3424 03-09-2009 13:11:01 19.4 C 37 % 4.35 C
3425 03-09-2009 13:23:02 19.7 C 39 % 5.37 C
Sensor: Nr:Datum:Temp:Feuchte:Taupunkt:
Aussen-T/F 3426 03-09-2009 13:35:01 19.5 C 37 % 4.44 C
3427 03-09-2009 13:47:02 19.9 C 37 % 4.79 C
3428 03-09-2009 13:59:02 20.6 C 36 % 5.02 C
3429 03-09-2009 14:11:01 20.8 C 35 % 4.79 C
3430 03-09-2009 14:23:02 20.9 C 35 % 4.88 C
3431 03-09-2009 14:35:01 21.4 C 33 % 4.48 C
3432 03-09-2009 14:47:02 21.3 C 32 % 3.95 C
3433 03-09-2009 14:59:03 20.8 C 33 % 3.95 C
3434 03-09-2009 15:11:02 21.8 C 30 % 3.47 C
3435 03-09-2009 15:23:02 22.5 C 29 % 3.6 C
3436 03-09-2009 15:35:02 22.5 C 26 % 2.06 C
3437 03-09-2009 15:47:02 21.7 C 26 % 1.38 C
3438 03-09-2009 15:59:02 21.8 C 28 % 2.5 C
3439 03-09-2009 16:11:02 20.8 C 30 % 2.61 C
3440 03-09-2009 16:23:01 20.3 C 32 % 3.08 C
3441 03-09-2009 16:35:02 20.2 C 32 % 3 C
3442 03-09-2009 16:47:02 20.1 C 32 % 2.91 C
3443 03-09-2009 16:59:02 19.9 C 34 % 3.59 C
3444 03-09-2009 17:11:02 19.7 C 34 % 3.41 C
3445 03-09-2009 17:23:02 19.6 C 35 % 3.74 C
3446 03-09-2009 17:35:02 19.6 C 35 % 3.74 C
3447 03-09-2009 17:47:02 19.5 C 35 % 3.65 C
3448 03-09-2009 17:59:02 19.4 C 35 % 3.56 C
3449 03-09-2009 18:11:02 18.5 C 42 % 5.36 C
3450 03-09-2009 18:23:02 17.6 C 50 % 7.06 C
Sensor: Nr:Datum:Temp:Feuchte:Taupunkt:
Aussen-T/F 3451 03-09-2009 18:35:02 18.1 C 48 % 6.93 C
3452 03-09-2009 18:47:02 18.3 C 46 % 6.49 C
3453 03-09-2009 18:59:02 18.2 C 46 % 6.4 C
3454 03-09-2009 19:11:02 18.4 C 47 % 6.9 C
3455 03-09-2009 19:23:02 18 C 47 % 6.53 C
3456 03-09-2009 19:35:02 17.7 C 47 % 6.26 C
3457 03-09-2009 19:47:02 17.7 C 47 % 6.26 C
3458 03-09-2009 19:59:02 17.5 C 47 % 6.07 C
3459 03-09-2009 20:11:02 17.5 C 47 % 6.07 C
3460 03-09-2009 20:23:03 17.5 C 47 % 6.07 C
3461 03-09-2009 20:35:02 17.5 C 47 % 6.07 C
3462 03-09-2009 20:47:03 17.3 C 46 % 5.58 C
3463 03-09-2009 20:59:03 17.1 C 46 % 5.4 C
3464 03-09-2009 21:11:02 17.1 C 45 % 5.08 C
3465 03-09-2009 21:23:02 17.1 C 45 % 5.08 C
3466 03-09-2009 21:35:02 17 C 45 % 4.99 C
3467 03-09-2009 21:48:04 17 C 45 % 4.99 C
3468 03-09-2009 22:00:04 16.6 C 46 % 4.95 C
3469 03-09-2009 22:12:04 16.4 C 48 % 5.37 C
3470 03-09-2009 22:24:04 16.2 C 48 % 5.19 C
3471 03-09-2009 22:36:04 16.2 C 48 % 5.19 C
3472 03-09-2009 22:48:04 16.3 C 47 % 4.98 C
3473 03-09-2009 23:00:04 16.3 C 48 % 5.28 C
3474 03-09-2009 23:12:04 16.1 C 48 % 5.1 C
3475 03-09-2009 23:24:04 16.2 C 49 % 5.49 C
Sensor: Nr:Datum:Temp:Feuchte:Taupunkt:
Aussen-T/F 3476 03-09-2009 23:36:04 16.2 C 50 % 5.78 C
3477 03-09-2009 23:48:05 16.2 C 50 % 5.78 C
3478 04-09-2009 00:00:05 16.1 C 49 % 5.39 C
3479 04-09-2009 00:12:05 16.1 C 49 % 5.39 C
3480 04-09-2009 00:24:05 16.1 C 48 % 5.1 C
3481 04-09-2009 00:36:05 16 C 48 % 5.01 C
3482 04-09-2009 00:48:05 15.9 C 49 % 5.21 C
3483 04-09-2009 01:00:05 15.8 C 50 % 5.41 C
3484 04-09-2009 01:12:05 15.7 C 51 % 5.6 C
3485 04-09-2009 01:24:05 15.6 C 52 % 5.79 C
3486 04-09-2009 01:36:05 15.6 C 53 % 6.06 C
3487 04-09-2009 01:48:05 15.6 C 54 % 6.34 C
3488 04-09-2009 02:00:05 15.5 C 55 % 6.51 C
3489 04-09-2009 02:12:05 15.4 C 56 % 6.68 C
3490 04-09-2009 02:24:05 15.2 C 58 % 7 C
3491 04-09-2009 02:36:05 15.1 C 58 % 6.91 C
3492 04-09-2009 02:48:05 15.1 C 59 % 7.16 C
3493 04-09-2009 03:00:05 15.1 C 59 % 7.16 C
3494 04-09-2009 03:12:05 15.1 C 59 % 7.16 C
3495 04-09-2009 03:24:05 15.1 C 59 % 7.16 C
3496 04-09-2009 03:36:05 15 C 60 % 7.31 C
3497 04-09-2009 03:48:06 15.1 C 61 % 7.64 C
3498 04-09-2009 04:00:06 15 C 61 % 7.55 C
3499 04-09-2009 04:12:06 15 C 61 % 7.55 C
3500 04-09-2009 04:24:06 15 C 62 % 7.79 C
Sensor: Nr:Datum:Temp:Feuchte:Taupunkt:
Aussen-T/F 3501 04-09-2009 04:36:06 15 C 62 % 7.79 C
3502 04-09-2009 04:48:06 14.9 C 62 % 7.69 C
3503 04-09-2009 05:00:06 14.8 C 61 % 7.36 C
3504 04-09-2009 05:12:06 14.8 C 61 % 7.36 C
3505 04-09-2009 05:24:06 14.6 C 62 % 7.41 C
3506 04-09-2009 05:36:06 14.5 C 62 % 7.32 C
3507 04-09-2009 05:48:06 14.3 C 63 % 7.36 C
3508 04-09-2009 06:00:06 14 C 64 % 7.31 C
3509 04-09-2009 06:12:06 13.8 C 64 % 7.12 C
3510 04-09-2009 06:24:06 13.7 C 63 % 6.79 C
3511 04-09-2009 06:36:04 13.6 C 64 % 6.93 C
3512 04-09-2009 06:48:02 13.7 C 64 % 7.02 C
3513 04-09-2009 07:00:02 13.7 C 64 % 7.02 C
3514 04-09-2009 07:12:03 13.8 C 64 % 7.12 C
3515 04-09-2009 07:24:02 13.7 C 64 % 7.02 C
3516 04-09-2009 07:36:01 13.4 C 64 % 6.74 C
3517 04-09-2009 07:48:02 13.3 C 64 % 6.64 C
3518 04-09-2009 08:00:02 13.2 C 64 % 6.55 C
3519 04-09-2009 08:12:01 13.3 C 64 % 6.64 C
3520 04-09-2009 08:24:02 13.5 C 63 % 6.6 C
3521 04-09-2009 08:36:01 13.8 C 61 % 6.42 C
3522 04-09-2009 08:48:01 13.9 C 61 % 6.51 C
3523 04-09-2009 09:00:01 13.8 C 61 % 6.42 C
3524 04-09-2009 09:12:01 13.9 C 61 % 6.51 C
3525 04-09-2009 09:24:01 14 C 59 % 6.12 C
Sensor: Nr:Datum:Temp:Feuchte:Taupunkt:
Aussen-T/F 3526 04-09-2009 09:36:01 14.2 C 59 % 6.31 C
3527 04-09-2009 09:48:02 14.4 C 58 % 6.25 C
3528 04-09-2009 10:00:02 14.7 C 55 % 5.76 C
3529 04-09-2009 10:12:03 15.2 C 53 % 5.69 C
3530 04-09-2009 10:24:02 15.5 C 51 % 5.42 C
3531 04-09-2009 10:36:02 16.5 C 47 % 5.16 C
3532 04-09-2009 10:48:01 17 C 46 % 5.31 C
3533 04-09-2009 11:00:01 17.2 C 46 % 5.49 C
3534 04-09-2009 11:12:01 17.5 C 46 % 5.76 C
3535 04-09-2009 11:24:01 17.7 C 45 % 5.63 C
3536 04-09-2009 11:36:01 18 C 42 % 4.91 C
3537 04-09-2009 11:48:01 17.8 C 43 % 5.07 C
3538 04-09-2009 12:00:01 17.6 C 45 % 5.54 C
3539 04-09-2009 12:12:01 17.7 C 45 % 5.63 C
3540 04-09-2009 12:24:02 17.7 C 45 % 5.63 C
3541 04-09-2009 12:36:01 17.6 C 46 % 5.86 C
3542 04-09-2009 12:48:02 17.3 C 46 % 5.58 C
3543 04-09-2009 13:00:02 16.8 C 50 % 6.33 C
3544 04-09-2009 13:12:02 16.2 C 56 % 7.42 C
3545 04-09-2009 13:24:03 15.6 C 64 % 8.82 C
3546 04-09-2009 13:36:02 15.8 C 67 % 9.69 C
3547 04-09-2009 13:48:02 15.5 C 68 % 9.63 C
3548 04-09-2009 14:00:02 14.3 C 75 % 9.93 C
3549 04-09-2009 14:12:02 14.1 C 80 % 10.71 C
3550 04-09-2009 14:24:02 14 C 83 % 11.16 C
Sensor: Nr:Datum:Temp:Feuchte:Taupunkt:
Aussen-T/F 3551 04-09-2009 14:36:02 13.8 C 85 % 11.32 C
3552 04-09-2009 14:48:02 13.8 C 87 % 11.68 C
3553 04-09-2009 15:00:02 13.7 C 88 % 11.75 C
3554 04-09-2009 15:12:01 13.8 C 89 % 12.02 C
3555 04-09-2009 15:24:02 13.8 C 90 % 12.19 C
3556 04-09-2009 15:36:02 14 C 90 % 12.39 C
3557 04-09-2009 15:48:01 14.1 C 90 % 12.49 C
3558 04-09-2009 16:00:02 14.5 C 90 % 12.88 C
3559 04-09-2009 16:12:01 14.9 C 90 % 13.28 C
3560 04-09-2009 16:24:01 15.5 C 89 % 13.7 C
3561 04-09-2009 16:36:02 15.8 C 82 % 12.74 C
3562 04-09-2009 16:48:02 15.6 C 79 % 11.97 C
3563 04-09-2009 17:00:02 16 C 78 % 12.17 C
3564 04-09-2009 17:12:02 15.7 C 80 % 12.26 C
3565 04-09-2009 17:24:02 15.1 C 79 % 11.49 C
3566 04-09-2009 17:36:02 14.4 C 84 % 11.73 C
3567 04-09-2009 17:48:02 14.2 C 85 % 11.72 C
3568 04-09-2009 18:00:02 14 C 85 % 11.52 C
3569 04-09-2009 18:12:02 14.2 C 86 % 11.89 C
3570 04-09-2009 18:24:02 14.5 C 87 % 12.36 C
3571 04-09-2009 18:36:02 14.2 C 86 % 11.89 C
3572 04-09-2009 18:48:02 14 C 81 % 10.79 C
3573 04-09-2009 19:00:02 14.1 C 82 % 11.08 C
3574 04-09-2009 19:12:03 14.6 C 79 % 11 C
3575 04-09-2009 19:24:02 15 C 71 % 9.79 C
Sensor: Nr:Datum:Temp:Feuchte:Taupunkt:
Aussen-T/F 3576 04-09-2009 19:36:02 14.5 C 68 % 8.67 C
3577 04-09-2009 19:48:01 13.9 C 65 % 7.44 C
3578 04-09-2009 20:00:01 13.3 C 71 % 8.16 C
3579 04-09-2009 20:12:02 12.7 C 73 % 7.99 C
3580 04-09-2009 20:24:02 12.3 C 76 % 8.2 C
3581 04-09-2009 20:36:01 11.9 C 79 % 8.38 C
3582 04-09-2009 20:48:01 12 C 75 % 7.71 C
3583 04-09-2009 21:00:01 12.3 C 72 % 7.4 C
3584 04-09-2009 21:12:01 12.5 C 71 % 7.39 C
3585 04-09-2009 21:24:02 12.5 C 70 % 7.18 C
3586 04-09-2009 21:36:01 12.4 C 71 % 7.3 C
3587 04-09-2009 21:49:02 12.5 C 71 % 7.39 C
3588 04-09-2009 22:01:02 12.4 C 71 % 7.3 C
3589 04-09-2009 22:13:02 12 C 72 % 7.12 C
3590 04-09-2009 22:25:02 11.8 C 75 % 7.52 C
3591 04-09-2009 22:37:02 11.9 C 75 % 7.62 C
3592 04-09-2009 22:49:02 11.9 C 76 % 7.81 C
3593 04-09-2009 23:01:02 11.9 C 76 % 7.81 C
3594 04-09-2009 23:13:02 12.1 C 74 % 7.61 C
3595 04-09-2009 23:25:02 12.5 C 71 % 7.39 C
3596 04-09-2009 23:37:02 12.4 C 69 % 6.88 C
3597 04-09-2009 23:49:02 12.5 C 69 % 6.97 C
3598 05-09-2009 00:01:02 12.7 C 69 % 7.17 C
3599 05-09-2009 00:13:02 12.8 C 69 % 7.26 C
3600 05-09-2009 00:25:03 12.8 C 70 % 7.47 C
Sensor: Nr:Datum:Temp:Feuchte:Taupunkt:
Aussen-T/F 3601 05-09-2009 00:37:03 12.9 C 69 % 7.36 C
3602 05-09-2009 00:49:03 12.7 C 70 % 7.38 C
3603 05-09-2009 01:01:03 12.5 C 71 % 7.39 C
3604 05-09-2009 01:13:03 12.5 C 71 % 7.39 C
3605 05-09-2009 01:25:03 12.5 C 70 % 7.18 C
3606 05-09-2009 01:37:03 12.6 C 70 % 7.28 C
3607 05-09-2009 01:49:03 12.5 C 70 % 7.18 C
3608 05-09-2009 02:01:03 12.5 C 70 % 7.18 C
3609 05-09-2009 02:13:03 12.6 C 69 % 7.07 C
3610 05-09-2009 02:25:03 12.5 C 70 % 7.18 C
3611 05-09-2009 02:37:03 12.5 C 70 % 7.18 C
3612 05-09-2009 02:49:03 12.6 C 69 % 7.07 C
3613 05-09-2009 03:01:03 12.6 C 70 % 7.28 C
3614 05-09-2009 03:13:03 12.7 C 69 % 7.17 C
3615 05-09-2009 03:25:03 12.8 C 69 % 7.26 C
3616 05-09-2009 03:37:03 12.7 C 70 % 7.38 C
3617 05-09-2009 03:49:03 12.7 C 70 % 7.38 C
3618 05-09-2009 04:01:03 12.8 C 70 % 7.47 C
3619 05-09-2009 04:13:04 12.8 C 69 % 7.26 C
3620 05-09-2009 04:25:04 12.8 C 70 % 7.47 C
3621 05-09-2009 04:37:04 12.7 C 70 % 7.38 C
3622 05-09-2009 04:49:04 12.7 C 70 % 7.38 C
3623 05-09-2009 05:01:04 12.7 C 70 % 7.38 C
3624 05-09-2009 05:13:04 12.7 C 70 % 7.38 C
3625 05-09-2009 05:25:04 12.6 C 71 % 7.49 C
Sensor: Nr:Datum:Temp:Feuchte:Taupunkt:
Aussen-T/F 3626 05-09-2009 05:37:04 12.6 C 71 % 7.49 C
3627 05-09-2009 05:49:04 12.6 C 71 % 7.49 C
3628 05-09-2009 06:01:04 12.7 C 70 % 7.38 C
3629 05-09-2009 06:13:04 12.5 C 70 % 7.18 C
3630 05-09-2009 06:25:04 12.3 C 72 % 7.4 C
3631 05-09-2009 06:37:04 12.4 C 72 % 7.5 C
3632 05-09-2009 06:49:04 12.5 C 71 % 7.39 C
3633 05-09-2009 07:01:04 12.6 C 71 % 7.49 C
3634 05-09-2009 07:13:04 12.7 C 70 % 7.38 C
3635 05-09-2009 07:25:04 12.5 C 70 % 7.18 C
3636 05-09-2009 07:37:04 12.5 C 71 % 7.39 C
3637 05-09-2009 07:49:04 12.4 C 71 % 7.3 C
3638 05-09-2009 08:01:05 12.4 C 72 % 7.5 C
3639 05-09-2009 08:13:05 12.6 C 72 % 7.69 C
3640 05-09-2009 08:25:05 12.6 C 72 % 7.69 C
3641 05-09-2009 08:37:05 13.1 C 70 % 7.76 C
3642 05-09-2009 08:49:05 13.2 C 69 % 7.64 C
3643 05-09-2009 09:01:02 13.6 C 69 % 8.03 C
3644 05-09-2009 09:13:02 14.1 C 66 % 7.85 C
3645 05-09-2009 09:25:01 14.7 C 63 % 7.74 C
3646 05-09-2009 09:37:02 14.7 C 62 % 7.5 C
3647 05-09-2009 09:49:02 15.1 C 61 % 7.64 C
3648 05-09-2009 10:01:02 15.4 C 61 % 7.93 C
3649 05-09-2009 10:13:02 15.1 C 60 % 7.4 C
3650 05-09-2009 10:25:02 15.2 C 60 % 7.5 C
Sensor: Nr:Datum:Temp:Feuchte:Taupunkt:
Aussen-T/F 3651 05-09-2009 10:37:02 15.7 C 59 % 7.72 C
3652 05-09-2009 10:49:01 16.3 C 55 % 7.25 C
3653 05-09-2009 11:01:02 16.9 C 53 % 7.27 C
3654 05-09-2009 11:13:02 17.5 C 50 % 6.97 C
3655 05-09-2009 11:25:01 17.3 C 51 % 7.08 C
3656 05-09-2009 11:37:01 16.8 C 53 % 7.18 C
3657 05-09-2009 11:49:02 16.8 C 52 % 6.9 C
3658 05-09-2009 12:01:02 17.3 C 47 % 5.89 C
3659 05-09-2009 12:13:02 17.7 C 44 % 5.31 C
3660 05-09-2009 12:25:02 17.7 C 43 % 4.98 C
3661 05-09-2009 12:37:02 17.7 C 42 % 4.64 C
3662 05-09-2009 12:49:02 18 C 41 % 4.57 C
3663 05-09-2009 13:01:02 18.2 C 41 % 4.75 C
3664 05-09-2009 13:13:03 18.4 C 42 % 5.27 C
3665 05-09-2009 13:25:02 18.2 C 40 % 4.39 C
3666 05-09-2009 13:37:02 18 C 39 % 3.85 C
3667 05-09-2009 13:49:01 18.1 C 41 % 4.66 C
3668 05-09-2009 14:01:01 18 C 41 % 4.57 C
3669 05-09-2009 14:13:01 18.6 C 37 % 3.64 C
3670 05-09-2009 14:25:01 19.9 C 35 % 4 C
3671 05-09-2009 14:37:01 20.2 C 34 % 3.85 C
3672 05-09-2009 14:49:02 20.3 C 30 % 2.18 C
3673 05-09-2009 15:01:02 21 C 29 % 2.31 C
3674 05-09-2009 15:13:02 21.8 C 27 % 1.99 C
3675 05-09-2009 15:25:03 21 C 27 % 1.31 C
Sensor: Nr:Datum:Temp:Feuchte:Taupunkt:
Aussen-T/F 3676 05-09-2009 15:37:02 22.1 C 26 % 1.72 C
3677 05-09-2009 15:49:03 21.8 C 27 % 1.99 C
3678 05-09-2009 16:01:02 20 C 34 % 3.68 C
3679 05-09-2009 16:13:02 18.5 C 43 % 5.7 C
3680 05-09-2009 16:25:02 16.8 C 50 % 6.33 C
3681 05-09-2009 16:37:02 16.9 C 52 % 6.99 C
3682 05-09-2009 16:49:02 17.4 C 47 % 5.98 C
3683 05-09-2009 17:01:02 17.4 C 46 % 5.67 C
3684 05-09-2009 17:13:02 16.8 C 48 % 5.74 C
3685 05-09-2009 17:25:02 16.9 C 48 % 5.83 C
3686 05-09-2009 17:37:02 18.5 C 41 % 5.01 C
3687 05-09-2009 17:49:02 19.5 C 37 % 4.44 C
3688 05-09-2009 18:01:01 18.7 C 39 % 4.48 C
3689 05-09-2009 18:13:01 17.9 C 43 % 5.16 C
3690 05-09-2009 18:25:02 17.9 C 41 % 4.48 C
3691 05-09-2009 18:37:02 18.6 C 37 % 3.64 C
3692 05-09-2009 18:49:01 18.3 C 39 % 4.12 C
3693 05-09-2009 19:01:02 17.8 C 43 % 5.07 C
3694 05-09-2009 19:13:02 17.1 C 47 % 5.71 C
3695 05-09-2009 19:25:01 17.3 C 49 % 6.5 C
3696 05-09-2009 19:37:02 17.3 C 50 % 6.79 C
3697 05-09-2009 19:49:02 16.4 C 55 % 7.35 C
3698 05-09-2009 20:01:02 15.8 C 59 % 7.81 C
3699 05-09-2009 20:13:02 15.3 C 60 % 7.59 C
3700 05-09-2009 20:25:02 14.8 C 63 % 7.83 C
Sensor: Nr:Datum:Temp:Feuchte:Taupunkt:
Aussen-T/F 3701 05-09-2009 20:37:02 14.6 C 63 % 7.64 C
3702 05-09-2009 20:49:02 14 C 66 % 7.76 C
3703 05-09-2009 21:01:02 13.9 C 67 % 7.88 C
3704 05-09-2009 21:13:02 13.8 C 69 % 8.22 C
3705 05-09-2009 21:25:02 13.7 C 69 % 8.12 C
3706 05-09-2009 21:37:02 13.7 C 70 % 8.33 C
3707 05-09-2009 21:49:02 13.5 C 72 % 8.56 C
3708 05-09-2009 22:01:02 13.2 C 73 % 8.47 C
3709 05-09-2009 22:13:02 13.1 C 74 % 8.58 C
3710 05-09-2009 22:25:02 12.8 C 75 % 8.48 C
3711 05-09-2009 22:37:02 12.8 C 74 % 8.29 C
3712 05-09-2009 22:49:02 12.7 C 74 % 8.19 C
3713 05-09-2009 23:01:01 12.6 C 75 % 8.29 C
3714 05-09-2009 23:13:01 12.5 C 74 % 8 C
3715 05-09-2009 23:25:02 12.3 C 74 % 7.8 C
3716 05-09-2009 23:37:02 12.2 C 76 % 8.1 C
3717 05-09-2009 23:49:01 11.8 C 77 % 7.9 C

Legende:
   Min
   Max


Maximal/Minimal-Werte vom 06.08.2009 - 05.09.2009

Sensor Min Max Avg
Temp
(Aussen-T/F)
8.5 °C
30-08-2009  06:55:01
34.7 °C
20-08-2009  15:22:33
20.82 °C
Feuchte
(Aussen-T/F)
20 %
06-08-2009  13:56:22
94 %
13-08-2009  06:39:57
54.82 %
Taupunkt
(Aussen-T/F)
-1.25 C
29-08-2009  15:54:02
18.64 C
10-08-2009  13:48:50
10.03 C

Die Daten stammen von einer Davis Vantage Pro 2 Wetter-Station und werden unter Linux mit der Software wview2wettercgi und aufbereitet. Alle Angaben erfolgen ohne Gewähr für ihre Vollständigkeit oder Richtigkeit.
Kontakt: Rainer Krienke krienke@uni-koblenz.de . Meine Webseiten an der Uni Koblenz oder privat.
Version: $Revision: 0.78 $